LH728 / D-ABYF 7700 Squawk Report (19th of February, 2019)

Aircraft B748 Reg No. D-ABYF Age 6 years old
Model 747 Jet engines 4 First flight 28-09-12
Registered 25-10-12 Rollout 11-05-12 Delivered 23-10-12
Construction No. 37830 Line No. 1456 Series 830
ADSHEX 3C4B26 Airline name Lufthansa Owner N/A
Airfield based Frankfurt-Main~Hessen~D First tracked 2017-07-13 03:31:00

Flight history for D-ABYF

Route Flight No Date Playback
Frankfurt Main (FRA) - O. R. Tambo International Airport (JNB) LH572 2019-03-21 07:26:00
John F Kennedy Intl (JFK) - Frankfurt Main (FRA) LH401 2019-03-20 04:14:00
Frankfurt Main (FRA) - John F Kennedy Intl (JFK) LH400 2019-03-19 18:45:00
Chicago Ohare Intl (ORD) - Frankfurt Main (FRA) LH431 2019-03-19 10:00:00
Frankfurt Main (FRA) - Chicago Ohare Intl (ORD) LH430 2019-03-18 22:26:00
O. R. Tambo International Airport (JNB) - Frankfurt Main (FRA) LH573 2019-03-18 10:04:00
Frankfurt Main (FRA) - O. R. Tambo International Airport (JNB) LH572 2019-03-17 17:34:00
Licenciado Benito Juarez (MEX) - Frankfurt Main (FRA) LH499 2019-03-16 21:14:00
Frankfurt Main (FRA) - Licenciado Benito Juarez (MEX) LH498 2019-03-16 03:42:00
Kempegowda International Airport (BLR) - Frankfurt Main (FRA) LH755 2019-03-15 13:03:00
Frankfurt Main (FRA) - Kempegowda International Airport (BLR) LH754 2019-03-14 22:18:00
Chicago Ohare Intl (ORD) - Frankfurt Main (FRA) LH431 2019-03-14 12:11:00
Frankfurt Main (FRA) - Chicago Ohare Intl (ORD) LH430 2019-03-13 22:48:00
Chicago Ohare Intl (ORD) - Frankfurt Main (FRA) LH431 2019-03-13 10:12:00
Frankfurt Main (FRA) - Chicago Ohare Intl (ORD) LH430 2019-03-12 22:20:00
John F Kennedy Intl (JFK) - Frankfurt Main (FRA) LH401 2019-03-12 10:00:00
Frankfurt Main (FRA) - John F Kennedy Intl (JFK) LH400 2019-03-11 19:04:00
Washington Dulles International (IAD) - Frankfurt Main (FRA) LH419 2019-03-11 10:25:00
Frankfurt Main (FRA) - Washington Dulles International (IAD) LH418 2019-03-10 23:35:00
Guarulhos Gov Andre Franco Montoro (GRU) - Frankfurt Main (FRA) LH507 2019-03-10 12:07:00
Time Lat Lon Altitude Heading Speed Vertical Rate
2019-02-19 22:40:24 GMT 54.367104 83.099419 35,000 102 537 0
2019-02-19 22:40:18 GMT 54.370220 83.074532 35,000 102 537 0
2019-02-19 22:40:11 GMT 54.373943 83.045074 35,000 102 537 0
2019-02-19 22:40:00 GMT 54.379669 82.998962 35,000 101 536 0
2019-02-19 22:39:49 GMT 54.384838 82.956596 34,975 101 537 64
2019-02-19 22:39:39 GMT 54.390015 82.913338 34,975 101 536 0
2019-02-19 22:39:28 GMT 54.395172 82.870537 34,975 101 536 0
2019-02-19 22:39:19 GMT 54.400341 82.827347 34,975 101 535 0
2019-02-19 22:39:07 GMT 54.405506 82.783730 34,975 101 535 0
2019-02-19 22:38:57 GMT 54.410534 82.741364 34,975 101 535 0
2019-02-19 22:38:47 GMT 54.415749 82.697334 34,975 101 535 0
2019-02-19 22:38:34 GMT 54.422218 82.642159 34,975 101 535 0
2019-02-19 22:38:26 GMT 54.425758 82.611862 34,975 101 535 0
2019-02-19 22:38:15 GMT 54.431110 82.566170 35,000 101 535 0
2019-02-19 22:38:06 GMT 54.435974 82.524208 35,000 101 535 0
2019-02-19 22:37:55 GMT 54.440796 82.482185 35,000 101 535 64
2019-02-19 22:37:44 GMT 54.445862 82.437691 34,975 101 535 64
2019-02-19 22:37:35 GMT 54.450714 82.395279 34,975 101 535 0
2019-02-19 22:37:23 GMT 54.455750 82.350769 35,000 100 534 0
2019-02-19 22:37:13 GMT 54.460857 82.305824 35,000 100 534 0
2019-02-19 22:37:03 GMT 54.465652 82.263458 35,000 101 535 0
2019-02-19 22:36:53 GMT 54.470306 82.222733 35,000 101 534 0
2019-02-19 22:36:43 GMT 54.475342 82.179993 35,000 101 533 64
2019-02-19 22:36:31 GMT 54.480743 82.134438 35,000 101 533 0
2019-02-19 22:36:22 GMT 54.485825 82.091866 35,000 101 532 0
2019-02-19 22:36:11 GMT 54.490791 82.049561 35,000 101 532 64
2019-02-19 22:36:01 GMT 54.495865 82.006531 34,975 101 532 0
2019-02-19 22:35:50 GMT 54.500984 81.963081 35,000 101 532 0
2019-02-19 22:35:40 GMT 54.506058 81.919716 35,000 101 532 0
2019-02-19 22:35:26 GMT 54.512810 81.861382 35,000 101 531 0
2019-02-19 22:35:18 GMT 54.516209 81.832497 35,000 101 531 0
2019-02-19 22:35:09 GMT 54.521004 81.791214 35,000 101 530 0
2019-02-19 22:34:58 GMT 54.526123 81.747017 35,000 101 530 0
2019-02-19 22:34:47 GMT 54.531013 81.704155 35,000 101 529 0
2019-02-19 22:34:38 GMT 54.535900 81.661629 35,000 101 529 64
2019-02-19 22:34:27 GMT 54.540741 81.619095 35,000 101 529 64
2019-02-19 22:34:17 GMT 54.545628 81.576233 35,000 101 529 0
2019-02-19 22:34:06 GMT 54.550598 81.532532 34,975 101 528 0
2019-02-19 22:33:55 GMT 54.555450 81.489632 35,000 101 528 0
2019-02-19 22:33:45 GMT 54.560341 81.446396 35,000 100 527 0
2019-02-19 22:33:34 GMT 54.565182 81.403198 35,000 100 527 0
2019-02-19 22:33:25 GMT 54.569916 81.360870 35,000 100 527 0
2019-02-19 22:33:14 GMT 54.574677 81.318138 35,000 100 526 64
2019-02-19 22:33:04 GMT 54.579517 81.274193 34,975 100 526 64
2019-02-19 22:32:52 GMT 54.584290 81.231537 34,975 100 525 0
2019-02-19 22:32:42 GMT 54.589096 81.188072 34,975 100 525 0
2019-02-19 22:32:33 GMT 54.593624 81.146683 34,975 100 524 0
2019-02-19 22:32:22 GMT 54.598206 81.105354 35,000 100 524 0
2019-02-19 22:32:12 GMT 54.602875 81.062378 35,000 100 523 0
2019-02-19 22:32:01 GMT 54.607544 81.019890 35,000 100 523 0
2019-02-19 22:31:50 GMT 54.612259 80.976189 35,000 100 522 64
2019-02-19 22:31:40 GMT 54.616791 80.934097 34,975 100 522 64
2019-02-19 22:31:30 GMT 54.621414 80.891281 34,975 100 521 0
2019-02-19 22:31:19 GMT 54.626083 80.848473 34,975 100 521 0
2019-02-19 22:31:08 GMT 54.630707 80.805656 34,975 100 520 -64
2019-02-19 22:30:59 GMT 54.635288 80.763329 35,000 100 520 0
2019-02-19 22:30:47 GMT 54.639816 80.720993 35,000 100 520 -64
2019-02-19 22:30:38 GMT 54.644165 80.679878 35,000 100 519 -64
2019-02-19 22:30:27 GMT 54.648743 80.636734 35,000 100 520 64
2019-02-19 22:30:16 GMT 54.653351 80.593208 35,000 100 520 64
2019-02-19 22:30:06 GMT 54.658009 80.548843 35,000 100 520 0
2019-02-19 22:29:56 GMT 54.662102 80.509727 34,975 100 520 0
2019-02-19 22:29:46 GMT 54.666714 80.465698 35,000 100 520 0
2019-02-19 22:29:35 GMT 54.670807 80.426163 35,000 100 520 64
2019-02-19 22:29:24 GMT 54.675323 80.382553 35,000 100 521 64
2019-02-19 22:29:12 GMT 54.680786 80.329445 35,000 100 520 0
2019-02-19 22:29:04 GMT 54.684170 80.296410 35,000 99 519 64
2019-02-19 22:28:53 GMT 54.688499 80.254044 34,975 99 519 0
2019-02-19 22:28:42 GMT 54.692963 80.210373 35,000 99 519 0
2019-02-19 22:28:31 GMT 54.697449 80.165947 34,975 99 519 64
2019-02-19 22:28:22 GMT 54.701614 80.124748 35,000 99 519 0
2019-02-19 22:28:10 GMT 54.705963 80.081123 34,975 99 519 64
2019-02-19 22:28:00 GMT 54.710175 80.039520 35,000 99 519 0
2019-02-19 22:27:49 GMT 54.714569 79.995895 35,000 99 519 0
2019-02-19 22:26:38 GMT 54.743866 79.699509 34,975 99 519 0
2019-02-19 22:25:19 GMT 54.774857 79.377434 34,975 99 520 0
2019-02-19 22:25:13 GMT 54.776810 79.356911 34,975 99 520 0
2019-02-19 22:24:48 GMT 54.786724 79.250961 34,975 99 521 0
2019-02-19 22:24:40 GMT 54.789516 79.220917 35,000 99 522 0
2019-02-19 22:24:32 GMT 54.792824 79.185043 35,000 99 523 0
2019-02-19 22:24:21 GMT 54.796967 79.140846 35,000 99 524 64
2019-02-19 22:23:58 GMT 54.805481 79.048409 35,000 98 526 0
2019-02-19 22:22:36 GMT 54.836395 78.705307 35,000 98 529 0
2019-02-19 22:22:25 GMT 54.840408 78.660172 34,975 98 529 0
2019-02-19 22:19:47 GMT 54.897190 77.997353 35,000 98 528 0
2019-02-19 22:19:40 GMT 54.899963 77.963509 35,000 98 528 64
2019-02-19 22:19:19 GMT 54.906502 77.883163 35,000 98 528 0
2019-02-19 22:19:14 GMT 54.908203 77.862206 35,000 98 528 0
2019-02-19 22:18:14 GMT 54.934994 77.609589 34,975 107 517 64
2019-02-19 22:17:16 GMT 54.985519 77.388824 34,975 112 510 0
2019-02-19 22:17:13 GMT 54.987782 77.379372 34,975 112 509 0
2019-02-19 22:17:01 GMT 54.999939 77.329292 35,000 112 509 0
2019-02-19 22:16:52 GMT 55.006683 77.301468 35,000 112 509 -64
2019-02-19 22:16:43 GMT 55.015808 77.263763 35,000 112 508 0
2019-02-19 22:16:31 GMT 55.025677 77.222733 35,000 112 508 64
2019-02-19 22:16:20 GMT 55.035645 77.181297 34,975 112 508 64
2019-02-19 22:16:11 GMT 55.044392 77.144745 34,975 112 509 0
2019-02-19 22:16:00 GMT 55.054398 77.102882 35,000 112 508 0
2019-02-19 22:15:51 GMT 55.063065 77.066666 35,000 112 507 0
2019-02-19 22:15:40 GMT 55.072460 77.027473 35,000 112 507 0
2019-02-19 22:15:29 GMT 55.082062 76.987099 35,000 112 507 0
2019-02-19 22:15:18 GMT 55.091446 76.947433 35,000 112 508 64
2019-02-19 22:15:09 GMT 55.100235 76.910439 35,000 112 508 0
2019-02-19 22:14:58 GMT 55.110447 76.867340 35,000 112 508 64
2019-02-19 22:14:47 GMT 55.119461 76.829086 35,000 112 508 0
2019-02-19 22:14:38 GMT 55.128387 76.791199 35,000 112 509 0
2019-02-19 22:14:26 GMT 55.138138 76.749924 34,975 112 509 64
2019-02-19 22:14:17 GMT 55.146992 76.712288 34,975 112 509 0
2019-02-19 22:13:36 GMT 55.183022 76.558647 35,000 112 510 0
We lost coverage of the aircraft here for a total of 22 minutes
2019-02-19 21:51:53 GMT 56.250183 71.484039 35,000 108 501 0
2019-02-19 21:51:42 GMT 56.258892 71.438431 35,000 108 501 0
2019-02-19 21:51:32 GMT 56.265690 71.402550 34,975 108 501 64
2019-02-19 21:51:22 GMT 56.273556 71.360832 34,975 108 501 0
2019-02-19 21:51:12 GMT 56.280724 71.323074 34,975 108 501 0
2019-02-19 21:51:00 GMT 56.290176 71.273117 34,975 108 500 64
2019-02-19 21:50:41 GMT 56.304062 71.199478 34,975 108 500 64
2019-02-19 21:50:29 GMT 56.313591 71.148750 34,975 108 500 -64
2019-02-19 21:50:20 GMT 56.319736 71.116051 35,000 108 500 0
2019-02-19 21:50:09 GMT 56.327602 71.073906 35,000 108 500 0
2019-02-19 21:50:00 GMT 56.335052 71.033737 34,975 108 500 64
2019-02-19 21:49:46 GMT 56.344574 70.982498 34,975 108 500 0
2019-02-19 21:49:37 GMT 56.352043 70.942329 35,000 108 500 -64
2019-02-19 21:49:28 GMT 56.357674 70.911942 35,000 108 499 0
2019-02-19 21:49:16 GMT 56.366455 70.864227 35,000 108 500 0
2019-02-19 21:49:07 GMT 56.373131 70.827911 35,000 108 499 64
2019-02-19 21:48:57 GMT 56.380672 70.786972 34,975 108 499 0
2019-02-19 21:48:46 GMT 56.387970 70.747124 35,000 108 499 -64
2019-02-19 21:48:35 GMT 56.395756 70.704575 35,000 108 499 0
2019-02-19 21:48:26 GMT 56.403397 70.662727 35,000 108 499 0
2019-02-19 21:48:15 GMT 56.410419 70.624496 35,000 108 499 -64
2019-02-19 21:48:04 GMT 56.418240 70.581490 35,000 108 499 64
2019-02-19 21:47:54 GMT 56.425507 70.541634 35,000 108 498 64
2019-02-19 21:47:43 GMT 56.432999 70.500298 35,000 108 497 0
2019-02-19 21:47:33 GMT 56.440796 70.457321 35,000 108 497 0
2019-02-19 21:47:23 GMT 56.447800 70.418785 35,000 108 497 64
2019-02-19 21:47:12 GMT 56.455811 70.374756 35,000 108 496 0
2019-02-19 21:47:01 GMT 56.463207 70.334305 35,000 108 496 0
2019-02-19 21:46:48 GMT 56.472610 70.282951 34,975 108 494 64
2019-02-19 21:46:42 GMT 56.477455 70.256279 35,000 108 494 0
2019-02-19 21:46:20 GMT 56.493748 70.167107 35,000 108 493 0
We lost coverage of the aircraft here for a total of 5 minutes
2019-02-19 21:41:14 GMT 56.683594 68.957230 35,000 105 495 0
2019-02-19 21:41:08 GMT 56.686707 68.936462 35,000 105 495 0
2019-02-19 21:37:28 GMT 56.814774 68.055695 35,000 104 491 0
2019-02-19 21:37:18 GMT 56.820030 68.018486 35,000 104 491 64
2019-02-19 21:37:08 GMT 56.825760 67.977554 34,975 104 491 0
2019-02-19 21:36:59 GMT 56.831360 67.937904 34,975 104 491 0
2019-02-19 21:36:47 GMT 56.837582 67.893822 34,975 104 492 0
2019-02-19 21:36:37 GMT 56.843307 67.852509 34,975 104 492 0
2019-02-19 21:36:27 GMT 56.848801 67.813194 34,975 104 492 0
2019-02-19 21:36:17 GMT 56.854660 67.770966 35,000 104 493 0
2019-02-19 21:36:07 GMT 56.860565 67.728226 35,000 104 494 0
2019-02-19 21:35:56 GMT 56.866398 67.686325 35,000 104 494 0
2019-02-19 21:35:45 GMT 56.871937 67.645920 35,000 104 495 0
2019-02-19 21:35:35 GMT 56.877991 67.601799 35,000 104 495 0
2019-02-19 21:35:24 GMT 56.883682 67.559998 35,000 103 496 0
2019-02-19 21:35:14 GMT 56.889767 67.515327 34,975 103 497 0
2019-02-19 21:35:03 GMT 56.895447 67.473862 35,000 103 497 0
2019-02-19 21:34:54 GMT 56.900940 67.433105 34,975 103 498 0
2019-02-19 21:34:42 GMT 56.907028 67.388161 34,975 103 498 0
2019-02-19 21:34:32 GMT 56.912483 67.347786 34,975 103 498 -64
2019-02-19 21:34:22 GMT 56.918289 67.304817 35,000 103 499 -64
2019-02-19 21:34:11 GMT 56.924103 67.261909 35,000 103 500 0
2019-02-19 21:33:59 GMT 56.930874 67.211433 35,000 103 500 0
2019-02-19 21:33:49 GMT 56.936367 67.170410 35,000 103 500 64
2019-02-19 21:33:40 GMT 56.941116 67.134796 34,975 103 500 64
2019-02-19 21:33:30 GMT 56.946793 67.092087 35,000 103 499 0
2019-02-19 21:33:19 GMT 56.952892 67.046104 34,975 103 499 0
2019-02-19 21:33:09 GMT 56.958107 67.006325 35,000 103 499 0
2019-02-19 21:32:57 GMT 56.964577 66.957153 34,975 103 499 64
2019-02-19 21:32:49 GMT 56.969463 66.919762 34,975 103 499 0
2019-02-19 21:32:36 GMT 56.975704 66.872276 35,000 103 498 0
2019-02-19 21:32:26 GMT 56.980965 66.832047 34,975 103 499 0
2019-02-19 21:32:18 GMT 56.985992 66.793526 35,000 103 498 0
2019-02-19 21:32:07 GMT 56.991394 66.751640 34,975 103 499 64
2019-02-19 21:31:56 GMT 56.997070 66.707787 34,975 103 498 0
2019-02-19 21:31:45 GMT 57.003029 66.661850 34,975 103 498 -64
2019-02-19 21:31:36 GMT 57.008194 66.622040 35,000 103 499 0
2019-02-19 21:31:25 GMT 57.013641 66.579720 35,000 103 499 0
2019-02-19 21:31:14 GMT 57.019463 66.534088 35,000 103 499 0
2019-02-19 21:31:04 GMT 57.024765 66.492607 34,975 103 498 64
2019-02-19 21:30:54 GMT 57.030029 66.451065 34,975 103 498 0
2019-02-19 21:30:44 GMT 57.035522 66.407463 35,000 103 498 0
2019-02-19 21:30:33 GMT 57.040741 66.366348 35,000 103 498 0
2019-02-19 21:30:22 GMT 57.046417 66.321098 35,000 102 498 0
2019-02-19 21:30:12 GMT 57.051544 66.280434 34,975 102 498 64
2019-02-19 21:30:01 GMT 57.057037 66.236488 35,000 103 497 -64
2019-02-19 21:29:52 GMT 57.062431 66.193336 35,000 102 497 0
2019-02-19 21:29:41 GMT 57.067596 66.152229 35,000 102 497 0
2019-02-19 21:29:30 GMT 57.073418 66.105446 35,000 102 497 0
2019-02-19 21:29:20 GMT 57.078583 66.063629 34,975 102 497 64
2019-02-19 21:29:09 GMT 57.083656 66.022514 34,975 102 497 -64
2019-02-19 21:29:00 GMT 57.088715 65.981911 35,000 102 497 -64
2019-02-19 21:28:48 GMT 57.094318 65.935867 35,000 102 496 64
2019-02-19 21:28:38 GMT 57.099289 65.895226 34,975 102 497 -64
2019-02-19 21:28:28 GMT 57.104374 65.853737 35,000 102 497 -64
2019-02-19 21:28:17 GMT 57.109772 65.809303 35,000 102 496 64
2019-02-19 21:28:07 GMT 57.115547 65.761589 34,975 102 496 0
2019-02-19 21:27:57 GMT 57.120438 65.720901 35,000 102 496 0
2019-02-19 21:27:46 GMT 57.125416 65.679283 34,975 102 496 0
2019-02-19 21:27:35 GMT 57.130955 65.633209 34,975 102 496 64
2019-02-19 21:27:25 GMT 57.135727 65.592926 34,975 102 496 -64
2019-02-19 21:27:14 GMT 57.140823 65.550102 35,000 102 496 0
2019-02-19 21:27:05 GMT 57.145851 65.508194 35,000 102 496 0
2019-02-19 21:26:54 GMT 57.151066 65.464165 35,000 102 496 64
2019-02-19 21:26:44 GMT 57.155811 65.423759 34,975 102 496 0
2019-02-19 21:26:33 GMT 57.161179 65.379723 34,975 103 496 0
2019-02-19 21:26:23 GMT 57.166660 65.337112 34,975 103 497 -64
2019-02-19 21:26:13 GMT 57.172485 65.294067 35,000 104 497 64
2019-02-19 21:26:02 GMT 57.178574 65.251236 34,975 105 497 0
2019-02-19 21:25:50 GMT 57.185440 65.205231 34,975 105 497 0
2019-02-19 21:25:42 GMT 57.191193 65.167793 34,975 105 497 0
2019-02-19 21:25:30 GMT 57.198177 65.121811 34,975 105 497 0
2019-02-19 21:25:21 GMT 57.203934 65.084038 34,975 105 497 0
2019-02-19 21:25:10 GMT 57.210663 65.039665 34,975 105 497 0
2019-02-19 21:24:59 GMT 57.216984 64.997772 34,975 105 497 0
2019-02-19 21:24:50 GMT 57.223221 64.956223 35,000 105 497 0
2019-02-19 21:24:39 GMT 57.229645 64.913872 34,975 105 497 0
2019-02-19 21:24:28 GMT 57.235886 64.872208 34,975 105 498 0
2019-02-19 21:24:18 GMT 57.242386 64.828949 35,000 105 498 0
2019-02-19 21:24:07 GMT 57.248932 64.785263 35,000 105 498 -64
2019-02-19 21:23:58 GMT 57.255062 64.743935 35,000 105 498 64
2019-02-19 21:23:47 GMT 57.261440 64.700966 34,975 105 498 0
2019-02-19 21:23:36 GMT 57.268005 64.656670 35,000 105 499 0
2019-02-19 21:23:25 GMT 57.274704 64.611198 34,975 105 499 0
2019-02-19 21:23:15 GMT 57.280563 64.571281 34,975 105 499 0
2019-02-19 21:23:05 GMT 57.286812 64.528999 34,975 105 500 0
2019-02-19 21:22:55 GMT 57.293289 64.484596 35,000 105 500 0
2019-02-19 21:22:44 GMT 57.299194 64.444260 35,000 105 500 0
2019-02-19 21:22:33 GMT 57.305664 64.399818 34,975 105 501 0
2019-02-19 21:22:23 GMT 57.312042 64.355606 34,975 104 500 0
2019-02-19 21:22:12 GMT 57.318192 64.313110 34,975 105 502 64
2019-02-19 21:22:03 GMT 57.324238 64.271439 34,975 105 502 0
2019-02-19 21:21:51 GMT 57.330734 64.226761 35,000 104 501 -64
2019-02-19 21:21:41 GMT 57.336914 64.183678 35,000 104 501 0
2019-02-19 21:21:31 GMT 57.342815 64.142700 35,000 104 502 0
2019-02-19 21:21:21 GMT 57.349052 64.099197 35,000 104 502 0
2019-02-19 21:21:11 GMT 57.355270 64.055702 34,975 104 502 0
2019-02-19 21:21:00 GMT 57.361176 64.014244 35,000 104 502 0
2019-02-19 21:20:50 GMT 57.367722 63.968239 35,000 104 502 0
2019-02-19 21:20:39 GMT 57.373444 63.927139 34,975 104 502 0
2019-02-19 21:20:28 GMT 57.379761 63.882320 35,000 104 502 0
2019-02-19 21:20:18 GMT 57.385391 63.840778 35,000 103 502 -64
2019-02-19 21:20:08 GMT 57.390564 63.797264 34,975 101 502 0
2019-02-19 21:19:57 GMT 57.395737 63.745766 35,000 99 502 0
2019-02-19 21:19:45 GMT 57.399326 63.701744 35,000 97 501 64
2019-02-19 21:19:37 GMT 57.401962 63.660877 34,975 95 501 64
2019-02-19 21:19:25 GMT 57.404205 63.616936 34,975 95 501 0
2019-02-19 21:19:15 GMT 57.406357 63.573895 34,975 95 501 0
2019-02-19 21:19:05 GMT 57.408646 63.528702 35,000 95 501 0
2019-02-19 21:18:54 GMT 57.410828 63.484852 35,000 95 500 0
2019-02-19 21:18:45 GMT 57.413013 63.440552 35,000 95 500 64
2019-02-19 21:18:33 GMT 57.415237 63.395405 35,000 95 500 0
2019-02-19 21:18:23 GMT 57.417439 63.349472 34,975 95 500 0
2019-02-19 21:18:13 GMT 57.419437 63.308098 34,975 95 499 0
2019-02-19 21:18:02 GMT 57.421600 63.263054 34,975 95 499 0
2019-02-19 21:17:52 GMT 57.423767 63.217899 35,000 95 499 0
2019-02-19 21:17:41 GMT 57.425858 63.174133 35,000 95 498 0
2019-02-19 21:17:32 GMT 57.427910 63.130363 34,975 94 498 64
2019-02-19 21:17:21 GMT 57.429958 63.085712 34,975 94 498 0
2019-02-19 21:17:11 GMT 57.431946 63.042812 35,000 94 498 0
2019-02-19 21:17:00 GMT 57.433960 62.997749 35,000 94 498 0
2019-02-19 21:16:49 GMT 57.436111 62.950630 35,000 94 497 0
2019-02-19 21:16:40 GMT 57.437965 62.909489 34,975 94 498 0
2019-02-19 21:16:29 GMT 57.439922 62.864922 34,975 94 497 0
2019-02-19 21:16:18 GMT 57.442017 62.818623 35,000 94 497 0
2019-02-19 21:16:08 GMT 57.443848 62.776997 35,000 94 498 0
2019-02-19 21:15:57 GMT 57.445835 62.731934 35,000 94 498 0
2019-02-19 21:15:47 GMT 57.447784 62.686871 35,000 94 498 0
2019-02-19 21:15:36 GMT 57.449661 62.643528 35,000 94 498 0
2019-02-19 21:15:27 GMT 57.451492 62.600098 34,975 94 498 0
2019-02-19 21:15:16 GMT 57.453369 62.555809 35,000 94 499 0
2019-02-19 21:15:05 GMT 57.455200 62.511177 34,975 94 499 0
2019-02-19 21:14:55 GMT 57.457005 62.467285 34,975 94 499 0
2019-02-19 21:14:45 GMT 57.458817 62.422943 34,975 94 499 0
2019-02-19 21:14:35 GMT 57.460636 62.378246 35,000 94 499 0
2019-02-19 21:14:24 GMT 57.462406 62.333855 35,000 94 500 0
2019-02-19 21:14:14 GMT 57.464172 62.290337 34,975 94 500 0
2019-02-19 21:14:02 GMT 57.466095 62.242100 34,975 94 500 0
2019-02-19 21:13:52 GMT 57.467808 62.199894 35,000 94 500 0
2019-02-19 21:13:43 GMT 57.469528 62.155926 34,975 94 500 0
2019-02-19 21:13:32 GMT 57.471252 62.112801 34,975 94 500 -64
2019-02-19 21:13:22 GMT 57.473007 62.068378 35,000 94 500 0
2019-02-19 21:13:10 GMT 57.474880 62.019684 35,000 94 500 0
2019-02-19 21:13:00 GMT 57.476532 61.976540 35,000 94 500 0
2019-02-19 21:12:51 GMT 57.478180 61.933792 35,000 94 500 64
2019-02-19 21:12:40 GMT 57.479816 61.890594 34,975 94 501 0
2019-02-19 21:12:29 GMT 57.481567 61.844444 34,975 93 500 0
2019-02-19 21:12:19 GMT 57.483353 61.796124 35,000 93 500 0
2019-02-19 21:12:09 GMT 57.484726 61.757240 34,975 93 500 0
2019-02-19 21:11:58 GMT 57.486328 61.713207 34,975 93 500 0
2019-02-19 21:11:48 GMT 57.487976 61.666691 34,975 93 499 -64
2019-02-19 21:11:38 GMT 57.489498 61.624439 34,975 93 499 0
2019-02-19 21:11:28 GMT 57.491081 61.580139 35,000 93 499 0
2019-02-19 21:11:16 GMT 57.492851 61.531055 34,975 93 499 0
2019-02-19 21:11:07 GMT 57.494293 61.490562 35,000 93 498 0
2019-02-19 21:10:55 GMT 57.495926 61.444584 35,000 93 498 0
2019-02-19 21:10:45 GMT 57.497414 61.401169 35,000 93 497 0
2019-02-19 21:10:35 GMT 57.498871 61.357269 35,000 93 497 0
2019-02-19 21:10:25 GMT 57.500393 61.313015 35,000 93 497 0
2019-02-19 21:10:15 GMT 57.501846 61.268265 34,975 93 497 0
2019-02-19 21:10:04 GMT 57.503281 61.225212 34,975 93 498 -64
2019-02-19 21:09:54 GMT 57.504776 61.180885 34,975 93 498 -64
2019-02-19 21:09:43 GMT 57.506241 61.134796 35,000 93 498 0
2019-02-19 21:09:33 GMT 57.507610 61.091251 35,000 93 499 0
2019-02-19 21:09:22 GMT 57.508987 61.045444 34,975 93 499 0
2019-02-19 21:09:11 GMT 57.510494 60.997158 35,000 93 499 64
2019-02-19 21:09:02 GMT 57.511612 60.959503 34,975 93 499 0
2019-02-19 21:08:52 GMT 57.513008 60.912899 34,975 93 499 0
2019-02-19 21:08:40 GMT 57.514343 60.868378 35,000 93 499 0
2019-02-19 21:08:30 GMT 57.515717 60.824692 35,000 93 499 0
2019-02-19 21:08:20 GMT 57.517059 60.779823 35,000 93 499 0
2019-02-19 21:08:09 GMT 57.518372 60.734398 34,975 92 500 0
2019-02-19 21:07:59 GMT 57.519897 60.689007 35,000 95 501 0
2019-02-19 21:07:49 GMT 57.522171 60.647190 35,000 96 500 0
2019-02-19 21:07:38 GMT 57.525486 60.602093 34,975 98 501 128
2019-02-19 21:07:28 GMT 57.529541 60.558529 34,975 101 501 -64
2019-02-19 21:07:17 GMT 57.534897 60.513638 35,000 103 500 0
2019-02-19 21:07:06 GMT 57.541035 60.468750 35,000 104 500 0
2019-02-19 21:06:56 GMT 57.547073 60.425060 34,975 104 500 0
2019-02-19 21:06:46 GMT 57.552979 60.382233 35,000 104 500 0
2019-02-19 21:06:36 GMT 57.559093 60.337624 34,975 104 500 0
2019-02-19 21:06:25 GMT 57.564926 60.295200 35,000 104 500 0
2019-02-19 21:06:14 GMT 57.570873 60.251415 34,975 104 501 0
2019-02-19 21:06:04 GMT 57.576645 60.208889 35,000 104 501 0
2019-02-19 21:05:53 GMT 57.582790 60.163437 35,000 104 501 0
2019-02-19 21:05:44 GMT 57.588547 60.121307 35,000 104 501 64
2019-02-19 21:05:33 GMT 57.594383 60.077938 35,000 103 500 0
2019-02-19 21:05:23 GMT 57.600201 60.034523 34,975 104 501 0
2019-02-19 21:05:11 GMT 57.606400 59.988613 35,000 103 500 -64
2019-02-19 21:05:02 GMT 57.611885 59.947254 34,975 103 500 128
2019-02-19 21:04:51 GMT 57.617657 59.903839 35,000 103 500 -64
2019-02-19 21:04:40 GMT 57.623524 59.859894 34,975 103 500 0
2019-02-19 21:04:31 GMT 57.629150 59.817722 35,000 103 500 -64
2019-02-19 21:04:20 GMT 57.635010 59.773006 35,000 103 500 0
2019-02-19 21:04:09 GMT 57.640701 59.729919 35,000 103 500 0
2019-02-19 21:03:59 GMT 57.646362 59.686749 34,975 103 501 0
2019-02-19 21:03:49 GMT 57.652061 59.643181 34,975 103 501 64
2019-02-19 21:03:39 GMT 57.657742 59.599590 34,975 103 501 0
2019-02-19 21:03:26 GMT 57.664169 59.550533 35,000 103 502 -64
2019-02-19 21:03:17 GMT 57.669205 59.511478 35,000 103 502 0
2019-02-19 21:03:07 GMT 57.674686 59.469082 34,975 103 501 0
2019-02-19 21:02:56 GMT 57.680550 59.423279 34,975 103 501 0
2019-02-19 21:02:47 GMT 57.686230 59.379066 35,000 103 502 0
2019-02-19 21:02:36 GMT 57.691769 59.336185 35,000 103 502 -64
2019-02-19 21:02:32 GMT 57.693375 59.323597 35,000 103 502 -64
2019-02-19 21:02:23 GMT 57.698334 59.284885 35,000 103 502 64
2019-02-19 21:02:14 GMT 57.703686 59.242710 35,000 103 502 0
2019-02-19 21:02:05 GMT 57.708294 59.206474 34,975 103 502 0
2019-02-19 21:01:53 GMT 57.714981 59.153824 35,000 103 502 0
2019-02-19 21:01:44 GMT 57.719563 59.117519 35,000 103 502 0
2019-02-19 21:01:41 GMT 57.720726 59.108215 35,000 103 503 0
2019-02-19 21:01:32 GMT 57.726124 59.065247 34,975 103 503 0
2019-02-19 21:01:24 GMT 57.730499 59.030548 34,975 103 503 -64
2019-02-19 21:01:21 GMT 57.731598 59.021744 34,975 103 503 -64
2019-02-19 21:01:13 GMT 57.735855 58.987900 35,000 103 503 0
2019-02-19 21:01:09 GMT 57.737823 58.971863 35,000 103 503 0
2019-02-19 21:01:00 GMT 57.742558 58.933777 35,000 102 503 0
2019-02-19 21:00:52 GMT 57.746704 58.900364 35,000 103 504 0
2019-02-19 21:00:49 GMT 57.748192 58.888550 35,000 103 504 0
2019-02-19 21:00:39 GMT 57.753571 58.844898 35,000 102 503 0
2019-02-19 21:00:32 GMT 57.757778 58.810547 35,000 102 504 0
2019-02-19 21:00:29 GMT 57.758972 58.800777 35,000 102 504 0
2019-02-19 21:00:19 GMT 57.764603 58.755325 35,000 102 504 0
2019-02-19 21:00:10 GMT 57.768677 58.722191 34,975 102 504 0
2019-02-19 21:00:07 GMT 57.770050 58.710758 34,975 103 506 -64
2019-02-19 20:59:58 GMT 57.775471 58.666992 35,000 102 505 0
2019-02-19 20:59:47 GMT 57.780807 58.623047 34,975 102 506 -64
2019-02-19 20:59:39 GMT 57.785107 58.588074 34,975 102 507 -64
2019-02-19 20:59:36 GMT 57.786621 58.575645 35,000 102 507 -128
2019-02-19 20:59:29 GMT 57.790367 58.545319 35,000 102 508 -64
2019-02-19 20:59:25 GMT 57.792023 58.531612 35,000 102 508 0
2019-02-19 20:59:19 GMT 57.795719 58.500824 35,000 102 508 64
2019-02-19 20:59:15 GMT 57.797535 58.485809 35,000 102 509 64
2019-02-19 20:59:08 GMT 57.801132 58.455772 35,000 102 509 0
2019-02-19 20:59:04 GMT 57.802841 58.441589 35,000 102 509 0
2019-02-19 20:58:58 GMT 57.806705 58.409363 35,000 102 509 0
2019-02-19 20:58:54 GMT 57.808197 58.396912 35,000 102 509 0
2019-02-19 20:58:47 GMT 57.811966 58.365143 35,000 102 509 0
2019-02-19 20:58:43 GMT 57.813583 58.351402 35,000 102 510 64
2019-02-19 20:58:37 GMT 57.817368 58.319550 35,000 102 510 0
2019-02-19 20:58:34 GMT 57.818893 58.306660 34,975 102 510 0
2019-02-19 20:58:23 GMT 57.824165 58.262329 35,000 102 510 64
2019-02-19 20:58:13 GMT 57.829514 58.217175 34,975 102 510 64
2019-02-19 20:58:05 GMT 57.833241 58.185242 34,975 102 510 0
2019-02-19 20:58:02 GMT 57.834824 58.171967 34,975 102 510 0
2019-02-19 20:57:52 GMT 57.840088 58.127155 34,975 102 510 0
2019-02-19 20:57:41 GMT 57.845390 58.081879 35,000 102 509 0
2019-02-19 20:57:31 GMT 57.850525 58.037849 35,000 102 510 -64
2019-02-19 20:57:24 GMT 57.854187 58.006393 35,000 102 510 0
2019-02-19 20:57:20 GMT 57.855961 57.990875 35,000 102 510 0
2019-02-19 20:57:12 GMT 57.859634 57.959351 35,000 102 510 64
2019-02-19 20:57:09 GMT 57.861172 57.946014 35,000 102 510 64
2019-02-19 20:57:03 GMT 57.864944 57.913189 34,975 102 510 0
2019-02-19 20:57:00 GMT 57.866199 57.902344 35,000 102 510 0
2019-02-19 20:56:52 GMT 57.870018 57.869110 35,000 102 510 -64
2019-02-19 20:56:49 GMT 57.871414 57.857025 35,000 102 510 -64
2019-02-19 20:56:39 GMT 57.876572 57.811653 35,000 102 510 0
2019-02-19 20:56:30 GMT 57.880630 57.776642 35,000 102 510 0
2019-02-19 20:56:27 GMT 57.882156 57.763279 35,000 102 510 0
2019-02-19 20:56:18 GMT 57.887146 57.719601 34,975 102 511 0
2019-02-19 20:56:10 GMT 57.890579 57.689297 34,975 101 511 64
2019-02-19 20:56:07 GMT 57.892178 57.675018 34,975 101 511 0
2019-02-19 20:55:59 GMT 57.895935 57.642075 34,975 101 512 0
2019-02-19 20:55:56 GMT 57.897675 57.626480 34,975 101 512 0
2019-02-19 20:55:46 GMT 57.902512 57.583557 34,975 101 511 -64
2019-02-19 20:55:35 GMT 57.907818 57.536224 35,000 101 512 -64
2019-02-19 20:55:24 GMT 57.912937 57.490265 35,000 101 511 0
2019-02-19 20:55:14 GMT 57.918015 57.445129 35,000 101 511 0
2019-02-19 20:55:03 GMT 57.922901 57.400818 35,000 101 512 0
2019-02-19 20:54:53 GMT 57.927887 57.355988 35,000 101 512 64
2019-02-19 20:54:43 GMT 57.932911 57.310364 34,975 101 512 0
2019-02-19 20:54:32 GMT 57.938076 57.263306 34,975 101 512 64
2019-02-19 20:54:22 GMT 57.942993 57.218922 34,975 101 512 0
2019-02-19 20:54:11 GMT 57.948364 57.169647 35,000 101 512 -64
2019-02-19 20:54:01 GMT 57.952972 57.127441 34,975 101 512 0
2019-02-19 20:53:51 GMT 57.957962 57.080795 35,000 101 512 0
2019-02-19 20:53:40 GMT 57.962795 57.036255 35,000 101 513 0
2019-02-19 20:53:30 GMT 57.967758 56.990513 35,000 101 513 -64
2019-02-19 20:53:18 GMT 57.972851 56.942871 35,000 101 514 0
2019-02-19 20:53:08 GMT 57.977879 56.895721 35,000 101 514 0
2019-02-19 20:52:57 GMT 57.982635 56.850616 34,975 101 514 0
2019-02-19 20:52:47 GMT 57.987423 56.805542 34,975 101 514 0
2019-02-19 20:52:37 GMT 57.992477 56.757851 35,000 101 514 -64
2019-02-19 20:52:25 GMT 57.997478 56.710510 34,975 101 515 0
2019-02-19 20:52:16 GMT 58.002045 56.667126 34,975 101 514 -64
2019-02-19 20:52:05 GMT 58.006882 56.620605 35,000 101 514 0
2019-02-19 20:51:54 GMT 58.011631 56.574921 34,975 100 515 0
2019-02-19 20:51:44 GMT 58.016331 56.529236 35,000 101 515 -64
2019-02-19 20:51:33 GMT 58.021133 56.483105 35,000 100 515 0
2019-02-19 20:51:23 GMT 58.025986 56.435528 34,975 100 515 64
2019-02-19 20:51:13 GMT 58.030472 56.391495 34,975 100 516 64
2019-02-19 20:51:03 GMT 58.035324 56.344357 34,975 100 516 -64
2019-02-19 20:50:52 GMT 58.039993 56.298553 34,975 100 516 0
2019-02-19 20:50:42 GMT 58.044682 56.252197 35,000 100 517 -256
2019-02-19 20:50:30 GMT 58.049477 56.204956 34,975 100 516 576
2019-02-19 20:50:21 GMT 58.053955 56.160515 34,875 100 514 576
2019-02-19 20:50:10 GMT 58.058533 56.114796 34,775 100 512 576
2019-02-19 20:50:00 GMT 58.063293 56.067131 34,650 100 511 640
2019-02-19 20:49:49 GMT 58.067726 56.022583 34,575 100 509 512
2019-02-19 20:49:39 GMT 58.072311 55.976406 34,450 100 507 576
2019-02-19 20:49:27 GMT 58.076988 55.929565 34,350 100 506 640
2019-02-19 20:49:18 GMT 58.081284 55.885414 34,250 100 505 512
2019-02-19 20:49:06 GMT 58.085999 55.837391 34,150 100 506 576
2019-02-19 20:48:56 GMT 58.090256 55.793610 34,050 100 506 640
2019-02-19 20:48:45 GMT 58.094788 55.747108 33,950 100 507 640
2019-02-19 20:48:36 GMT 58.099182 55.702011 33,850 100 506 512
2019-02-19 20:48:25 GMT 58.103439 55.657448 33,750 100 504 704
2019-02-19 20:48:15 GMT 58.107807 55.611969 33,600 100 505 896
2019-02-19 20:48:03 GMT 58.112274 55.565659 33,450 100 505 896
2019-02-19 20:47:54 GMT 58.116577 55.520561 33,275 100 507 832
2019-02-19 20:47:43 GMT 58.120842 55.475739 33,125 100 508 960
2019-02-19 20:47:32 GMT 58.125031 55.431152 33,000 100 510 384
2019-02-19 20:47:22 GMT 58.129406 55.384552 32,975 100 511 0
2019-02-19 20:47:12 GMT 58.133652 55.339375 33,000 99 511 0
2019-02-19 20:47:00 GMT 58.138092 55.291000 32,975 99 511 0
2019-02-19 20:46:51 GMT 58.142208 55.247040 33,000 99 512 -64
2019-02-19 20:46:41 GMT 58.146561 55.200363 33,000 100 512 0
2019-02-19 20:46:30 GMT 58.150818 55.154911 33,000 99 513 64
2019-02-19 20:46:20 GMT 58.155029 55.109016 32,975 99 513 0
2019-02-19 20:46:09 GMT 58.159515 55.063564 33,000 102 514 0
2019-02-19 20:45:58 GMT 58.165485 55.015503 32,975 104 515 64
2019-02-19 20:45:48 GMT 58.172150 54.970802 32,975 106 517 -64
2019-02-19 20:45:37 GMT 58.180115 54.924816 32,975 109 518 -64
2019-02-19 20:45:27 GMT 58.188667 54.882111 33,000 112 520 0
2019-02-19 20:45:17 GMT 58.198769 54.837708 33,000 113 521 -64
2019-02-19 20:45:06 GMT 58.208542 54.794666 33,000 113 521 0
2019-02-19 20:44:55 GMT 58.218704 54.749924 32,975 113 521 64
2019-02-19 20:44:46 GMT 58.228561 54.706329 33,000 113 521 -64
2019-02-19 20:44:34 GMT 58.238525 54.662388 33,000 113 521 64
2019-02-19 20:44:25 GMT 58.248413 54.618797 32,975 113 522 0
2019-02-19 20:44:13 GMT 58.258915 54.572205 33,000 113 521 -64
2019-02-19 20:44:04 GMT 58.268188 54.530994 33,000 113 521 0
2019-02-19 20:43:53 GMT 58.277939 54.487671 32,975 112 522 64
2019-02-19 20:43:42 GMT 58.287689 54.443901 33,000 112 522 0
2019-02-19 20:43:33 GMT 58.297440 54.400486 33,000 113 522 -64
2019-02-19 20:43:21 GMT 58.307419 54.355831 33,000 112 523 64
2019-02-19 20:43:12 GMT 58.316895 54.313217 32,975 112 523 0
2019-02-19 20:43:00 GMT 58.327114 54.267151 33,000 112 523 0
2019-02-19 20:42:50 GMT 58.336578 54.224529 32,975 112 522 0
2019-02-19 20:42:40 GMT 58.346527 54.179169 32,975 112 523 0
2019-02-19 20:42:30 GMT 58.355942 54.136459 32,975 112 523 0
2019-02-19 20:42:19 GMT 58.366013 54.090656 32,975 112 523 0
2019-02-19 20:42:09 GMT 58.375397 54.047417 32,975 112 524 0
2019-02-19 20:41:59 GMT 58.385212 54.002747 32,975 112 524 -64
2019-02-19 20:41:47 GMT 58.395172 53.957226 32,975 112 525 0
2019-02-19 20:41:38 GMT 58.404575 53.914215 33,000 112 525 -64
2019-02-19 20:41:27 GMT 58.414494 53.868988 33,000 112 526 -64
2019-02-19 20:41:16 GMT 58.424641 53.822388 33,000 112 527 0
2019-02-19 20:41:06 GMT 58.434128 53.778606 33,000 112 527 0
2019-02-19 20:40:56 GMT 58.443634 53.734314 33,000 112 528 0
2019-02-19 20:40:45 GMT 58.453583 53.688324 33,000 112 529 0
2019-02-19 20:40:35 GMT 58.463371 53.643036 33,000 112 530 0
2019-02-19 20:40:24 GMT 58.472916 53.598633 33,000 112 530 0
2019-02-19 20:40:14 GMT 58.482422 53.554539 33,000 112 530 0
2019-02-19 20:40:03 GMT 58.492813 53.505985 32,975 112 531 64
2019-02-19 20:39:53 GMT 58.501919 53.463501 32,975 112 532 64
2019-02-19 20:39:43 GMT 58.512066 53.415710 32,975 112 532 -64
2019-02-19 20:39:31 GMT 58.521378 53.371849 32,975 112 532 -64
2019-02-19 20:39:21 GMT 58.531357 53.324890 33,000 112 532 -64
2019-02-19 20:39:11 GMT 58.540558 53.281311 33,000 112 532 0
2019-02-19 20:39:01 GMT 58.550446 53.234695 32,975 112 534 0
2019-02-19 20:38:49 GMT 58.560295 53.188019 33,000 112 533 64
2019-02-19 20:38:40 GMT 58.569672 53.143349 32,975 111 534 -64
2019-02-19 20:38:29 GMT 58.579285 53.097366 33,000 111 534 0
2019-02-19 20:38:19 GMT 58.589111 53.050415 32,975 111 535 0
2019-02-19 20:38:05 GMT 58.600616 52.995567 32,975 111 536 0
2019-02-19 20:37:58 GMT 58.608215 52.958977 32,975 111 536 0
2019-02-19 20:37:46 GMT 58.618011 52.911751 33,000 111 537 0
2019-02-19 20:37:37 GMT 58.627518 52.865845 33,000 111 536 -64
2019-02-19 20:37:25 GMT 58.636688 52.818787 32,975 110 536 64
2019-02-19 20:37:16 GMT 58.645248 52.773182 33,000 109 537 0
2019-02-19 20:37:05 GMT 58.653492 52.725861 33,000 107 536 -64
2019-02-19 20:36:55 GMT 58.661453 52.677429 32,975 106 535 128
2019-02-19 20:36:44 GMT 58.668457 52.631420 33,000 105 535 -64
2019-02-19 20:36:33 GMT 58.675465 52.583038 33,000 105 535 -64
2019-02-19 20:36:24 GMT 58.682217 52.536438 33,000 105 536 0
2019-02-19 20:36:13 GMT 58.689651 52.484261 33,000 105 536 0
2019-02-19 20:36:01 GMT 58.696552 52.436646 32,975 105 536 0
2019-02-19 20:35:52 GMT 58.703163 52.390411 33,000 105 536 0
2019-02-19 20:35:41 GMT 58.710022 52.342323 33,000 105 536 -64
2019-02-19 20:35:31 GMT 58.717026 52.293327 33,000 105 535 0
2019-02-19 20:35:20 GMT 58.723785 52.246124 33,000 105 536 0
2019-02-19 20:35:09 GMT 58.730770 52.197144 32,975 105 535 -64
2019-02-19 20:34:59 GMT 58.737377 52.150360 33,000 105 535 -64
2019-02-19 20:34:48 GMT 58.744175 52.102661 33,000 105 535 64
2019-02-19 20:34:39 GMT 58.750786 52.055878 33,000 105 535 0
2019-02-19 20:34:26 GMT 58.758606 52.000763 33,000 105 535 -64
2019-02-19 20:34:17 GMT 58.765137 51.954433 33,000 105 535 64
2019-02-19 20:34:07 GMT 58.771175 51.911224 32,975 105 536 0
2019-02-19 20:33:56 GMT 58.777973 51.862976 32,975 105 536 64
2019-02-19 20:33:46 GMT 58.784817 51.813721 32,975 105 536 -64
2019-02-19 20:33:35 GMT 58.791641 51.764477 32,975 104 536 -128
2019-02-19 20:33:26 GMT 58.798050 51.718494 33,000 105 536 0
2019-02-19 20:33:15 GMT 58.804642 51.671093 32,975 104 537 64
2019-02-19 20:33:05 GMT 58.811234 51.623074 32,975 104 536 -64
2019-02-19 20:32:54 GMT 58.817825 51.575050 32,975 104 538 -64
2019-02-19 20:32:44 GMT 58.824524 51.526062 33,000 104 538 0
2019-02-19 20:32:33 GMT 58.831135 51.477905 33,000 104 538 0
2019-02-19 20:32:22 GMT 58.837921 51.427887 32,975 104 539 0
2019-02-19 20:32:12 GMT 58.844193 51.381462 33,000 104 539 -64
2019-02-19 20:32:02 GMT 58.850601 51.333618 33,000 104 540 0
2019-02-19 20:31:51 GMT 58.857285 51.283264 33,000 104 540 0
2019-02-19 20:31:40 GMT 58.863956 51.232845 32,975 104 541 0
2019-02-19 20:31:30 GMT 58.870193 51.185577 32,975 104 542 0
We lost coverage of the aircraft here for a total of 8 minutes
2019-02-19 20:23:48 GMT 59.184792 48.960667 32,975 105 566 0
2019-02-19 20:23:42 GMT 59.188248 48.936127 32,975 105 566 0
2019-02-19 20:23:32 GMT 59.194660 48.888878 33,000 104 565 -64
2019-02-19 20:23:24 GMT 59.200424 48.843018 33,000 102 563 -64
2019-02-19 20:23:13 GMT 59.205688 48.794952 33,000 101 562 0
2019-02-19 20:23:02 GMT 59.211655 48.739426 33,000 101 562 0
2019-02-19 20:22:52 GMT 59.216904 48.690308 33,000 101 563 0
2019-02-19 20:22:42 GMT 59.221989 48.642254 33,000 101 563 0
2019-02-19 20:22:31 GMT 59.227661 48.588593 32,975 101 563 0
2019-02-19 20:22:21 GMT 59.233253 48.535419 32,975 101 563 -64
2019-02-19 20:22:12 GMT 59.238373 48.486832 33,000 101 563 -64
2019-02-19 20:22:01 GMT 59.243591 48.436615 33,000 101 563 0
2019-02-19 20:21:51 GMT 59.249039 48.384521 33,000 101 563 0
2019-02-19 20:21:41 GMT 59.254436 48.332268 33,000 101 563 0
2019-02-19 20:21:30 GMT 59.259556 48.282543 32,975 101 563 0
2019-02-19 20:21:19 GMT 59.265049 48.229412 33,000 101 563 -64
2019-02-19 20:21:10 GMT 59.270264 48.178650 33,000 101 563 -64
2019-02-19 20:20:58 GMT 59.275864 48.123962 33,000 101 563 0
2019-02-19 20:20:48 GMT 59.281082 48.072693 33,000 101 562 0
2019-02-19 20:20:38 GMT 59.285934 48.025452 33,000 101 562 0
2019-02-19 20:20:28 GMT 59.291119 47.974171 33,000 101 562 0
2019-02-19 20:20:17 GMT 59.296555 47.920441 33,000 101 562 0
2019-02-19 20:20:08 GMT 59.301311 47.873116 33,000 101 562 0
2019-02-19 20:19:57 GMT 59.306671 47.819916 33,000 101 562 0
2019-02-19 20:19:47 GMT 59.311741 47.769123 33,000 101 562 0
2019-02-19 20:19:36 GMT 59.317142 47.714855 32,975 100 562 0
2019-02-19 20:19:26 GMT 59.322189 47.663544 33,000 100 562 0
2019-02-19 20:19:16 GMT 59.327057 47.614273 32,975 100 562 0
2019-02-19 20:19:06 GMT 59.332317 47.560478 33,000 100 562 0
2019-02-19 20:18:55 GMT 59.337112 47.511200 33,000 100 561 0
2019-02-19 20:18:44 GMT 59.342140 47.459423 33,000 100 561 0
2019-02-19 20:18:35 GMT 59.347305 47.406101 33,000 100 561 0
2019-02-19 20:18:24 GMT 59.352196 47.355240 33,000 100 561 0
2019-02-19 20:18:14 GMT 59.356941 47.305424 32,975 100 561 0
2019-02-19 20:18:04 GMT 59.362064 47.251629 32,975 100 561 0
2019-02-19 20:17:53 GMT 59.366814 47.201340 32,975 100 561 0
2019-02-19 20:17:42 GMT 59.371746 47.148491 32,975 100 561 0
2019-02-19 20:17:32 GMT 59.376617 47.096649 32,975 100 560 -64
2019-02-19 20:17:21 GMT 59.381424 47.044830 33,000 100 560 0
2019-02-19 20:17:12 GMT 59.385899 46.996574 32,975 100 560 0
2019-02-19 20:17:01 GMT 59.390694 46.944771 33,000 100 559 -64
2019-02-19 20:16:51 GMT 59.395256 46.894855 33,000 100 559 0
2019-02-19 20:16:41 GMT 59.400097 46.841537 33,000 100 559 0
2019-02-19 20:16:30 GMT 59.404613 46.791718 33,000 100 560 0
2019-02-19 20:16:21 GMT 59.409485 46.737854 33,000 99 560 0
2019-02-19 20:16:10 GMT 59.414017 46.686951 33,000 99 560 0
2019-02-19 20:15:59 GMT 59.419006 46.631470 33,000 99 560 0
2019-02-19 20:15:50 GMT 59.423096 46.585537 33,000 99 560 0
2019-02-19 20:15:39 GMT 59.427841 46.532120 33,000 99 560 0
2019-02-19 20:15:29 GMT 59.432236 46.482697 33,000 99 560 0
2019-02-19 20:15:18 GMT 59.436722 46.431702 33,000 99 560 0
2019-02-19 20:15:08 GMT 59.441387 46.379162 33,000 99 560 0
2019-02-19 20:14:57 GMT 59.445969 46.327148 33,000 99 561 0
2019-02-19 20:14:48 GMT 59.450455 46.276154 33,000 99 560 0
2019-02-19 20:14:37 GMT 59.455170 46.223080 33,000 99 560 0
2019-02-19 20:14:27 GMT 59.459682 46.172031 33,000 99 561 0
2019-02-19 20:14:16 GMT 59.464462 46.118042 33,000 99 561 0
2019-02-19 20:14:05 GMT 59.468948 46.067474 33,000 99 561 0
2019-02-19 20:13:55 GMT 59.473709 46.013855 33,000 99 561 0
2019-02-19 20:13:44 GMT 59.478352 45.961777 33,000 99 561 -64
2019-02-19 20:13:34 GMT 59.482819 45.911674 33,000 99 561 0
2019-02-19 20:13:24 GMT 59.487396 45.860046 33,000 99 561 0
2019-02-19 20:13:15 GMT 59.491882 45.809967 33,000 99 561 0
2019-02-19 20:13:04 GMT 59.496552 45.757324 32,975 99 561 0
2019-02-19 20:12:53 GMT 59.501209 45.703693 32,975 99 560 0
2019-02-19 20:12:44 GMT 59.505386 45.655060 33,000 99 560 -64
2019-02-19 20:12:33 GMT 59.509682 45.603397 33,000 99 559 0
2019-02-19 20:12:22 GMT 59.513580 45.551147 33,000 97 558 -64
2019-02-19 20:12:13 GMT 59.516693 45.497772 33,000 96 557 0
2019-02-19 20:12:02 GMT 59.519623 45.444946 33,000 96 558 0
2019-02-19 20:11:52 GMT 59.522297 45.395130 33,000 96 558 0
2019-02-19 20:11:42 GMT 59.525089 45.343796 33,000 95 558 0
2019-02-19 20:11:31 GMT 59.528023 45.288960 33,000 95 558 0
2019-02-19 20:11:24 GMT 59.529739 45.256165 33,000 95 558 0
2019-02-19 20:11:21 GMT 59.530701 45.238037 33,000 95 558 0
2019-02-19 20:11:15 GMT 59.532070 45.211864 33,000 95 557 0
2019-02-19 20:11:10 GMT 59.533283 45.188187 33,000 95 557 0
2019-02-19 20:11:06 GMT 59.534634 45.162521 33,000 95 557 0
2019-02-19 20:11:00 GMT 59.536057 45.135315 32,975 95 557 0
2019-02-19 20:10:54 GMT 59.537659 45.104179 33,000 95 557 -64
2019-02-19 20:10:50 GMT 59.538685 45.084007 33,000 95 557 -64
2019-02-19 20:10:45 GMT 59.539993 45.058868 33,000 95 556 0
2019-02-19 20:10:40 GMT 59.541367 45.032135 33,000 95 557 0
2019-02-19 20:10:35 GMT 59.542648 45.006500 33,000 95 557 0
2019-02-19 20:10:29 GMT 59.544037 44.979259 33,000 95 557 0
2019-02-19 20:10:24 GMT 59.545349 44.952576 33,000 95 557 0
2019-02-19 20:10:18 GMT 59.546783 44.924328 33,000 95 557 0
2019-02-19 20:10:13 GMT 59.547993 44.899700 33,000 95 557 0
2019-02-19 20:10:08 GMT 59.549240 44.874481 33,000 95 557 0
2019-02-19 20:10:03 GMT 59.550476 44.849762 33,000 95 557 0
2019-02-19 20:09:59 GMT 59.551849 44.822113 32,975 95 557 0
2019-02-19 20:09:53 GMT 59.553085 44.797394 32,975 95 557 0
2019-02-19 20:09:48 GMT 59.554325 44.771656 33,000 95 557 -64
2019-02-19 20:09:42 GMT 59.555813 44.741917 33,000 95 557 0
2019-02-19 20:09:37 GMT 59.557022 44.717197 33,000 95 557 0
2019-02-19 20:09:31 GMT 59.558372 44.688972 33,000 95 557 0
2019-02-19 20:09:28 GMT 59.559402 44.667297 33,000 95 557 0
2019-02-19 20:09:22 GMT 59.560654 44.641048 32,975 95 557 0
2019-02-19 20:09:17 GMT 59.561874 44.615845 33,000 95 557 -64
2019-02-19 20:09:11 GMT 59.563168 44.589054 33,000 95 557 0
2019-02-19 20:09:07 GMT 59.564381 44.564335 33,000 95 557 0
2019-02-19 20:09:01 GMT 59.565636 44.537628 33,000 95 557 0
2019-02-19 20:08:56 GMT 59.566940 44.509876 33,000 95 557 0
2019-02-19 20:08:50 GMT 59.568329 44.480164 33,000 95 557 0
2019-02-19 20:08:46 GMT 59.569382 44.457458 33,000 95 557 0
2019-02-19 20:08:40 GMT 59.570709 44.428253 33,000 95 557 0
2019-02-19 20:08:35 GMT 59.571762 44.406006 33,000 95 557 0
2019-02-19 20:08:30 GMT 59.572952 44.380280 33,000 95 557 0
2019-02-19 20:08:25 GMT 59.574188 44.353546 33,000 95 557 0
2019-02-19 20:08:20 GMT 59.575378 44.327362 33,000 95 557 0
2019-02-19 20:08:14 GMT 59.576614 44.300537 33,000 95 557 0
2019-02-19 20:08:09 GMT 59.577694 44.276321 33,000 95 558 0
2019-02-19 20:08:04 GMT 59.578857 44.250561 33,000 95 558 0
2019-02-19 20:08:00 GMT 59.580093 44.223267 32,975 95 558 0
2019-02-19 20:07:54 GMT 59.581284 44.195984 33,000 95 558 0
2019-02-19 20:07:49 GMT 59.582336 44.172821 33,000 94 558 0
2019-02-19 20:07:43 GMT 59.583755 44.139954 32,975 94 558 0
2019-02-19 20:07:39 GMT 59.584629 44.120239 32,975 94 558 0
2019-02-19 20:07:33 GMT 59.585979 44.089935 32,975 94 558 0
2019-02-19 20:07:28 GMT 59.587051 44.064697 32,975 94 558 0
2019-02-19 20:07:24 GMT 59.588074 44.040970 32,975 94 558 0
2019-02-19 20:07:17 GMT 59.589378 44.011608 32,975 94 558 0
2019-02-19 20:07:13 GMT 59.590355 43.988880 32,975 94 558 0
2019-02-19 20:07:07 GMT 59.591660 43.958572 32,975 94 558 0
2019-02-19 20:07:02 GMT 59.592590 43.936798 32,975 94 558 0
2019-02-19 20:06:53 GMT 59.594917 43.883278 33,000 94 557 0
2019-02-19 20:06:46 GMT 59.596176 43.853443 33,000 94 557 0
2019-02-19 20:06:41 GMT 59.597057 43.831661 33,000 94 557 -64
2019-02-19 20:06:36 GMT 59.598312 43.800842 33,000 94 557 0
2019-02-19 20:06:31 GMT 59.599247 43.778053 33,000 94 557 0
2019-02-19 20:06:25 GMT 59.600506 43.747749 33,000 94 557 0
2019-02-19 20:06:21 GMT 59.601391 43.725964 33,000 94 557 0
2019-02-19 20:06:14 GMT 59.602753 43.693085 33,000 94 558 -64
2019-02-19 20:06:11 GMT 59.603485 43.674866 33,000 94 558 0
2019-02-19 20:06:04 GMT 59.604786 43.641956 33,000 94 558 0
2019-02-19 20:06:01 GMT 59.605484 43.624722 33,000 94 558 0
2019-02-19 20:05:54 GMT 59.606834 43.591290 33,000 94 558 0
2019-02-19 20:05:51 GMT 59.607674 43.569977 33,000 94 558 0
2019-02-19 20:05:43 GMT 59.609070 43.534935 33,000 94 558 0
2019-02-19 20:05:39 GMT 59.609756 43.517212 32,975 94 558 0
2019-02-19 20:05:33 GMT 59.611038 43.484802 33,000 94 558 0
2019-02-19 20:05:29 GMT 59.611725 43.467030 33,000 94 558 0
2019-02-19 20:05:23 GMT 59.613052 43.433075 33,000 94 558 0
2019-02-19 20:05:20 GMT 59.613819 43.413235 32,975 94 558 0
2019-02-19 20:05:13 GMT 59.615021 43.380798 32,975 94 559 0
2019-02-19 20:05:09 GMT 59.615753 43.361572 32,975 94 559 -64
2019-02-19 20:05:02 GMT 59.617081 43.326965 33,000 94 559 -64
2019-02-19 20:04:58 GMT 59.617729 43.309242 33,000 94 559 -64
2019-02-19 20:04:52 GMT 59.619003 43.276245 33,000 94 559 0
2019-02-19 20:04:49 GMT 59.619690 43.256927 33,000 94 559 0
2019-02-19 20:04:41 GMT 59.620972 43.222961 33,000 94 559 0
2019-02-19 20:04:38 GMT 59.621731 43.203167 33,000 94 559 0
2019-02-19 20:04:31 GMT 59.622986 43.168671 33,000 94 559 0
2019-02-19 20:04:27 GMT 59.623642 43.150318 33,000 94 559 0
2019-02-19 20:04:18 GMT 59.625595 43.096996 33,000 94 559 0
2019-02-19 20:04:11 GMT 59.626804 43.063469 32,975 94 559 0
2019-02-19 20:04:07 GMT 59.627426 43.045715 32,975 94 559 0
2019-02-19 20:04:00 GMT 59.628620 43.011570 33,000 94 560 0
2019-02-19 20:03:57 GMT 59.629303 42.992798 33,000 93 560 0
2019-02-19 20:03:49 GMT 59.630630 42.955170 33,000 93 560 0
2019-02-19 20:03:46 GMT 59.631184 42.940441 33,000 93 560 0
2019-02-19 20:03:39 GMT 59.632416 42.904816 33,000 93 560 0
2019-02-19 20:03:35 GMT 59.633057 42.886505 33,000 93 560 0
2019-02-19 20:03:29 GMT 59.634293 42.850342 32,975 93 560 0
2019-02-19 20:03:26 GMT 59.634811 42.835125 33,000 93 560 0
2019-02-19 20:03:15 GMT 59.636581 42.782684 33,000 93 560 0
2019-02-19 20:03:07 GMT 59.637909 42.743042 33,000 93 560 0
2019-02-19 20:03:04 GMT 59.638412 42.728210 33,000 93 560 0
2019-02-19 20:02:55 GMT 59.640106 42.676300 33,000 93 560 0
2019-02-19 20:02:44 GMT 59.641842 42.624397 32,975 93 560 0
2019-02-19 20:02:34 GMT 59.643517 42.572399 32,975 93 561 0
2019-02-19 20:02:24 GMT 59.645195 42.519459 32,975 93 561 0
2019-02-19 20:02:13 GMT 59.646790 42.467926 32,975 93 561 0
2019-02-19 20:02:03 GMT 59.648483 42.414368 32,975 93 561 0
2019-02-19 20:01:53 GMT 59.650082 42.360725 32,975 93 561 0
2019-02-19 20:01:42 GMT 59.651665 42.308636 33,000 93 561 0
2019-02-19 20:01:32 GMT 59.653248 42.255028 33,000 93 561 0
2019-02-19 20:01:22 GMT 59.654755 42.204437 33,000 93 561 0
2019-02-19 20:01:11 GMT 59.656311 42.151245 33,000 93 561 0
2019-02-19 20:01:02 GMT 59.657719 42.101692 33,000 93 561 0
2019-02-19 20:00:50 GMT 59.659378 42.042297 33,000 93 561 0
2019-02-19 20:00:39 GMT 59.660843 41.989655 33,000 93 561 0
2019-02-19 20:00:30 GMT 59.662216 41.938477 33,000 93 561 0
2019-02-19 20:00:18 GMT 59.663773 41.881714 33,000 93 561 0
2019-02-19 20:00:09 GMT 59.665028 41.834614 33,000 93 561 0
2019-02-19 19:59:58 GMT 59.666470 41.780910 33,000 92 562 0
2019-02-19 19:59:49 GMT 59.667820 41.728725 32,975 92 562 0
2019-02-19 19:59:38 GMT 59.669170 41.675499 32,975 92 562 0
2019-02-19 19:59:28 GMT 59.670471 41.622746 32,975 92 562 0
2019-02-19 19:59:18 GMT 59.671875 41.566406 33,000 92 562 0
2019-02-19 19:59:06 GMT 59.673111 41.514130 33,000 92 562 0
2019-02-19 19:58:56 GMT 59.674431 41.459278 33,000 92 562 0
2019-02-19 19:58:46 GMT 59.675594 41.407944 32,975 92 563 0
2019-02-19 19:58:36 GMT 59.676849 41.353107 32,975 92 563 0
2019-02-19 19:58:25 GMT 59.678055 41.299713 32,975 92 563 0
2019-02-19 19:58:14 GMT 59.679199 41.247437 33,000 92 563 0
2019-02-19 19:58:05 GMT 59.680340 41.194565 33,000 92 563 0
2019-02-19 19:57:54 GMT 59.681503 41.140675 33,000 92 563 0
2019-02-19 19:57:44 GMT 59.682621 41.087257 33,000 92 563 0
2019-02-19 19:57:33 GMT 59.683693 41.033840 33,000 92 563 0
2019-02-19 19:57:22 GMT 59.684738 40.980469 33,000 92 563 0
2019-02-19 19:57:12 GMT 59.685833 40.925018 33,000 92 563 0
2019-02-19 19:57:01 GMT 59.686859 40.872551 33,000 92 563 0
2019-02-19 19:56:52 GMT 59.687851 40.820709 32,975 92 563 0
2019-02-19 19:56:39 GMT 59.688999 40.756435 33,000 92 563 0
2019-02-19 19:56:30 GMT 59.689793 40.712776 33,000 91 563 0
2019-02-19 19:56:20 GMT 59.690723 40.659359 33,000 91 564 0
2019-02-19 19:56:09 GMT 59.691654 40.604332 33,000 91 563 0
2019-02-19 19:55:59 GMT 59.692566 40.550446 33,000 91 563 0
2019-02-19 19:55:48 GMT 59.693470 40.493900 33,000 91 563 0
2019-02-19 19:55:36 GMT 59.694397 40.435913 33,000 91 563 0
2019-02-19 19:55:28 GMT 59.695129 40.387115 33,000 91 563 0
2019-02-19 19:55:16 GMT 59.695984 40.332611 33,000 91 563 0
2019-02-19 19:55:06 GMT 59.696774 40.279194 33,000 91 564 0
2019-02-19 19:54:55 GMT 59.697601 40.221130 33,000 91 563 0
2019-02-19 19:54:46 GMT 59.698288 40.172241 33,000 91 563 0
2019-02-19 19:54:35 GMT 59.699020 40.119324 33,000 91 564 0
2019-02-19 19:54:24 GMT 59.699753 40.065811 33,000 91 564 0
2019-02-19 19:54:14 GMT 59.700405 40.012302 33,000 91 564 0
2019-02-19 19:54:04 GMT 59.701057 39.959927 33,000 91 564 0
2019-02-19 19:53:53 GMT 59.701721 39.905914 33,000 91 564 0
2019-02-19 19:53:42 GMT 59.702316 39.849792 33,000 91 564 0
2019-02-19 19:53:33 GMT 59.702873 39.801003 33,000 91 564 0
2019-02-19 19:53:22 GMT 59.703461 39.744873 33,000 91 564 0
2019-02-19 19:53:11 GMT 59.704056 39.690399 33,000 91 564 0
2019-02-19 19:53:02 GMT 59.704559 39.638855 33,000 91 564 0
2019-02-19 19:52:52 GMT 59.705063 39.585388 33,000 91 564 0
2019-02-19 19:52:41 GMT 59.705521 39.531830 33,000 91 564 0
2019-02-19 19:52:31 GMT 59.705978 39.479279 33,000 90 564 0
2019-02-19 19:52:23 GMT 59.706299 39.438629 33,000 90 564 0
2019-02-19 19:52:20 GMT 59.706436 39.424713 32,975 90 564 64
2019-02-19 19:52:10 GMT 59.706802 39.372253 32,975 90 564 64
2019-02-19 19:52:00 GMT 59.707203 39.319218 32,975 90 564 0
2019-02-19 19:51:52 GMT 59.707489 39.279510 32,975 90 564 0
2019-02-19 19:51:49 GMT 59.707573 39.264095 32,975 90 564 0
2019-02-19 19:51:41 GMT 59.707855 39.225452 32,975 90 564 0
2019-02-19 19:51:38 GMT 59.707947 39.210583 32,975 90 564 -64
2019-02-19 19:51:31 GMT 59.708176 39.173492 33,000 90 564 -64
2019-02-19 19:51:28 GMT 59.708275 39.154987 33,000 90 564 0
2019-02-19 19:51:21 GMT 59.708496 39.120026 32,975 90 564 0
2019-02-19 19:51:17 GMT 59.708588 39.101532 32,975 90 564 0
2019-02-19 19:51:10 GMT 59.708771 39.063446 32,975 90 564 0
2019-02-19 19:51:06 GMT 59.708862 39.045959 32,975 90 564 0
2019-02-19 19:51:00 GMT 59.709045 39.011444 32,975 90 564 0
2019-02-19 19:50:56 GMT 59.709110 38.990383 32,975 90 564 0
2019-02-19 19:50:50 GMT 59.709274 38.961090 33,000 90 563 -64
2019-02-19 19:50:45 GMT 59.709343 38.937916 33,000 90 564 0
2019-02-19 19:50:40 GMT 59.709503 38.909637 33,000 90 564 0
2019-02-19 19:50:35 GMT 59.709576 38.883930 33,000 90 564 0
2019-02-19 19:50:29 GMT 59.709667 38.855705 33,000 90 564 0
2019-02-19 19:50:25 GMT 59.709763 38.829472 33,000 90 564 0
2019-02-19 19:50:20 GMT 59.709854 38.802197 33,000 90 564 0
2019-02-19 19:50:14 GMT 59.709961 38.776428 33,000 90 564 0
2019-02-19 19:50:09 GMT 59.709995 38.750767 33,000 90 564 0
2019-02-19 19:50:03 GMT 59.710087 38.721977 33,000 90 564 0
2019-02-19 19:49:58 GMT 59.710144 38.697235 33,000 90 564 0
2019-02-19 19:49:53 GMT 59.710236 38.669403 33,000 90 564 0
2019-02-19 19:49:48 GMT 59.710281 38.645233 33,000 90 564 0
2019-02-19 19:49:43 GMT 59.710365 38.615334 33,000 90 564 0
2019-02-19 19:49:38 GMT 59.710415 38.593170 33,000 90 564 0
2019-02-19 19:49:32 GMT 59.710464 38.561279 33,000 90 564 0
2019-02-19 19:49:27 GMT 59.710506 38.536533 33,000 90 564 0
2019-02-19 19:49:22 GMT 59.710506 38.507744 33,000 90 564 0
2019-02-19 19:49:17 GMT 59.710556 38.485016 33,000 90 564 0
2019-02-19 19:49:12 GMT 59.710556 38.455719 33,000 90 564 0
2019-02-19 19:49:07 GMT 59.710556 38.431458 32,975 90 564 0
2019-02-19 19:49:01 GMT 59.710552 38.401573 32,975 90 565 0
2019-02-19 19:48:57 GMT 59.710552 38.378937 32,975 90 565 0
2019-02-19 19:48:50 GMT 59.710552 38.345409 33,000 90 565 0
2019-02-19 19:48:46 GMT 59.710552 38.324291 33,000 90 565 0
2019-02-19 19:48:40 GMT 59.710552 38.294930 33,000 89 565 0
2019-02-19 19:48:36 GMT 59.710556 38.273346 33,000 89 565 0
2019-02-19 19:48:30 GMT 59.710510 38.239838 33,000 89 565 0
2019-02-19 19:48:26 GMT 59.710464 38.219147 33,000 89 565 0
2019-02-19 19:48:19 GMT 59.710415 38.178436 33,000 89 565 0
2019-02-19 19:48:16 GMT 59.710365 38.166599 33,000 89 565 0
2019-02-19 19:48:06 GMT 59.710274 38.112427 33,000 89 565 64
2019-02-19 19:47:59 GMT 59.710228 38.077854 33,000 89 565 64
2019-02-19 19:47:55 GMT 59.710190 38.060852 32,975 89 565 64
2019-02-19 19:47:48 GMT 59.710087 38.024250 32,975 89 566 0
2019-02-19 19:47:45 GMT 59.710041 38.007675 33,000 89 566 0
2019-02-19 19:47:37 GMT 59.709949 37.969982 33,000 89 566 0
2019-02-19 19:47:34 GMT 59.709904 37.953503 33,000 89 566 0
2019-02-19 19:47:27 GMT 59.709778 37.915833 33,000 89 566 0
2019-02-19 19:47:24 GMT 59.709717 37.901318 33,000 89 566 0
2019-02-19 19:47:14 GMT 59.709549 37.847626 33,000 89 565 0
2019-02-19 19:47:03 GMT 59.709320 37.794067 33,000 89 565 0
2019-02-19 19:46:54 GMT 59.709091 37.741425 32,975 89 565 0
2019-02-19 19:46:43 GMT 59.708832 37.689358 33,000 89 565 0
2019-02-19 19:46:33 GMT 59.708542 37.636322 32,975 89 565 0
2019-02-19 19:46:22 GMT 59.708221 37.581665 32,975 89 565 0
2019-02-19 19:46:13 GMT 59.707901 37.529579 32,975 89 565 0
2019-02-19 19:46:02 GMT 59.707527 37.477016 32,975 89 564 -64
2019-02-19 19:45:52 GMT 59.707123 37.424011 33,000 89 564 -64
2019-02-19 19:45:42 GMT 59.706757 37.372009 33,000 89 564 -64
2019-02-19 19:45:31 GMT 59.706364 37.319042 33,000 89 564 0
2019-02-19 19:45:20 GMT 59.705887 37.264069 33,000 88 564 0
2019-02-19 19:45:11 GMT 59.705433 37.213631 33,000 88 564 0
2019-02-19 19:45:00 GMT 59.704971 37.158600 33,000 88 564 0
2019-02-19 19:44:50 GMT 59.704456 37.107651 33,000 88 564 0
2019-02-19 19:44:40 GMT 59.703964 37.054230 33,000 88 564 0
2019-02-19 19:44:30 GMT 59.703384 36.998638 33,000 88 564 0
2019-02-19 19:44:19 GMT 59.702820 36.948303 33,000 88 563 0
2019-02-19 19:44:09 GMT 59.702221 36.894363 33,000 88 564 64
2019-02-19 19:43:59 GMT 59.701630 36.840363 32,975 88 564 0
2019-02-19 19:43:48 GMT 59.700989 36.787903 32,975 88 564 0
2019-02-19 19:43:37 GMT 59.700348 36.734894 32,975 88 564 0
2019-02-19 19:43:28 GMT 59.699707 36.684013 33,000 88 564 0
2019-02-19 19:43:18 GMT 59.698975 36.628876 33,000 88 564 0
2019-02-19 19:43:07 GMT 59.698265 36.575951 33,000 88 564 0
2019-02-19 19:42:57 GMT 59.697556 36.523956 33,000 88 564 0
2019-02-19 19:42:46 GMT 59.696777 36.472046 33,000 88 564 0
2019-02-19 19:42:36 GMT 59.695953 36.416473 33,000 88 564 0
2019-02-19 19:42:26 GMT 59.695175 36.364014 33,000 88 564 0
2019-02-19 19:42:16 GMT 59.694351 36.312103 33,000 88 564 0
2019-02-19 19:42:05 GMT 59.693527 36.260193 33,000 88 564 0
2019-02-19 19:41:55 GMT 59.692657 36.206177 33,000 88 564 0
2019-02-19 19:41:44 GMT 59.691788 36.152710 32,975 88 564 0
2019-02-19 19:41:34 GMT 59.690918 36.100342 33,000 88 563 0
2019-02-19 19:41:24 GMT 59.690071 36.048985 32,975 88 563 0
2019-02-19 19:41:14 GMT 59.689041 35.995056 32,975 87 563 0
2019-02-19 19:41:03 GMT 59.687851 35.942688 33,000 87 563 -64
2019-02-19 19:40:53 GMT 59.686295 35.888306 33,000 86 563 -64
2019-02-19 19:40:43 GMT 59.684624 35.838066 33,000 85 563 0
2019-02-19 19:40:33 GMT 59.682541 35.784851 33,000 85 563 0
2019-02-19 19:40:22 GMT 59.680069 35.731201 33,000 84 563 0
2019-02-19 19:40:12 GMT 59.677505 35.679016 33,000 84 563 0
2019-02-19 19:40:02 GMT 59.674988 35.627380 33,000 84 563 0
2019-02-19 19:39:51 GMT 59.672382 35.574299 33,000 84 563 0
2019-02-19 19:39:42 GMT 59.669815 35.522644 33,000 84 563 64
2019-02-19 19:39:31 GMT 59.667160 35.470551 32,975 84 563 0
2019-02-19 19:39:21 GMT 59.664513 35.417934 33,000 84 563 0
2019-02-19 19:39:10 GMT 59.661766 35.364231 32,975 84 563 64
2019-02-19 19:39:01 GMT 59.659103 35.312164 32,975 84 563 0
2019-02-19 19:38:50 GMT 59.656414 35.260052 32,975 84 563 -64
2019-02-19 19:38:40 GMT 59.653713 35.208908 33,000 84 562 -64
2019-02-19 19:38:29 GMT 59.650921 35.155399 33,000 83 563 0
2019-02-19 19:38:20 GMT 59.648163 35.103790 33,000 83 563 0
2019-02-19 19:38:09 GMT 59.645428 35.052258 33,000 83 564 0
2019-02-19 19:37:59 GMT 59.642635 35.000168 33,000 83 564 0
2019-02-19 19:37:49 GMT 59.639748 34.946564 32,975 83 564 0
2019-02-19 19:37:38 GMT 59.636909 34.894470 33,000 83 564 0
2019-02-19 19:37:28 GMT 59.634113 34.843426 33,000 83 564 0
2019-02-19 19:37:18 GMT 59.628113 34.736206 33,000 83 564 0
2019-02-19 19:37:07 GMT 59.625130 34.683556 33,000 83 564 0
2019-02-19 19:36:57 GMT 59.625130 34.683556 33,000 83 564 0
2019-02-19 19:36:47 GMT 59.622208 34.632019 33,000 83 564 0
2019-02-19 19:36:39 GMT 59.619873 34.591095 33,000 83 564 0
2019-02-19 19:36:36 GMT 59.618958 34.575256 33,000 83 564 0
2019-02-19 19:36:25 GMT 59.615936 34.522705 33,000 83 564 0
2019-02-19 19:36:15 GMT 59.612915 34.470612 33,000 83 564 0
2019-02-19 19:36:05 GMT 59.609814 34.417042 33,000 83 564 0
2019-02-19 19:35:54 GMT 59.606743 34.364384 33,000 83 564 0
2019-02-19 19:35:45 GMT 59.603622 34.311768 33,000 83 565 0
2019-02-19 19:35:34 GMT 59.600132 34.253571 33,000 83 565 0
2019-02-19 19:35:21 GMT 59.596687 34.195324 33,000 83 565 64
2019-02-19 19:35:14 GMT 59.594265 34.155453 33,000 83 565 0
2019-02-19 19:35:03 GMT 59.590820 34.098721 33,000 83 566 0
2019-02-19 19:34:51 GMT 59.587051 34.036926 33,000 83 566 0
2019-02-19 19:34:41 GMT 59.583279 33.976166 32,975 83 566 0
2019-02-19 19:34:30 GMT 59.580765 33.935349 32,975 83 566 0
2019-02-19 19:34:20 GMT 59.577553 33.884205 33,000 82 566 0
2019-02-19 19:34:10 GMT 59.573959 33.826996 33,000 82 566 0
2019-02-19 19:34:01 GMT 59.570805 33.777466 32,975 82 566 64
2019-02-19 19:33:50 GMT 59.567505 33.725830 32,975 82 566 0
2019-02-19 19:33:40 GMT 59.564426 33.677830 32,975 82 566 0
2019-02-19 19:33:31 GMT 59.561096 33.626221 32,975 82 566 0
2019-02-19 19:33:21 GMT 59.557755 33.575134 32,975 82 566 0
2019-02-19 19:33:10 GMT 59.554371 33.523548 33,000 82 566 0
2019-02-19 19:32:58 GMT 59.550598 33.466911 32,975 82 566 0
2019-02-19 19:32:49 GMT 59.546970 33.412266 33,000 82 566 -64
2019-02-19 19:32:40 GMT 59.543896 33.365856 33,000 82 566 0
2019-02-19 19:32:28 GMT 59.539948 33.307251 33,000 82 566 0
2019-02-19 19:32:18 GMT 59.536541 33.256752 33,000 82 566 0
2019-02-19 19:32:08 GMT 59.532852 33.202240 33,000 82 566 0
2019-02-19 19:31:57 GMT 59.529510 33.153801 33,000 82 567 64
2019-02-19 19:31:47 GMT 59.525665 33.097778 33,000 82 567 0
2019-02-19 19:31:38 GMT 59.522484 33.051895 32,975 82 567 0
2019-02-19 19:31:27 GMT 59.518620 32.996300 32,975 82 567 0
2019-02-19 19:31:17 GMT 59.515228 32.947357 33,000 82 567 0
2019-02-19 19:31:07 GMT 59.511543 32.894390 33,000 82 567 0
2019-02-19 19:30:57 GMT 59.507996 32.843903 32,975 82 567 0
2019-02-19 19:30:46 GMT 59.504375 32.792484 33,000 82 567 0
2019-02-19 19:30:36 GMT 59.500557 32.738499 33,000 82 567 0
2019-02-19 19:30:26 GMT 59.496971 32.687546 33,000 81 567 0
2019-02-19 19:30:15 GMT 59.493156 32.634129 33,000 81 566 0
2019-02-19 19:30:06 GMT 59.489475 32.583176 33,000 81 566 0
2019-02-19 19:29:55 GMT 59.485703 32.530792 33,000 81 566 0
2019-02-19 19:29:45 GMT 59.481949 32.478882 33,000 81 566 0
2019-02-19 19:29:34 GMT 59.478058 32.425507 33,000 81 567 64
2019-02-19 19:29:25 GMT 59.474167 32.372589 32,975 81 567 64
2019-02-19 19:29:13 GMT 59.469879 32.315052 33,000 81 567 0
2019-02-19 19:29:03 GMT 59.465969 32.263248 33,000 81 567 0
2019-02-19 19:28:54 GMT 59.462383 32.214947 33,000 81 567 0
2019-02-19 19:28:43 GMT 59.458054 32.159538 33,000 80 567 0
2019-02-19 19:28:31 GMT 59.453339 32.107361 32,975 79 568 0
2019-02-19 19:28:22 GMT 59.448624 32.059845 33,000 75 570 64
2019-02-19 19:28:12 GMT 59.436630 31.956299 32,975 74 570 64
2019-02-19 19:28:02 GMT 59.436630 31.956299 32,975 75 570 64
2019-02-19 19:27:52 GMT 59.430038 31.907410 32,975 74 570 64
2019-02-19 19:27:48 GMT 59.427006 31.885544 32,975 74 570 64
2019-02-19 19:27:42 GMT 59.422897 31.856598 32,975 74 570 64
2019-02-19 19:27:38 GMT 59.419930 31.835728 32,975 74 570 0
2019-02-19 19:27:29 GMT 59.413788 31.792419 32,975 74 570 0
2019-02-19 19:27:26 GMT 59.412106 31.780512 32,975 74 570 0
2019-02-19 19:27:20 GMT 59.407654 31.749207 32,975 74 570 0
2019-02-19 19:27:17 GMT 59.405319 31.732819 33,000 74 571 0
2019-02-19 19:27:11 GMT 59.400879 31.701416 33,000 74 571 0
2019-02-19 19:27:06 GMT 59.397583 31.678528 33,000 74 571 0
2019-02-19 19:27:01 GMT 59.393906 31.652748 33,000 74 571 0
2019-02-19 19:26:56 GMT 59.390274 31.627365 33,000 74 571 0
2019-02-19 19:26:51 GMT 59.386459 31.601074 33,000 74 571 0
2019-02-19 19:26:45 GMT 59.382706 31.574707 33,000 74 571 0
2019-02-19 19:26:40 GMT 59.378906 31.548340 32,975 74 571 64
2019-02-19 19:26:35 GMT 59.375610 31.525553 33,000 74 571 64
2019-02-19 19:26:30 GMT 59.371468 31.496761 32,975 74 571 64
2019-02-19 19:26:25 GMT 59.367233 31.467407 32,975 74 570 0
2019-02-19 19:26:20 GMT 59.364391 31.448080 32,975 74 570 0
2019-02-19 19:26:14 GMT 59.360001 31.417786 33,000 74 571 -64
2019-02-19 19:26:10 GMT 59.357037 31.397505 33,000 74 571 -64
2019-02-19 19:26:02 GMT 59.351990 31.362762 33,000 74 571 0
2019-02-19 19:25:59 GMT 59.349541 31.345888 33,000 73 570 0
2019-02-19 19:25:53 GMT 59.345123 31.315704 33,000 74 571 64
2019-02-19 19:25:49 GMT 59.342140 31.295408 33,000 74 571 0
2019-02-19 19:25:42 GMT 59.337479 31.263702 32,975 73 570 0
2019-02-19 19:25:39 GMT 59.334877 31.245874 33,000 73 570 0
2019-02-19 19:25:32 GMT 59.329849 31.211779 33,000 73 570 0
2019-02-19 19:25:29 GMT 59.327057 31.192932 33,000 73 570 0
2019-02-19 19:25:22 GMT 59.322399 31.161299 32,975 73 570 64
2019-02-19 19:25:18 GMT 59.319855 31.144043 32,975 73 570 64
2019-02-19 19:25:12 GMT 59.315186 31.112366 32,975 73 570 64
2019-02-19 19:25:08 GMT 59.312347 31.093107 32,975 73 570 0
2019-02-19 19:25:01 GMT 59.306900 31.056549 32,975 73 570 0
2019-02-19 19:24:57 GMT 59.304619 31.041206 32,975 73 570 -64
2019-02-19 19:24:48 GMT 59.297031 30.989874 32,975 73 570 0
2019-02-19 19:24:37 GMT 59.289677 30.940531 32,975 73 570 -64
2019-02-19 19:24:27 GMT 59.281998 30.889160 32,975 73 571 0
2019-02-19 19:24:16 GMT 59.274220 30.837297 32,975 73 571 -64
2019-02-19 19:24:06 GMT 59.266708 30.787445 33,000 73 572 -64
2019-02-19 19:23:56 GMT 59.258160 30.730654 33,000 73 571 0
2019-02-19 19:23:45 GMT 59.250896 30.682732 33,000 73 571 0
2019-02-19 19:23:34 GMT 59.242676 30.628418 33,000 73 572 0
2019-02-19 19:23:24 GMT 59.235397 30.581085 33,000 73 572 0
2019-02-19 19:23:14 GMT 59.226791 30.525330 33,000 73 573 -64
2019-02-19 19:23:02 GMT 59.218079 30.468496 33,000 73 572 64
2019-02-19 19:22:54 GMT 59.212326 30.432037 33,000 71 573 64
2019-02-19 19:22:50 GMT 59.208618 30.409973 33,000 71 573 64
2019-02-19 19:22:44 GMT 59.203506 30.381742 32,975 69 574 64
2019-02-19 19:22:40 GMT 59.199600 30.361450 32,975 68 574 0
2019-02-19 19:22:34 GMT 59.193451 30.331167 32,975 67 574 -64
2019-02-19 19:22:30 GMT 59.189819 30.314026 32,975 66 574 0
2019-02-19 19:22:23 GMT 59.182663 30.282257 32,975 65 575 64
2019-02-19 19:22:20 GMT 59.178452 30.264404 32,975 64 574 64
2019-02-19 19:22:12 GMT 59.170715 30.233276 32,975 63 575 -64
2019-02-19 19:22:08 GMT 59.165752 30.214392 32,975 62 575 -64
2019-02-19 19:22:03 GMT 59.157578 30.184845 33,000 60 576 0
2019-02-19 19:21:57 GMT 59.150112 30.159269 33,000 60 575 0
2019-02-19 19:21:49 GMT 59.138145 30.118450 33,000 60 576 64
2019-02-19 19:21:45 GMT 59.135376 30.108948 33,000 60 576 0
2019-02-19 19:21:41 GMT 59.130745 30.093258 32,975 60 576 0
2019-02-19 19:21:36 GMT 59.123245 30.067749 32,975 60 576 -64
2019-02-19 19:21:30 GMT 59.116287 30.043945 33,000 60 576 0
2019-02-19 19:21:26 GMT 59.110867 30.025635 33,000 60 576 0
2019-02-19 19:21:21 GMT 59.104118 30.002810 33,000 60 575 0
2019-02-19 19:21:17 GMT 59.097366 29.979984 33,000 60 575 0
2019-02-19 19:21:05 GMT 59.081909 29.927582 33,000 60 575 0
2019-02-19 19:20:55 GMT 59.068680 29.882904 33,000 60 576 0
2019-02-19 19:20:45 GMT 59.055984 29.840004 33,000 60 576 0
2019-02-19 19:20:34 GMT 59.042019 29.793121 33,000 60 576 0
2019-02-19 19:20:24 GMT 59.028580 29.748047 33,000 59 576 0
2019-02-19 19:20:14 GMT 59.014709 29.701630 33,000 59 577 64
2019-02-19 19:20:03 GMT 58.998962 29.649078 32,975 59 577 0
2019-02-19 19:19:54 GMT 58.987976 29.612549 32,975 59 577 0
2019-02-19 19:19:51 GMT 58.984524 29.600956 32,975 59 577 0
2019-02-19 19:19:41 GMT 58.970188 29.553223 33,000 59 577 0
2019-02-19 19:19:34 GMT 58.960281 29.520264 33,000 59 577 0
2019-02-19 19:19:30 GMT 58.956036 29.505962 33,000 59 577 -64
2019-02-19 19:19:23 GMT 58.946072 29.473003 33,000 59 578 0
2019-02-19 19:19:19 GMT 58.940163 29.453493 33,000 59 578 0
2019-02-19 19:19:13 GMT 58.932770 29.428986 32,975 59 577 0
2019-02-19 19:19:08 GMT 58.926010 29.406801 33,000 59 577 0
2019-02-19 19:19:03 GMT 58.910980 29.357025 33,000 59 577 -64
2019-02-19 19:18:57 GMT 58.910980 29.357025 33,000 59 578 0
2019-02-19 19:18:53 GMT 58.904221 29.334822 33,000 59 577 0
2019-02-19 19:18:45 GMT 58.896011 29.307678 33,000 59 577 0
2019-02-19 19:18:42 GMT 58.892120 29.294861 33,000 59 577 0
2019-02-19 19:18:38 GMT 58.886444 29.276184 33,000 59 577 0
2019-02-19 19:18:35 GMT 58.882389 29.262842 33,000 59 577 0
2019-02-19 19:18:28 GMT 58.870880 29.225189 33,000 59 577 0
2019-02-19 19:18:22 GMT 58.864243 29.203491 33,000 59 577 64
2019-02-19 19:18:14 GMT 58.854088 29.170311 32,975 59 576 0
2019-02-19 19:18:08 GMT 58.843845 29.136749 32,975 59 577 0
2019-02-19 19:18:04 GMT 58.839752 29.123514 33,000 59 576 0
2019-02-19 19:18:01 GMT 58.836628 29.113312 33,000 59 576 0
2019-02-19 19:17:57 GMT 58.830139 29.092064 33,000 59 577 0
2019-02-19 19:17:54 GMT 58.825699 29.077532 33,000 59 577 0
2019-02-19 19:17:51 GMT 58.822174 29.066013 33,000 59 577 0
2019-02-19 19:17:47 GMT 58.815632 29.044830 32,975 59 577 0
2019-02-19 19:17:41 GMT 58.808441 29.021448 33,000 59 577 0
2019-02-19 19:17:35 GMT 58.800934 28.997173 33,000 59 577 0
2019-02-19 19:17:30 GMT 58.794453 28.975983 33,000 59 577 0
2019-02-19 19:17:26 GMT 58.787235 28.952637 33,000 59 577 0
2019-02-19 19:17:20 GMT 58.780300 28.930206 33,000 59 577 0
2019-02-19 19:17:10 GMT 58.766708 28.886169 33,000 59 576 0
2019-02-19 19:17:02 GMT 58.755116 28.848816 33,000 59 576 0
2019-02-19 19:16:49 GMT 58.738083 28.794014 33,000 59 575 64
2019-02-19 19:16:41 GMT 58.725540 28.753700 32,975 59 575 64
2019-02-19 19:16:37 GMT 58.721600 28.741058 32,975 59 575 0
2019-02-19 19:16:27 GMT 58.707825 28.696821 33,000 58 574 0
2019-02-19 19:16:18 GMT 58.696133 28.659302 33,000 59 575 -64
2019-02-19 19:16:08 GMT 58.682053 28.614424 33,000 58 574 0
2019-02-19 19:15:57 GMT 58.667599 28.568298 33,000 58 573 0
2019-02-19 19:15:46 GMT 58.651657 28.517406 33,000 58 573 0
2019-02-19 19:15:37 GMT 58.640083 28.480591 33,000 58 572 0
2019-02-19 19:15:33 GMT 58.634872 28.464111 33,000 58 571 64
2019-02-19 19:15:25 GMT 58.609035 28.382355 33,000 58 572 0
2019-02-19 19:15:14 GMT 58.609035 28.382355 33,000 58 572 0
2019-02-19 19:15:04 GMT 58.594837 28.337402 33,000 58 572 0
2019-02-19 19:14:54 GMT 58.578403 28.285675 33,000 58 571 64
2019-02-19 19:14:43 GMT 58.561550 28.232666 32,975 58 571 0
2019-02-19 19:14:35 GMT 58.554989 28.212067 32,975 58 570 0
2019-02-19 19:14:31 GMT 58.549400 28.194397 32,975 58 570 0
2019-02-19 19:14:24 GMT 58.541016 28.168238 32,975 58 569 64
2019-02-19 19:14:20 GMT 58.534744 28.148567 32,975 58 569 0
2019-02-19 19:14:13 GMT 58.520737 28.104889 32,975 58 568 -64
2019-02-19 19:14:03 GMT 58.512131 28.077953 33,000 58 568 -64
2019-02-19 19:14:00 GMT 58.507179 28.062561 33,000 58 568 -64
2019-02-19 19:13:53 GMT 58.498287 28.034821 33,000 58 568 0
2019-02-19 19:13:50 GMT 58.493492 28.019897 33,000 58 568 0
2019-02-19 19:13:46 GMT 58.487183 28.000252 33,000 58 569 0
2019-02-19 19:13:39 GMT 58.478828 27.974213 33,000 58 568 0
2019-02-19 19:13:36 GMT 58.472626 27.954979 33,000 58 568 0
2019-02-19 19:13:32 GMT 58.469612 27.945648 33,000 58 568 0
2019-02-19 19:13:29 GMT 58.464935 27.931145 33,000 58 568 0
2019-02-19 19:13:24 GMT 58.458481 27.911121 33,000 58 568 0
2019-02-19 19:13:19 GMT 58.450756 27.887329 33,000 58 568 0
2019-02-19 19:13:15 GMT 58.443878 27.866024 33,000 58 568 0
2019-02-19 19:13:11 GMT 58.439724 27.853271 33,000 58 568 0
2019-02-19 19:13:08 GMT 58.436558 27.843475 33,000 58 568 0
2019-02-19 19:13:04 GMT 58.429642 27.822256 33,000 58 568 0
2019-02-19 19:13:01 GMT 58.421814 27.797979 33,000 58 568 0
2019-02-19 19:12:58 GMT 58.421814 27.797979 33,000 58 568 0
2019-02-19 19:12:51 GMT 58.411980 27.767853 33,000 58 568 0
2019-02-19 19:12:48 GMT 58.407696 27.754669 33,000 58 568 0
2019-02-19 19:12:43 GMT 58.400387 27.732147 33,000 58 568 0
2019-02-19 19:12:40 GMT 58.396805 27.721161 33,000 58 568 0
2019-02-19 19:12:37 GMT 58.393478 27.710976 33,000 58 568 64
2019-02-19 19:12:31 GMT 58.385193 27.685457 32,975 58 569 64
2019-02-19 19:12:27 GMT 58.379379 27.667650 32,975 58 569 0
2019-02-19 19:12:21 GMT 58.370544 27.640450 32,975 58 569 -64
2019-02-19 19:12:17 GMT 58.363472 27.618805 33,000 58 568 -64
2019-02-19 19:12:09 GMT 58.353973 27.589504 33,000 58 568 0
2019-02-19 19:12:06 GMT 58.349258 27.575151 33,000 58 568 0
2019-02-19 19:11:59 GMT 58.340103 27.547211 33,000 58 568 0
2019-02-19 19:11:55 GMT 58.334702 27.530731 32,975 58 568 0
2019-02-19 19:11:48 GMT 58.323486 27.495943 33,000 59 565 64
2019-02-19 19:11:45 GMT 58.320969 27.487885 32,975 59 565 64
2019-02-19 19:11:38 GMT 58.312122 27.458679 32,975 60 564 64
2019-02-19 19:11:34 GMT 58.306446 27.439178 32,975 61 563 0
2019-02-19 19:11:28 GMT 58.299500 27.414345 32,975 62 563 -64
2019-02-19 19:11:22 GMT 58.293133 27.390564 32,975 63 562 -64
2019-02-19 19:11:17 GMT 58.287170 27.367035 32,975 64 562 0
2019-02-19 19:11:13 GMT 58.281166 27.343048 32,975 64 561 -64
2019-02-19 19:11:09 GMT 58.278282 27.331512 33,000 64 561 -64
2019-02-19 19:11:06 GMT 58.274963 27.318125 33,000 64 561 -64
2019-02-19 19:10:59 GMT 58.266876 27.285645 33,000 64 562 -64
2019-02-19 19:10:55 GMT 58.262547 27.268341 33,000 64 562 -64
2019-02-19 19:10:50 GMT 58.253330 27.231537 33,000 64 561 0
2019-02-19 19:10:46 GMT 58.253330 27.231537 33,000 64 561 0
2019-02-19 19:10:43 GMT 58.249092 27.214600 33,000 64 561 0
2019-02-19 19:10:38 GMT 58.243973 27.194183 33,000 64 561 0
2019-02-19 19:10:35 GMT 58.240402 27.179998 33,000 64 561 0
2019-02-19 19:10:32 GMT 58.236477 27.164520 33,000 64 561 0
2019-02-19 19:10:28 GMT 58.232666 27.149431 33,000 64 563 0
2019-02-19 19:10:23 GMT 58.224838 27.118378 33,000 64 563 0
2019-02-19 19:10:15 GMT 58.217468 27.089096 33,000 64 563 64
2019-02-19 19:10:11 GMT 58.213432 27.073059 33,000 64 563 64
2019-02-19 19:10:07 GMT 58.209503 27.057554 32,975 64 563 0
2019-02-19 19:10:04 GMT 58.206024 27.043821 32,975 64 563 0
2019-02-19 19:10:00 GMT 58.201611 27.026459 32,975 64 563 0
2019-02-19 19:09:57 GMT 58.197701 27.010986 33,000 64 563 0
2019-02-19 19:09:54 GMT 58.194580 26.998547 33,000 64 563 -64
2019-02-19 19:09:46 GMT 58.186108 26.965302 33,000 64 563 0
2019-02-19 19:09:43 GMT 58.182083 26.949286 33,000 64 563 0
2019-02-19 19:09:36 GMT 58.174255 26.918718 33,000 64 563 0
2019-02-19 19:09:31 GMT 58.167160 26.890810 33,000 64 563 0
2019-02-19 19:09:26 GMT 58.162857 26.873888 33,000 64 563 0
2019-02-19 19:09:22 GMT 58.158085 26.855347 33,000 64 563 0
2019-02-19 19:09:16 GMT 58.150635 26.826132 33,000 64 563 0
2019-02-19 19:09:13 GMT 58.147934 26.815500 33,000 64 563 0
2019-02-19 19:09:10 GMT 58.143513 26.798218 33,000 64 563 0
2019-02-19 19:09:03 GMT 58.133270 26.758392 32,975 64 563 0
2019-02-19 19:08:55 GMT 58.128056 26.738068 33,000 64 563 0
2019-02-19 19:08:52 GMT 58.124332 26.723511 33,000 64 563 0
2019-02-19 19:08:47 GMT 58.118042 26.699169 33,000 64 563 64
2019-02-19 19:08:42 GMT 58.112823 26.678881 33,000 64 563 64
2019-02-19 19:08:38 GMT 58.108597 26.662537 32,975 63 564 64
2019-02-19 19:08:34 GMT 58.100124 26.629852 32,975 63 564 64
2019-02-19 19:08:31 GMT 58.100124 26.629852 32,975 63 564 0
2019-02-19 19:08:28 GMT 58.096848 26.617039 33,000 63 564 0
2019-02-19 19:08:24 GMT 58.092361 26.599760 33,000 63 564 0
2019-02-19 19:08:21 GMT 58.089420 26.588287 33,000 63 564 0
2019-02-19 19:08:18 GMT 58.084160 26.567963 33,000 63 564 0
2019-02-19 19:08:12 GMT 58.077530 26.542349 33,000 63 564 0
2019-02-19 19:08:07 GMT 58.072289 26.522003 33,000 63 564 0
2019-02-19 19:08:00 GMT 58.062885 26.485840 33,000 63 564 0
2019-02-19 19:07:57 GMT 58.060684 26.477493 33,000 63 564 0
2019-02-19 19:07:53 GMT 58.057388 26.464647 33,000 63 564 0
2019-02-19 19:07:50 GMT 58.053589 26.450117 33,000 63 564 0
2019-02-19 19:07:46 GMT 58.047958 26.428497 33,000 63 564 0
2019-02-19 19:07:42 GMT 58.044960 26.417084 32,975 63 564 0
2019-02-19 19:07:35 GMT 58.035789 26.381744 32,975 63 564 0
2019-02-19 19:07:30 GMT 58.030838 26.362846 32,975 63 565 0
2019-02-19 19:07:26 GMT 58.024521 26.338570 32,975 63 564 0
2019-02-19 19:07:20 GMT 58.018986 26.317383 32,975 63 565 0
2019-02-19 19:07:16 GMT 58.014050 26.298431 32,975 63 565 64
2019-02-19 19:07:12 GMT 58.009415 26.280804 32,975 63 565 0
2019-02-19 19:07:09 GMT 58.006531 26.269817 32,975 63 565 0
2019-02-19 19:07:05 GMT 58.000969 26.248718 32,975 63 565 0
2019-02-19 19:07:00 GMT 57.994499 26.223999 32,975 63 565 -64
2019-02-19 19:06:53 GMT 57.988075 26.199371 32,975 63 565 -64
2019-02-19 19:06:49 GMT 57.983093 26.180511 33,000 63 564 -64
2019-02-19 19:06:44 GMT 57.976501 26.155436 33,000 63 564 -64
2019-02-19 19:06:41 GMT 57.969128 26.127319 33,000 63 564 -64
2019-02-19 19:06:33 GMT 57.964233 26.108919 33,000 63 564 0
2019-02-19 19:06:28 GMT 57.958923 26.088720 33,000 63 565 0
2019-02-19 19:06:23 GMT 57.953110 26.066748 33,000 63 565 64
2019-02-19 19:06:20 GMT 57.939522 26.015442 33,000 63 564 64
2019-02-19 19:06:12 GMT 57.939522 26.015442 32,975 63 565 0
2019-02-19 19:06:08 GMT 57.935303 25.999678 33,000 63 565 0
2019-02-19 19:06:03 GMT 57.929279 25.976898 33,000 63 564 -64
2019-02-19 19:06:00 GMT 57.926159 25.965088 33,000 63 564 -64
2019-02-19 19:05:55 GMT 57.921272 25.946686 33,000 63 564 -64
2019-02-19 19:05:52 GMT 57.916031 25.927027 33,000 63 564 0
2019-02-19 19:05:49 GMT 57.910309 25.905584 33,000 63 563 0
2019-02-19 19:05:42 GMT 57.905182 25.886358 33,000 63 563 0
2019-02-19 19:05:37 GMT 57.899597 25.865360 33,000 63 563 0
2019-02-19 19:05:31 GMT 57.892731 25.839579 33,000 63 563 64
2019-02-19 19:05:28 GMT 57.889801 25.828680 33,000 63 563 64
2019-02-19 19:05:25 GMT 57.885471 25.812561 33,000 63 563 64
2019-02-19 19:05:20 GMT 57.878815 25.787659 33,000 63 564 64
2019-02-19 19:05:16 GMT 57.874741 25.772421 32,975 63 564 64
2019-02-19 19:05:11 GMT 57.869366 25.752319 32,975 63 564 64
2019-02-19 19:05:08 GMT 57.866318 25.740967 32,975 63 564 64
2019-02-19 19:05:05 GMT 57.854843 25.698212 32,975 63 564 64
2019-02-19 19:04:59 GMT 57.854843 25.698212 32,975 63 564 0
2019-02-19 19:04:56 GMT 57.849930 25.679922 32,975 63 564 0
2019-02-19 19:04:48 GMT 57.842041 25.650696 32,975 63 564 0
2019-02-19 19:04:43 GMT 57.836781 25.631104 33,000 63 564 -64
2019-02-19 19:04:37 GMT 57.829971 25.605852 33,000 63 564 -64
2019-02-19 19:04:34 GMT 57.825714 25.590172 33,000 63 563 -64
2019-02-19 19:04:27 GMT 57.817383 25.559338 33,000 63 564 0
2019-02-19 19:04:24 GMT 57.814178 25.547554 33,000 63 564 0
2019-02-19 19:04:18 GMT 57.806194 25.518036 33,000 63 563 0
2019-02-19 19:04:15 GMT 57.801727 25.501465 33,000 63 563 64
2019-02-19 19:04:07 GMT 57.792664 25.468081 33,000 63 564 64
2019-02-19 19:04:04 GMT 57.790283 25.459398 33,000 62 563 64
2019-02-19 19:03:56 GMT 57.780731 25.424286 32,975 62 563 64
2019-02-19 19:03:53 GMT 57.777878 25.413858 32,975 62 563 64
2019-02-19 19:03:46 GMT 57.768539 25.379570 32,975 62 563 0
2019-02-19 19:03:43 GMT 57.766296 25.371330 32,975 62 563 0
2019-02-19 19:03:36 GMT 57.757221 25.338043 33,000 62 562 -64
2019-02-19 19:03:33 GMT 57.753777 25.325500 33,000 62 562 -64
2019-02-19 19:03:23 GMT 57.741531 25.280516 33,000 62 562 0
2019-02-19 19:03:15 GMT 57.729431 25.236603 33,000 62 562 64
2019-02-19 19:03:03 GMT 57.717373 25.192625 32,975 62 561 -64
2019-02-19 19:02:55 GMT 57.708855 25.161703 33,000 62 561 0
2019-02-19 19:02:52 GMT 57.705185 25.148392 33,000 62 561 0
2019-02-19 19:02:44 GMT 57.694611 25.110197 32,975 62 560 0
2019-02-19 19:02:41 GMT 57.692734 25.103331 32,975 62 560 0
2019-02-19 19:02:34 GMT 57.683945 25.071573 32,975 62 560 -64
2019-02-19 19:02:31 GMT 57.680504 25.059107 32,975 62 560 -64
2019-02-19 19:02:21 GMT 57.668106 25.014067 33,000 62 560 0
2019-02-19 19:02:10 GMT 57.655746 24.969521 33,000 62 559 -64
2019-02-19 19:02:03 GMT 57.647545 24.940027 33,000 62 559 0
2019-02-19 19:01:59 GMT 57.642059 24.920340 33,000 62 559 64
2019-02-19 19:01:55 GMT 57.637398 24.903702 32,975 62 559 64
2019-02-19 19:01:51 GMT 57.632034 24.884462 32,975 62 559 0
2019-02-19 19:01:47 GMT 57.628830 24.872957 32,975 62 560 0
2019-02-19 19:01:43 GMT 57.623013 24.852049 32,975 62 559 0
2019-02-19 19:01:40 GMT 57.619518 24.839645 32,975 62 559 0
2019-02-19 19:01:35 GMT 57.607601 24.796940 32,975 62 559 -64
2019-02-19 19:01:30 GMT 57.607601 24.796940 33,000 62 559 -64
2019-02-19 19:01:24 GMT 57.599945 24.769707 33,000 62 559 0
2019-02-19 19:01:20 GMT 57.595173 24.752640 33,000 62 560 0
2019-02-19 19:01:13 GMT 57.586235 24.720655 33,000 62 560 64
2019-02-19 19:01:10 GMT 57.582745 24.708252 33,000 62 560 64
2019-02-19 19:01:02 GMT 57.574127 24.677525 32,975 62 561 64
2019-02-19 19:00:59 GMT 57.571243 24.667311 32,975 62 561 0
2019-02-19 19:00:54 GMT 57.563660 24.640385 32,975 62 561 0
2019-02-19 19:00:51 GMT 57.561237 24.631790 32,975 62 561 0
2019-02-19 19:00:47 GMT 57.556068 24.613451 32,975 62 561 0
2019-02-19 19:00:41 GMT 57.548157 24.585276 32,975 62 561 0
2019-02-19 19:00:38 GMT 57.543961 24.570322 33,000 62 561 -64
2019-02-19 19:00:32 GMT 57.537964 24.549036 33,000 62 561 0
2019-02-19 19:00:29 GMT 57.533352 24.532825 33,000 62 561 0
2019-02-19 19:00:22 GMT 57.525021 24.503410 33,000 62 561 0
2019-02-19 19:00:18 GMT 57.520889 24.488955 33,000 62 562 0
2019-02-19 19:00:10 GMT 57.511333 24.455212 33,000 62 563 0
2019-02-19 19:00:07 GMT 57.508541 24.445377 33,000 62 562 64
2019-02-19 19:00:04 GMT 57.503311 24.427071 33,000 62 562 64
2019-02-19 18:59:58 GMT 57.496391 24.402849 33,000 62 562 64
2019-02-19 18:59:47 GMT 57.483727 24.358461 33,000 62 563 0
2019-02-19 18:59:44 GMT 57.480095 24.345703 33,000 62 563 0
2019-02-19 18:59:35 GMT 57.467560 24.301758 33,000 62 563 0
2019-02-19 18:59:29 GMT 57.456482 24.262962 32,975 62 563 64
2019-02-19 18:59:25 GMT 57.456482 24.262962 33,000 62 563 64
2019-02-19 18:59:15 GMT 57.444157 24.219980 32,975 62 563 64
2019-02-19 18:59:06 GMT 57.433319 24.182024 32,975 61 564 0
2019-02-19 18:59:03 GMT 57.430752 24.173111 32,975 61 563 0
2019-02-19 18:58:56 GMT 57.421581 24.141216 33,000 61 563 -64
2019-02-19 18:58:53 GMT 57.417530 24.127216 33,000 61 563 -64
2019-02-19 18:58:47 GMT 57.411072 24.104691 33,000 61 562 0
2019-02-19 18:58:43 GMT 57.405441 24.085207 33,000 61 562 0
2019-02-19 18:58:33 GMT 57.393044 24.042427 33,000 61 561 64
2019-02-19 18:58:25 GMT 57.383011 24.007788 33,000 61 561 0
2019-02-19 18:58:22 GMT 57.379356 23.995028 33,000 61 561 0
2019-02-19 18:58:15 GMT 57.369278 23.960409 32,975 61 561 64
2019-02-19 18:58:04 GMT 57.352707 23.903418 32,975 61 561 0
2019-02-19 18:57:53 GMT 57.340576 23.861704 33,000 61 561 -64
2019-02-19 18:57:45 GMT 57.335312 23.843594 33,000 61 560 -128
2019-02-19 18:57:42 GMT 57.329918 23.825092 33,000 61 560 -128
2019-02-19 18:57:33 GMT 57.319027 23.787704 33,000 61 560 0
2019-02-19 18:57:24 GMT 57.308456 23.751554 32,975 61 560 64
2019-02-19 18:57:21 GMT 57.304733 23.738974 32,975 61 560 0
2019-02-19 18:57:18 GMT 57.299801 23.722139 32,975 61 560 0
2019-02-19 18:57:14 GMT 57.294865 23.705395 33,000 61 560 0
2019-02-19 18:57:08 GMT 57.288719 23.684397 32,975 61 560 0
2019-02-19 18:57:04 GMT 57.283951 23.667984 33,000 61 560 0
2019-02-19 18:56:59 GMT 57.276810 23.643694 33,000 61 559 0
2019-02-19 18:56:55 GMT 57.272507 23.629017 33,000 61 559 0
2019-02-19 18:56:51 GMT 57.268703 23.615997 33,000 61 559 0
2019-02-19 18:56:47 GMT 57.263855 23.599663 33,000 61 559 0
2019-02-19 18:56:43 GMT 57.259186 23.583784 33,000 61 559 0
2019-02-19 18:56:37 GMT 57.249893 23.552456 33,000 61 558 0
2019-02-19 18:56:31 GMT 57.243008 23.529081 33,000 61 558 0
2019-02-19 18:56:26 GMT 57.237839 23.511539 33,000 61 559 0
2019-02-19 18:56:21 GMT 57.230438 23.486465 33,000 61 559 0
2019-02-19 18:56:14 GMT 57.221741 23.457270 32,975 61 559 0
2019-02-19 18:56:05 GMT 57.210510 23.419308 32,975 61 558 64
2019-02-19 18:55:58 GMT 57.202972 23.393841 32,975 61 558 0
2019-02-19 18:55:54 GMT 57.196777 23.373058 32,975 61 558 0
2019-02-19 18:55:48 GMT 57.190475 23.351784 32,975 61 557 0
2019-02-19 18:55:43 GMT 57.184025 23.330177 32,975 61 558 -64
2019-02-19 18:55:38 GMT 57.176853 23.306078 32,975 61 558 -64
2019-02-19 18:55:35 GMT 57.172245 23.290751 32,975 61 557 -64
2019-02-19 18:55:32 GMT 57.170013 23.283291 32,975 61 557 -64
2019-02-19 18:55:29 GMT 57.166672 23.272133 33,000 61 557 -128
2019-02-19 18:55:24 GMT 57.160080 23.250160 33,000 61 557 -128
2019-02-19 18:55:21 GMT 57.146317 23.204100 33,000 61 557 0
2019-02-19 18:55:13 GMT 57.146317 23.204100 33,000 61 557 64
2019-02-19 18:55:10 GMT 57.143692 23.195400 33,000 61 557 0
2019-02-19 18:55:03 GMT 57.134399 23.164415 33,000 61 557 0
2019-02-19 18:54:58 GMT 57.128540 23.144932 32,975 60 556 0
2019-02-19 18:54:49 GMT 57.117325 23.107767 32,975 60 556 0
2019-02-19 18:54:40 GMT 57.104874 23.066483 33,000 61 557 0
2019-02-19 18:54:37 GMT 57.102356 23.058157 33,000 60 556 0
2019-02-19 18:54:31 GMT 57.095062 23.033812 33,000 60 556 0
2019-02-19 18:54:28 GMT 57.091663 23.022648 33,000 60 556 64
2019-02-19 18:54:22 GMT 57.081703 22.989689 32,975 60 557 0
2019-02-19 18:54:18 GMT 57.079189 22.981449 32,975 60 557 0
2019-02-19 18:54:09 GMT 57.066330 22.939024 33,000 60 556 -64
2019-02-19 18:54:00 GMT 57.054337 22.899542 33,000 60 556 -64
2019-02-19 18:53:57 GMT 57.052326 22.892939 33,000 60 556 0
2019-02-19 18:53:47 GMT 57.027191 22.810364 33,000 60 555 0
2019-02-19 18:53:37 GMT 57.027191 22.810364 33,000 60 555 0
2019-02-19 18:53:25 GMT 57.012573 22.762430 33,000 60 555 0
2019-02-19 18:53:16 GMT 57.000137 22.721786 32,975 60 556 -64
2019-02-19 18:53:09 GMT 56.991714 22.694321 33,000 60 556 0
2019-02-19 18:53:05 GMT 56.985580 22.674236 33,000 60 556 -64
2019-02-19 18:52:54 GMT 56.971619 22.628660 33,000 60 556 0
2019-02-19 18:52:45 GMT 56.961594 22.595873 33,000 60 556 64
2019-02-19 18:52:42 GMT 56.958572 22.586088 33,000 60 556 64
2019-02-19 18:52:31 GMT 56.945068 22.542315 33,000 60 556 0
2019-02-19 18:52:25 GMT 56.937157 22.516479 33,000 60 555 0
2019-02-19 18:52:22 GMT 56.932205 22.500601 33,000 60 555 64
2019-02-19 18:52:14 GMT 56.921631 22.466269 32,975 60 556 64
2019-02-19 18:52:05 GMT 56.910717 22.431248 32,975 60 555 0
2019-02-19 18:52:01 GMT 56.906292 22.416983 32,975 60 555 -64
2019-02-19 18:51:51 GMT 56.893074 22.374189 33,000 60 554 -64
2019-02-19 18:51:45 GMT 56.886246 22.352200 33,000 60 554 0
2019-02-19 18:51:39 GMT 56.877895 22.325371 33,000 60 554 64
2019-02-19 18:51:36 GMT 56.874496 22.314384 33,000 60 554 64
2019-02-19 18:51:31 GMT 56.867935 22.293320 32,975 60 554 64
2019-02-19 18:51:28 GMT 56.865513 22.285589 32,975 60 554 64
2019-02-19 18:51:18 GMT 56.850449 22.237272 33,000 60 554 0
2019-02-19 18:51:08 GMT 56.837814 22.196760 33,000 60 552 0
2019-02-19 18:51:05 GMT 56.835396 22.189104 33,000 60 553 0
2019-02-19 18:50:56 GMT 56.822662 22.148180 33,000 60 553 0
2019-02-19 18:50:52 GMT 56.819984 22.139666 33,000 60 552 0
2019-02-19 18:50:44 GMT 56.807190 22.098913 32,975 60 553 0
2019-02-19 18:50:33 GMT 56.795265 22.061077 33,000 60 552 0
2019-02-19 18:50:22 GMT 56.774231 21.994286 32,975 60 551 0
2019-02-19 18:50:13 GMT 56.769665 21.979834 32,975 60 551 0
2019-02-19 18:50:10 GMT 56.765331 21.966188 33,000 60 551 0
2019-02-19 18:50:04 GMT 56.757111 21.940041 32,975 60 551 0
2019-02-19 18:49:52 GMT 56.742920 21.895151 32,975 59 551 0
2019-02-19 18:49:42 GMT 56.730976 21.857477 32,975 60 550 -64
2019-02-19 18:49:39 GMT 56.715363 21.808205 33,000 60 550 -64
2019-02-19 18:49:30 GMT 56.704926 21.775417 33,000 60 550 -64
2019-02-19 18:49:22 GMT 56.704926 21.775417 33,000 60 550 0
2019-02-19 18:49:12 GMT 56.692200 21.735476 33,000 59 550 64
2019-02-19 18:49:02 GMT 56.679062 21.694393 32,975 59 551 64
2019-02-19 18:48:52 GMT 56.665970 21.653709 32,975 59 551 0
2019-02-19 18:48:41 GMT 56.652817 21.612499 32,975 59 551 64
2019-02-19 18:48:31 GMT 56.639923 21.572170 32,975 59 552 64
2019-02-19 18:48:20 GMT 56.625816 21.528330 32,975 59 552 64
2019-02-19 18:48:11 GMT 56.613712 21.490852 32,975 59 552 0
2019-02-19 18:48:00 GMT 56.600121 21.448591 32,975 59 552 -64
2019-02-19 18:47:49 GMT 56.586456 21.406361 33,000 59 552 -64
2019-02-19 18:47:43 GMT 56.577576 21.378895 33,000 59 552 0
2019-02-19 18:47:39 GMT 56.573547 21.366577 33,000 59 552 -64
2019-02-19 18:47:30 GMT 56.560135 21.325129 33,000 59 553 0
2019-02-19 18:47:25 GMT 56.554825 21.308842 33,000 59 552 0
2019-02-19 18:47:19 GMT 56.547329 21.285753 33,000 59 552 0
2019-02-19 18:47:12 GMT 56.538254 21.257961 33,000 59 552 0
2019-02-19 18:47:09 GMT 56.533859 21.244396 33,000 59 553 64
2019-02-19 18:47:04 GMT 56.528183 21.226917 33,000 59 553 0
2019-02-19 18:46:59 GMT 56.520515 21.203442 33,000 59 553 64
2019-02-19 18:46:53 GMT 56.513020 21.180353 33,000 59 552 64
2019-02-19 18:46:48 GMT 56.507172 21.162498 33,000 59 553 128
2019-02-19 18:46:38 GMT 56.493889 21.121988 32,975 59 553 64
2019-02-19 18:46:27 GMT 56.480339 21.080790 32,975 59 553 64
2019-02-19 18:46:17 GMT 56.466888 21.039900 32,975 59 552 0
2019-02-19 18:46:07 GMT 56.453480 20.999165 32,975 59 552 0
2019-02-19 18:45:56 GMT 56.439377 20.956421 32,975 59 552 0
2019-02-19 18:45:47 GMT 56.426559 20.917637 32,975 59 552 -64
2019-02-19 18:45:36 GMT 56.412746 20.875740 33,000 59 552 -64
2019-02-19 18:45:26 GMT 56.399666 20.836258 33,000 59 553 64
2019-02-19 18:45:15 GMT 56.385792 20.794373 32,975 59 553 0
2019-02-19 18:45:05 GMT 56.372433 20.754032 32,975 59 553 0
2019-02-19 18:44:54 GMT 56.358765 20.713057 32,975 59 553 0
2019-02-19 18:44:44 GMT 56.345478 20.673180 32,975 59 554 0
2019-02-19 18:44:34 GMT 56.332214 20.633240 33,000 59 554 -64
2019-02-19 18:44:24 GMT 56.318527 20.592207 33,000 58 554 0
2019-02-19 18:44:13 GMT 56.304790 20.551214 32,975 58 554 64
2019-02-19 18:44:03 GMT 56.290642 20.508986 32,975 58 554 0
2019-02-19 18:43:53 GMT 56.277695 20.470360 32,975 58 554 0
2019-02-19 18:43:43 GMT 56.264385 20.430622 33,000 58 554 -64
2019-02-19 18:43:33 GMT 56.251022 20.390882 33,000 58 554 -64
2019-02-19 18:43:23 GMT 56.237522 20.350885 33,000 58 553 0
2019-02-19 18:43:11 GMT 56.221977 20.305052 33,000 58 553 0
2019-02-19 18:43:00 GMT 56.207794 20.263617 32,975 58 553 0
2019-02-19 18:42:50 GMT 56.194370 20.224028 33,000 58 554 64
2019-02-19 18:42:40 GMT 56.181427 20.186047 32,975 58 554 0
2019-02-19 18:42:31 GMT 56.168674 20.150728 32,975 56 553 0
2019-02-19 18:42:21 GMT 56.153549 20.111723 32,975 53 551 -64
2019-02-19 18:42:10 GMT 56.137299 20.073187 33,000 51 550 0
2019-02-19 18:42:00 GMT 56.120865 20.036745 32,975 49 550 64
2019-02-19 18:41:50 GMT 56.104153 20.002584 32,975 47 549 0
2019-02-19 18:41:39 GMT 56.085297 19.966536 32,975 46 548 0
2019-02-19 18:41:30 GMT 56.069138 19.936024 32,975 46 548 0
2019-02-19 18:41:20 GMT 56.051224 19.902163 33,000 46 548 -64
2019-02-19 18:41:09 GMT 56.032646 19.866972 33,000 46 547 0
2019-02-19 18:40:59 GMT 56.015285 19.834185 32,975 46 547 0
2019-02-19 18:40:49 GMT 55.996895 19.799423 33,000 46 548 0
2019-02-19 18:40:38 GMT 55.979691 19.767069 32,975 46 548 0
2019-02-19 18:40:27 GMT 55.960373 19.730780 33,000 46 548 0
2019-02-19 18:40:17 GMT 55.943172 19.698400 33,000 46 547 0
2019-02-19 18:40:07 GMT 55.926090 19.666471 32,975 46 546 64
2019-02-19 18:39:57 GMT 55.907700 19.631968 32,975 46 546 0
2019-02-19 18:39:45 GMT 55.886993 19.593201 33,000 46 547 -64
2019-02-19 18:39:36 GMT 55.871475 19.564320 33,000 46 546 0
2019-02-19 18:39:25 GMT 55.852352 19.528713 33,000 46 546 0
2019-02-19 18:39:15 GMT 55.835770 19.497986 33,000 46 546 0
2019-02-19 18:39:05 GMT 55.817482 19.464083 32,975 46 545 0
2019-02-19 18:38:53 GMT 55.796955 19.425974 32,975 46 545 0
2019-02-19 18:38:44 GMT 55.781662 19.397612 32,975 46 545 0
2019-02-19 18:38:33 GMT 55.761154 19.359657 32,975 46 544 0
2019-02-19 18:38:24 GMT 55.746399 19.332333 32,975 46 545 -64
2019-02-19 18:38:13 GMT 55.727825 19.297915 33,000 46 544 -64
2019-02-19 18:38:03 GMT 55.710041 19.265127 33,000 46 543 0
2019-02-19 18:37:52 GMT 55.690063 19.228321 33,000 46 543 0
2019-02-19 18:37:42 GMT 55.673309 19.197578 33,000 46 544 -64
2019-02-19 18:37:31 GMT 55.654495 19.163069 33,000 46 544 0
2019-02-19 18:37:22 GMT 55.637054 19.131025 32,975 46 544 0
2019-02-19 18:37:12 GMT 55.602318 19.067459 32,975 45 545 0
2019-02-19 18:37:01 GMT 55.602318 19.067459 32,975 45 545 0
2019-02-19 18:36:57 GMT 55.593887 19.052124 32,975 45 545 0
2019-02-19 18:36:50 GMT 55.582535 19.031410 32,975 45 545 -64
2019-02-19 18:36:41 GMT 55.567356 19.003601 33,000 45 545 -64
2019-02-19 18:36:37 GMT 55.560329 18.990812 33,000 45 545 0
2019-02-19 18:36:31 GMT 55.548935 18.970142 32,975 45 546 0
2019-02-19 18:36:28 GMT 55.544735 18.962488 33,000 45 545 64
2019-02-19 18:36:20 GMT 55.528610 18.933189 32,975 45 546 64
2019-02-19 18:36:08 GMT 55.508934 18.897514 32,975 45 546 -64
2019-02-19 18:35:59 GMT 55.492596 18.867903 33,000 45 546 -64
2019-02-19 18:35:48 GMT 55.474487 18.835115 33,000 45 546 -64
2019-02-19 18:35:38 GMT 55.456329 18.802435 33,000 45 546 0
2019-02-19 18:35:31 GMT 55.443466 18.779270 33,000 45 546 64
2019-02-19 18:35:28 GMT 55.437836 18.769173 33,000 45 546 64
2019-02-19 18:35:18 GMT 55.418995 18.735268 32,975 45 546 0
2019-02-19 18:35:07 GMT 55.401352 18.703558 33,000 45 547 -64
2019-02-19 18:34:56 GMT 55.382824 18.670265 33,000 45 547 -64
2019-02-19 18:34:47 GMT 55.365181 18.638556 33,000 45 547 0
2019-02-19 18:34:38 GMT 55.345779 18.603731 33,000 45 547 0
2019-02-19 18:34:26 GMT 55.327057 18.570126 32,975 45 547 64
2019-02-19 18:34:18 GMT 55.314285 18.547426 32,975 45 548 0
2019-02-19 18:34:15 GMT 55.309708 18.539186 32,975 45 547 0
2019-02-19 18:34:05 GMT 55.291256 18.505138 32,975 47 548 0
2019-02-19 18:33:57 GMT 55.277943 18.479588 33,000 48 548 -64
2019-02-19 18:33:54 GMT 55.273239 18.470348 33,000 48 548 -64
2019-02-19 18:33:44 GMT 55.256714 18.436806 32,975 50 549 0
2019-02-19 18:33:34 GMT 55.240311 18.401857 32,975 51 550 -64
2019-02-19 18:33:26 GMT 55.227768 18.373987 33,000 52 550 -64
2019-02-19 18:33:23 GMT 55.223942 18.365063 33,000 53 550 -64
2019-02-19 18:33:16 GMT 55.212021 18.336828 33,000 53 551 0
2019-02-19 18:33:13 GMT 55.208405 18.328264 33,000 53 551 0
2019-02-19 18:33:05 GMT 55.196243 18.299145 32,975 53 551 0
2019-02-19 18:33:02 GMT 55.192612 18.290541 32,975 53 551 0
2019-02-19 18:32:55 GMT 55.177002 18.253300 32,975 53 551 -64
2019-02-19 18:32:44 GMT 55.165558 18.226076 33,000 53 551 -64
2019-02-19 18:32:41 GMT 55.161163 18.215654 33,000 53 551 -64
2019-02-19 18:32:34 GMT 55.149811 18.188915 33,000 53 551 0
2019-02-19 18:32:31 GMT 55.145737 18.179222 33,000 53 550 -64
2019-02-19 18:32:24 GMT 55.134430 18.152485 33,000 53 550 0
2019-02-19 18:32:21 GMT 55.130512 18.143171 32,975 53 550 0
2019-02-19 18:32:11 GMT 55.115250 18.107164 32,975 53 551 0
2019-02-19 18:32:03 GMT 55.102844 18.077923 32,975 53 550 -64
2019-02-19 18:32:00 GMT 55.099228 18.069347 32,975 53 550 -64
2019-02-19 18:31:52 GMT 55.087173 18.040882 33,000 53 549 0
2019-02-19 18:31:47 GMT 55.077942 18.019194 32,975 53 549 0
2019-02-19 18:31:43 GMT 55.071438 18.003927 32,975 53 549 -64
2019-02-19 18:31:32 GMT 55.056026 17.967640 33,000 53 549 -64
2019-02-19 18:31:20 GMT 55.036011 17.920864 33,000 53 550 64
2019-02-19 18:31:12 GMT 55.025574 17.896486 32,975 53 549 64
2019-02-19 18:31:09 GMT 55.021179 17.886147 32,975 53 550 -64
2019-02-19 18:31:05 GMT 55.015137 17.872009 32,975 53 549 -64
2019-02-19 18:31:01 GMT 55.009804 17.859608 32,975 53 549 -64
2019-02-19 18:30:58 GMT 55.004974 17.848259 32,975 53 550 -64
2019-02-19 18:30:51 GMT 54.994217 17.823135 33,000 53 549 0
2019-02-19 18:30:48 GMT 54.989971 17.813250 33,000 53 550 0
2019-02-19 18:30:41 GMT 54.974190 17.776545 33,000 53 549 0
2019-02-19 18:30:30 GMT 54.962971 17.750410 32,975 53 549 0
2019-02-19 18:30:27 GMT 54.958099 17.739122 32,975 53 549 0
2019-02-19 18:30:20 GMT 54.947296 17.714081 32,975 53 549 0
2019-02-19 18:30:14 GMT 54.937599 17.691566 32,975 53 549 -64
2019-02-19 18:30:10 GMT 54.931824 17.678133 33,000 53 549 -64
2019-02-19 18:30:06 GMT 54.926697 17.666178 33,000 53 548 -64
2019-02-19 18:30:00 GMT 54.916046 17.641546 33,000 53 548 -64
2019-02-19 18:29:55 GMT 54.908783 17.624649 33,000 53 548 -64
2019-02-19 18:29:50 GMT 54.901016 17.606722 33,000 53 549 0
2019-02-19 18:29:42 GMT 54.888565 17.577963 32,975 53 548 64
2019-02-19 18:29:39 GMT 54.884903 17.569563 32,975 53 548 64
2019-02-19 18:29:32 GMT 54.874241 17.545000 32,975 53 549 -64
2019-02-19 18:29:29 GMT 54.869820 17.534845 32,975 53 549 -64
2019-02-19 18:29:24 GMT 54.862652 17.518366 32,975 53 549 -64
2019-02-19 18:29:18 GMT 54.853088 17.496212 32,975 53 549 -64
2019-02-19 18:29:15 GMT 54.847149 17.482576 33,000 53 548 0
2019-02-19 18:29:08 GMT 54.837570 17.460426 33,000 53 549 0
2019-02-19 18:29:00 GMT 54.822800 17.426479 32,975 53 548 64
2019-02-19 18:28:57 GMT 54.820518 17.421238 32,975 53 548 0
2019-02-19 18:28:47 GMT 54.806030 17.388044 32,975 52 547 -64
2019-02-19 18:28:38 GMT 54.790466 17.352421 33,000 52 548 -64
2019-02-19 18:28:27 GMT 54.775223 17.317604 33,000 52 547 0
2019-02-19 18:28:17 GMT 54.758747 17.279913 33,000 52 548 0
2019-02-19 18:28:06 GMT 54.743153 17.244457 32,975 52 548 0
2019-02-19 18:27:55 GMT 54.726974 17.207499 32,975 52 548 -64
2019-02-19 18:27:45 GMT 54.711262 17.171631 33,000 52 548 -64
2019-02-19 18:27:35 GMT 54.695621 17.136257 33,000 52 547 0
2019-02-19 18:27:24 GMT 54.679562 17.099888 33,000 52 547 0
2019-02-19 18:27:15 GMT 54.664570 17.065845 33,000 52 547 0
2019-02-19 18:27:04 GMT 54.648369 17.029142 33,000 52 547 -64
2019-02-19 18:26:54 GMT 54.632446 16.993183 33,000 52 546 -64
2019-02-19 18:26:43 GMT 54.616562 16.957235 33,000 52 545 0
2019-02-19 18:26:33 GMT 54.601398 16.923107 33,000 52 546 -64
2019-02-19 18:26:29 GMT 54.594543 16.907637 33,000 52 545 -64
2019-02-19 18:26:23 GMT 54.585197 16.886652 33,000 52 545 0
2019-02-19 18:26:13 GMT 54.570053 16.852543 32,975 52 545 0
2019-02-19 18:26:03 GMT 54.554195 16.816822 32,975 52 545 -64
2019-02-19 18:25:52 GMT 54.538422 16.781454 33,000 52 544 0
2019-02-19 18:25:47 GMT 54.530960 16.764652 33,000 52 544 0
2019-02-19 18:25:44 GMT 54.524681 16.750654 33,000 52 544 -64
2019-02-19 18:25:41 GMT 54.521935 16.744495 33,000 52 544 -64
2019-02-19 18:25:31 GMT 54.506790 16.710609 33,000 52 543 -64
2019-02-19 18:25:22 GMT 54.491501 16.676437 33,000 52 542 -64
2019-02-19 18:25:14 GMT 54.478828 16.648115 33,000 52 543 0
2019-02-19 18:25:11 GMT 54.475475 16.640709 33,000 52 542 0
2019-02-19 18:25:01 GMT 54.460114 16.606667 32,975 52 543 64
2019-02-19 18:24:54 GMT 54.449825 16.583946 32,975 52 542 64
2019-02-19 18:24:48 GMT 54.438560 16.559311 32,975 51 542 0
2019-02-19 18:24:41 GMT 54.428696 16.537655 33,000 51 541 -64
2019-02-19 18:24:38 GMT 54.424988 16.529577 33,000 51 541 -64
2019-02-19 18:24:30 GMT 54.401459 16.478039 32,975 51 541 0
2019-02-19 18:24:24 GMT 54.401459 16.478039 33,000 51 540 0
2019-02-19 18:24:20 GMT 54.395599 16.465195 32,975 51 540 0
2019-02-19 18:24:09 GMT 54.380322 16.431969 33,000 51 539 -64
2019-02-19 18:23:59 GMT 54.364426 16.397417 33,000 51 539 -64
2019-02-19 18:23:51 GMT 54.351334 16.368982 33,000 51 539 0
2019-02-19 18:23:46 GMT 54.344242 16.353565 33,000 51 539 0
2019-02-19 18:23:38 GMT 54.332653 16.328430 33,000 51 539 0
2019-02-19 18:23:28 GMT 54.316639 16.293722 33,000 51 538 0
2019-02-19 18:23:22 GMT 54.307377 16.273664 33,000 51 538 0
2019-02-19 18:23:18 GMT 54.300293 16.258312 33,000 51 538 0
2019-02-19 18:23:10 GMT 54.287338 16.230280 33,000 51 538 0
2019-02-19 18:23:06 GMT 54.282516 16.219898 33,000 51 538 0
2019-02-19 18:23:00 GMT 54.273102 16.199575 33,000 51 538 64
2019-02-19 18:22:57 GMT 54.269119 16.190945 32,975 51 538 0
2019-02-19 18:22:52 GMT 54.260925 16.173288 32,975 51 538 0
2019-02-19 18:22:45 GMT 54.250767 16.151356 32,975 51 538 -64
2019-02-19 18:22:42 GMT 54.245972 16.141016 33,000 51 538 -64
2019-02-19 18:22:38 GMT 54.238541 16.125105 33,000 51 538 -64
2019-02-19 18:22:35 GMT 54.233124 16.113470 33,000 51 538 -64
2019-02-19 18:22:31 GMT 54.229446 16.105553 33,000 51 538 0
2019-02-19 18:22:25 GMT 54.218948 16.083042 33,000 51 537 64
2019-02-19 18:22:21 GMT 54.213058 16.070414 33,000 51 536 64
2019-02-19 18:22:14 GMT 54.203377 16.049652 32,975 51 536 0
2019-02-19 18:22:07 GMT 54.187641 16.015966 32,975 51 535 -64
2019-02-19 18:22:04 GMT 54.187641 16.015966 32,975 51 535 -64
2019-02-19 18:21:54 GMT 54.171631 15.981634 33,000 51 535 -64
2019-02-19 18:21:43 GMT 54.154869 15.945767 33,000 51 534 0
2019-02-19 18:21:33 GMT 54.139042 15.912000 32,975 51 534 0
2019-02-19 18:21:22 GMT 54.121960 15.875567 32,975 51 534 0
2019-02-19 18:21:11 GMT 54.105152 15.839862 33,000 51 532 -64
2019-02-19 18:21:02 GMT 54.090683 15.809091 32,975 51 532 -64
2019-02-19 18:20:54 GMT 54.078415 15.783037 33,000 51 532 -64
2019-02-19 18:20:51 GMT 54.074566 15.774832 33,000 51 532 -64
2019-02-19 18:20:45 GMT 54.064407 15.753374 33,000 51 532 -64
2019-02-19 18:20:42 GMT 54.060562 15.745292 33,000 51 532 -64
2019-02-19 18:20:39 GMT 54.055206 15.733913 33,000 51 530 -64
2019-02-19 18:20:34 GMT 54.048294 15.719238 33,000 51 530 -64
2019-02-19 18:20:31 GMT 54.042492 15.706895 33,000 51 530 -64
2019-02-19 18:20:28 GMT 54.038773 15.699149 33,000 51 529 0
2019-02-19 18:20:23 GMT 54.032684 15.686201 33,000 51 529 0
2019-02-19 18:20:20 GMT 54.023640 15.667069 33,000 51 529 0
2019-02-19 18:20:13 GMT 54.008602 15.635403 33,000 51 529 0
2019-02-19 18:20:09 GMT 54.008602 15.635403 33,000 51 529 -64
2019-02-19 18:20:02 GMT 54.000221 15.617712 33,000 51 528 -64
2019-02-19 18:19:59 GMT 53.994873 15.606393 33,000 51 528 -64
2019-02-19 18:19:52 GMT 53.984303 15.584187 33,000 51 527 0
2019-02-19 18:19:48 GMT 53.978020 15.570939 32,975 51 527 0
2019-02-19 18:19:41 GMT 53.968567 15.550986 32,975 51 527 0
2019-02-19 18:19:37 GMT 53.962280 15.537807 32,975 51 527 0
2019-02-19 18:19:34 GMT 53.955112 15.522712 32,975 51 526 -64
2019-02-19 18:19:30 GMT 53.945618 15.502808 33,000 51 526 -64
2019-02-19 18:19:22 GMT 53.933853 15.478167 33,000 51 526 -64
2019-02-19 18:19:15 GMT 53.927135 15.464065 33,000 51 526 -64
2019-02-19 18:19:12 GMT 53.922386 15.454128 33,000 51 526 0
2019-02-19 18:19:09 GMT 53.919643 15.448393 32,975 51 526 0
2019-02-19 18:19:06 GMT 53.914124 15.436811 33,000 51 526 0
2019-02-19 18:18:59 GMT 53.902977 15.413495 32,975 51 526 -64
2019-02-19 18:18:56 GMT 53.898552 15.404205 33,000 51 526 -64
2019-02-19 18:18:53 GMT 53.894714 15.396240 33,000 51 526 -64
2019-02-19 18:18:50 GMT 53.889999 15.386353 33,000 51 526 -64
2019-02-19 18:18:46 GMT 53.878418 15.362104 33,000 50 525 -64
2019-02-19 18:18:43 GMT 53.878418 15.362104 33,000 50 525 -64
2019-02-19 18:18:39 GMT 53.871689 15.348136 33,000 50 525 0
2019-02-19 18:18:34 GMT 53.865734 15.335702 33,000 50 524 0
2019-02-19 18:18:31 GMT 53.860706 15.325201 33,000 50 523 0
2019-02-19 18:18:28 GMT 53.855804 15.315020 33,000 50 524 0
2019-02-19 18:18:25 GMT 53.851364 15.305838 32,975 50 524 0
2019-02-19 18:18:22 GMT 53.844971 15.292484 32,975 50 523 0
2019-02-19 18:18:19 GMT 53.842690 15.287718 32,975 50 524 0
2019-02-19 18:18:13 GMT 53.833847 15.269300 32,975 50 523 0
2019-02-19 18:18:09 GMT 53.822525 15.245884 32,975 50 523 -64
2019-02-19 18:18:02 GMT 53.817181 15.234806 32,975 50 523 -64
2019-02-19 18:17:59 GMT 53.811722 15.223441 32,975 50 523 -64
2019-02-19 18:17:56 GMT 53.807125 15.213883 32,975 50 522 -64
2019-02-19 18:17:53 GMT 53.796478 15.191816 33,000 50 522 -64
2019-02-19 18:17:50 GMT 53.796478 15.191816 33,000 50 522 -64
2019-02-19 18:17:42 GMT 53.785664 15.169373 33,000 50 522 -64
2019-02-19 18:17:38 GMT 53.770161 15.137302 33,000 50 521 -64
2019-02-19 18:17:32 GMT 53.770161 15.137302 33,000 50 521 -64
2019-02-19 18:17:29 GMT 53.765579 15.127781 33,000 50 521 0
2019-02-19 18:17:26 GMT 53.754333 15.104586 33,000 50 520 0
2019-02-19 18:17:21 GMT 53.754333 15.104586 32,975 50 519 0
2019-02-19 18:17:17 GMT 53.748367 15.092311 32,975 50 520 0
2019-02-19 18:17:14 GMT 53.743069 15.081320 32,975 50 520 0
2019-02-19 18:17:11 GMT 53.738480 15.071908 32,975 50 519 0
2019-02-19 18:17:08 GMT 53.733898 15.062498 32,975 50 520 0
2019-02-19 18:17:05 GMT 53.729664 15.053774 32,975 50 520 0
2019-02-19 18:17:01 GMT 53.723843 15.041818 32,975 50 520 0
2019-02-19 18:16:58 GMT 53.718521 15.030866 32,975 50 519 -64
2019-02-19 18:16:55 GMT 53.714584 15.022784 32,975 50 519 -64
2019-02-19 18:16:50 GMT 53.705593 15.004335 33,000 50 519 -64
2019-02-19 18:16:47 GMT 53.701824 14.996499 33,000 50 519 0
2019-02-19 18:16:43 GMT 53.695724 14.983978 33,000 50 519 0
2019-02-19 18:16:40 GMT 53.691490 14.975254 33,000 50 519 0
2019-02-19 18:16:37 GMT 53.686752 14.965576 33,000 50 519 0
2019-02-19 18:16:31 GMT 53.676727 14.944938 33,000 50 519 0
2019-02-19 18:16:27 GMT 53.671844 14.934944 32,975 50 519 -64
2019-02-19 18:16:24 GMT 53.665649 14.922180 33,000 50 519 -64
2019-02-19 18:16:18 GMT 53.655270 14.901015 33,000 50 518 -64
2019-02-19 18:16:15 GMT 53.653175 14.896653 33,000 50 518 0
2019-02-19 18:16:12 GMT 53.648430 14.887040 33,000 50 518 0
2019-02-19 18:16:09 GMT 53.643726 14.877346 33,000 50 518 0
2019-02-19 18:16:05 GMT 53.633560 14.856576 32,975 50 518 0
2019-02-19 18:16:02 GMT 53.633560 14.856576 32,975 50 518 0
2019-02-19 18:15:56 GMT 53.623947 14.836958 33,000 50 517 -64
2019-02-19 18:15:51 GMT 53.616806 14.822440 32,975 50 518 -64
2019-02-19 18:15:48 GMT 53.612209 14.813125 33,000 50 518 -64
2019-02-19 18:15:45 GMT 53.606461 14.801331 33,000 50 518 -64
2019-02-19 18:15:40 GMT 53.599915 14.787990 33,000 50 517 -64
2019-02-19 18:15:37 GMT 53.593826 14.775591 33,000 50 517 -64
2019-02-19 18:15:33 GMT 53.584511 14.756739 33,000 50 517 -64
2019-02-19 18:15:30 GMT 53.584511 14.756739 33,000 50 517 0
2019-02-19 18:15:27 GMT 53.580879 14.749307 33,000 50 517 0
2019-02-19 18:15:23 GMT 53.574371 14.735962 33,000 50 517 0
2019-02-19 18:15:20 GMT 53.568878 14.724819 33,000 50 517 0
2019-02-19 18:15:17 GMT 53.564163 14.715166 33,000 50 517 0
2019-02-19 18:15:14 GMT 53.556255 14.699142 33,000 50 517 0
2019-02-19 18:15:11 GMT 53.556255 14.699142 33,000 50 517 0
2019-02-19 18:15:08 GMT 53.550201 14.686782 32,975 50 517 0
2019-02-19 18:15:02 GMT 53.542282 14.670672 32,975 50 517 0
2019-02-19 18:14:59 GMT 53.536789 14.659607 32,975 50 517 0
2019-02-19 18:14:56 GMT 53.533306 14.652450 32,975 50 517 0
2019-02-19 18:14:53 GMT 53.528549 14.642892 32,975 50 517 0
2019-02-19 18:14:50 GMT 53.523834 14.633397 32,975 50 517 0
2019-02-19 18:14:47 GMT 53.513332 14.612059 32,975 50 517 -64
2019-02-19 18:14:43 GMT 53.513332 14.612059 32,975 50 517 0
2019-02-19 18:14:39 GMT 53.507889 14.600992 33,000 50 517 -64
2019-02-19 18:14:36 GMT 53.503006 14.591099 32,975 50 517 -64
2019-02-19 18:14:33 GMT 53.497646 14.580392 32,975 50 517 -64
2019-02-19 18:14:29 GMT 53.492157 14.569284 33,000 50 517 -64
2019-02-19 18:14:25 GMT 53.486664 14.558219 33,000 50 517 0
2019-02-19 18:14:22 GMT 53.481354 14.547433 32,975 50 517 0
2019-02-19 18:14:16 GMT 53.470970 14.526511 32,975 50 517 64
2019-02-19 18:14:12 GMT 53.464691 14.513881 32,975 50 517 0
2019-02-19 18:14:09 GMT 53.460571 14.505563 32,975 50 518 0
2019-02-19 18:14:06 GMT 53.455811 14.495989 32,975 50 518 -128
2019-02-19 18:14:03 GMT 53.452286 14.488926 32,975 50 518 -128
2019-02-19 18:14:00 GMT 53.447697 14.479657 33,000 50 518 -64
2019-02-19 18:13:57 GMT 53.442062 14.468267 33,000 50 518 -64
2019-02-19 18:13:51 GMT 53.433929 14.451965 33,000 50 518 0
2019-02-19 18:13:48 GMT 53.430145 14.444275 33,000 50 518 0
2019-02-19 18:13:44 GMT 53.423080 14.430071 33,000 50 518 0
2019-02-19 18:13:41 GMT 53.418507 14.420848 33,000 50 518 0
2019-02-19 18:13:38 GMT 53.414383 14.412571 33,000 50 518 0
2019-02-19 18:13:33 GMT 53.405182 14.394130 33,000 50 518 0
2019-02-19 18:13:30 GMT 53.397675 14.379063 33,000 50 518 0
2019-02-19 18:13:24 GMT 53.391815 14.367449 32,975 50 518 0
2019-02-19 18:13:21 GMT 53.386478 14.356707 33,000 50 518 0
2019-02-19 18:13:17 GMT 53.382019 14.347752 33,000 50 518 0
2019-02-19 18:13:13 GMT 53.375885 14.335510 33,000 50 518 0
2019-02-19 18:13:10 GMT 53.370987 14.325701 32,975 50 518 0
2019-02-19 18:13:06 GMT 53.365765 14.315186 32,975 50 518 0
2019-02-19 18:13:03 GMT 53.359497 14.302630 32,975 50 518 0
2019-02-19 18:12:59 GMT 53.353195 14.290062 32,975 50 518 0
2019-02-19 18:12:55 GMT 53.349243 14.282070 32,975 50 518 -64
2019-02-19 18:12:51 GMT 53.340775 14.265198 32,975 50 518 0
2019-02-19 18:12:48 GMT 53.337250 14.258135 32,975 50 518 -64
2019-02-19 18:12:45 GMT 53.332809 14.249268 32,975 50 518 -64
2019-02-19 18:12:41 GMT 53.325439 14.234593 32,975 50 518 -64
2019-02-19 18:12:38 GMT 53.321274 14.226353 33,000 49 517 -64
2019-02-19 18:12:35 GMT 53.316372 14.216551 33,000 49 517 -64
2019-02-19 18:12:30 GMT 53.309898 14.203707 33,000 49 517 -64
2019-02-19 18:12:27 GMT 53.306362 14.196679 33,000 49 517 -64
2019-02-19 18:12:24 GMT 53.300400 14.184841 33,000 49 517 -64
2019-02-19 18:12:19 GMT 53.293186 14.170505 33,000 49 517 0
2019-02-19 18:12:16 GMT 53.288441 14.161054 33,000 49 517 0
2019-02-19 18:12:12 GMT 53.281082 14.146388 32,975 49 517 0
2019-02-19 18:12:08 GMT 53.276321 14.136893 32,975 49 517 0
2019-02-19 18:12:04 GMT 53.270332 14.125025 32,975 49 517 0
2019-02-19 18:12:01 GMT 53.264008 14.112566 32,975 49 517 0
2019-02-19 18:11:55 GMT 53.256821 14.098206 32,975 49 517 0
2019-02-19 18:11:49 GMT 53.247147 14.078979 32,975 49 517 -128
2019-02-19 18:11:46 GMT 53.240677 14.066216 33,000 49 516 -128
2019-02-19 18:11:39 GMT 53.231319 14.047717 33,000 49 516 -128
2019-02-19 18:11:36 GMT 53.228073 14.041312 33,000 49 516 -128
2019-02-19 18:11:33 GMT 53.222240 14.029783 33,000 49 516 -64
2019-02-19 18:11:30 GMT 53.216423 14.018232 33,000 49 515 0
2019-02-19 18:11:27 GMT 53.213013 14.011571 33,000 49 515 0
2019-02-19 18:11:24 GMT 53.206879 13.999486 32,975 49 515 64
2019-02-19 18:11:21 GMT 53.200104 13.986145 32,975 49 515 64
2019-02-19 18:11:15 GMT 53.195023 13.976179 32,975 49 515 0
2019-02-19 18:11:12 GMT 53.190582 13.967390 32,975 49 515 0
2019-02-19 18:11:06 GMT 53.179962 13.946516 32,975 49 515 0
2019-02-19 18:11:03 GMT 53.176434 13.939469 32,975 49 515 0
2019-02-19 18:11:00 GMT 53.170761 13.928310 32,975 49 516 -64
2019-02-19 18:10:56 GMT 53.164146 13.915235 32,975 49 515 -64
2019-02-19 18:10:53 GMT 53.159225 13.905552 33,000 49 515 -64
2019-02-19 18:10:47 GMT 53.151066 13.889546 33,000 49 516 -64
2019-02-19 18:10:44 GMT 53.146133 13.879892 33,000 49 515 0
2019-02-19 18:10:36 GMT 53.133980 13.856022 33,000 49 515 0
2019-02-19 18:10:33 GMT 53.130432 13.849051 33,000 49 515 0
2019-02-19 18:10:30 GMT 53.121082 13.830575 33,000 49 515 0
2019-02-19 18:10:23 GMT 53.112751 13.814338 33,000 49 515 -64
2019-02-19 18:10:20 GMT 53.110291 13.809501 33,000 49 515 -64
2019-02-19 18:10:16 GMT 53.099396 13.788077 33,000 49 515 0
2019-02-19 18:10:13 GMT 53.094784 13.779053 33,000 49 515 0
2019-02-19 18:10:10 GMT 53.094784 13.779053 33,000 49 515 0
2019-02-19 18:10:04 GMT 53.084290 13.758545 32,975 49 515 0
2019-02-19 18:10:01 GMT 53.079849 13.749847 32,975 49 515 0
2019-02-19 18:09:58 GMT 53.075958 13.742294 32,975 49 515 0
2019-02-19 18:09:54 GMT 53.069969 13.730556 32,975 49 514 0
2019-02-19 18:09:51 GMT 53.063828 13.718567 32,975 49 514 0
2019-02-19 18:09:48 GMT 53.059498 13.710153 32,975 49 514 0
2019-02-19 18:09:43 GMT 53.051952 13.695400 32,975 49 514 0
2019-02-19 18:09:39 GMT 53.040894 13.673782 33,000 49 514 -64
2019-02-19 18:09:35 GMT 53.040894 13.673782 33,000 49 514 -64
2019-02-19 18:09:32 GMT 53.035847 13.663853 33,000 49 513 -64
2019-02-19 18:09:29 GMT 53.030640 13.653717 33,000 49 513 -64
2019-02-19 18:09:22 GMT 53.019554 13.632150 33,000 49 512 0
2019-02-19 18:09:19 GMT 53.015854 13.625031 33,000 49 512 0
2019-02-19 18:09:16 GMT 53.006798 13.607431 32,975 49 512 0
2019-02-19 18:09:13 GMT 53.006798 13.607431 32,975 49 512 0
2019-02-19 18:09:10 GMT 53.002167 13.598480 32,975 49 512 0
2019-02-19 18:09:07 GMT 52.996033 13.586502 32,975 49 512 0
2019-02-19 18:09:04 GMT 52.987289 13.569565 33,000 49 511 0
2019-02-19 18:09:01 GMT 52.987289 13.569565 32,975 49 511 0
2019-02-19 18:08:58 GMT 52.982849 13.560944 33,000 49 511 0
2019-02-19 18:08:55 GMT 52.979660 13.554696 32,975 49 511 0
2019-02-19 18:08:51 GMT 52.974289 13.544235 32,975 49 511 0
2019-02-19 18:08:48 GMT 52.964493 13.525238 33,000 49 510 0
2019-02-19 18:08:45 GMT 52.964493 13.525238 33,000 49 510 -64
2019-02-19 18:08:42 GMT 52.958679 13.514023 33,000 49 508 64
2019-02-19 18:08:38 GMT 52.952705 13.502433 33,000 49 510 0
2019-02-19 18:08:35 GMT 52.943710 13.484955 32,975 49 509 0
2019-02-19 18:08:32 GMT 52.943710 13.484955 33,000 49 507 -64
2019-02-19 18:08:29 GMT 52.939545 13.477020 33,000 49 507 -64
2019-02-19 18:08:25 GMT 52.928101 13.454819 33,000 49 508 -64
2019-02-19 18:08:22 GMT 52.928101 13.454819 33,000 49 508 64
2019-02-19 18:08:19 GMT 52.923660 13.446274 33,000 49 508 0
2019-02-19 18:08:15 GMT 52.918304 13.435974 32,975 49 508 0
2019-02-19 18:08:12 GMT 52.913132 13.425980 32,975 49 508 0
2019-02-19 18:08:09 GMT 52.909271 13.418623 32,975 49 508 0
2019-02-19 18:08:06 GMT 52.900909 13.402405 32,975 49 507 -64
2019-02-19 18:08:00 GMT 52.895096 13.391266 33,000 49 506 -64
2019-02-19 18:07:56 GMT 52.883331 13.368683 33,000 49 507 -64
2019-02-19 18:07:53 GMT 52.883331 13.368683 33,000 49 506 -64
2019-02-19 18:07:50 GMT 52.878616 13.359528 33,000 49 506 -64
2019-02-19 18:07:47 GMT 52.875240 13.353097 33,000 49 504 0
2019-02-19 18:07:44 GMT 52.871284 13.345485 33,000 49 506 -64
2019-02-19 18:07:41 GMT 52.866585 13.336382 33,000 49 506 0
2019-02-19 18:07:38 GMT 52.862160 13.327907 33,000 49 506 0
2019-02-19 18:07:35 GMT 52.856064 13.316214 33,000 49 506 0
2019-02-19 18:07:31 GMT 52.850616 13.305699 33,000 49 505 0
2019-02-19 18:07:28 GMT 52.839066 13.283463 33,000 49 504 0
2019-02-19 18:07:24 GMT 52.839066 13.283463 33,000 49 504 0
2019-02-19 18:07:21 GMT 52.834625 13.274994 33,000 49 505 0
2019-02-19 18:07:18 GMT 52.831436 13.268895 33,000 49 505 0
2019-02-19 18:07:15 GMT 52.825653 13.257828 32,975 49 505 0
2019-02-19 18:07:12 GMT 52.815796 13.238918 32,975 49 504 -64
2019-02-19 18:07:09 GMT 52.815796 13.238918 32,975 49 504 -64
2019-02-19 18:07:06 GMT 52.812584 13.232797 33,000 49 504 -64
2019-02-19 18:07:02 GMT 52.806808 13.221732 33,000 49 504 -64
2019-02-19 18:06:59 GMT 52.797405 13.203683 33,000 49 504 -64
2019-02-19 18:06:56 GMT 52.797405 13.203683 33,000 49 504 -64
2019-02-19 18:06:53 GMT 52.792694 13.194656 33,000 49 503 0
2019-02-19 18:06:49 GMT 52.787212 13.184222 33,000 49 503 0
2019-02-19 18:06:46 GMT 52.781891 13.174057 33,000 49 503 0
2019-02-19 18:06:43 GMT 52.777222 13.165131 33,000 49 503 0
2019-02-19 18:06:40 GMT 52.773849 13.158718 33,000 49 502 0
2019-02-19 18:06:37 GMT 52.769009 13.149458 33,000 49 502 0
2019-02-19 18:06:33 GMT 52.763100 13.138157 32,975 49 502 0
2019-02-19 18:06:30 GMT 52.753510 13.119952 32,975 49 502 0
2019-02-19 18:06:27 GMT 52.753510 13.119952 32,975 49 501 -64
2019-02-19 18:06:23 GMT 52.743359 13.100568 32,975 49 502 -64
2019-02-19 18:06:17 GMT 52.737167 13.088684 32,975 49 501 0
2019-02-19 18:06:14 GMT 52.728371 13.072004 32,975 49 501 0
2019-02-19 18:06:11 GMT 52.728371 13.072004 32,975 49 501 0
2019-02-19 18:06:08 GMT 52.725204 13.065883 32,975 49 501 0
2019-02-19 18:06:05 GMT 52.720184 13.056412 32,975 49 501 0
2019-02-19 18:06:02 GMT 52.708679 13.034494 32,975 49 501 -64
2019-02-19 18:05:55 GMT 52.704254 13.026175 32,975 49 501 -64
2019-02-19 18:05:52 GMT 52.700951 13.019819 32,975 49 500 -64
2019-02-19 18:05:49 GMT 52.696247 13.010951 32,975 49 500 -64
2019-02-19 18:05:45 GMT 52.690338 12.999725 32,975 49 500 0
2019-02-19 18:05:42 GMT 52.685356 12.990234 32,975 49 500 0
2019-02-19 18:05:39 GMT 52.680794 12.981602 32,975 49 500 0
2019-02-19 18:05:36 GMT 52.676697 12.973912 32,975 49 500 0
2019-02-19 18:05:33 GMT 52.671112 12.963318 32,975 49 500 0
2019-02-19 18:05:30 GMT 52.667908 12.957230 32,975 48 499 0
2019-02-19 18:05:27 GMT 52.663055 12.948094 32,975 48 499 -64
2019-02-19 18:05:24 GMT 52.658543 12.939462 32,975 48 499 -64
2019-02-19 18:05:21 GMT 52.653702 12.930359 32,975 48 499 -64
2019-02-19 18:05:18 GMT 52.647766 12.919159 32,975 48 499 -64
2019-02-19 18:05:14 GMT 52.642776 12.909698 32,975 48 497 64
2019-02-19 18:05:11 GMT 52.638840 12.902298 32,975 48 499 -64
2019-02-19 18:05:08 GMT 52.634171 12.893448 32,975 48 499 -64
2019-02-19 18:05:02 GMT 52.622955 12.872314 33,000 48 499 -64
2019-02-19 18:04:59 GMT 52.619797 12.866287 33,000 48 498 -64
2019-02-19 18:04:56 GMT 52.614944 12.857208 33,000 48 498 0
2019-02-19 18:04:53 GMT 52.605423 12.839203 33,000 48 498 64
2019-02-19 18:04:50 GMT 52.605423 12.839203 33,000 48 498 64
2019-02-19 18:04:46 GMT 52.601166 12.831268 32,975 48 498 64
2019-02-19 18:04:43 GMT 52.596348 12.822144 32,975 48 497 0
2019-02-19 18:04:40 GMT 52.591827 12.813644 32,975 48 497 0
2019-02-19 18:04:37 GMT 52.587708 12.805939 32,975 48 497 0
2019-02-19 18:04:33 GMT 52.580795 12.792892 32,975 48 497 -64
2019-02-19 18:04:30 GMT 52.575771 12.783534 32,975 48 496 -64
2019-02-19 18:04:27 GMT 52.572002 12.776393 32,975 48 496 -64
2019-02-19 18:04:23 GMT 52.565369 12.763977 32,975 48 496 -64
2019-02-19 18:04:20 GMT 52.561481 12.756618 33,000 48 496 -64
2019-02-19 18:04:17 GMT 52.557850 12.749791 33,000 48 496 -64
2019-02-19 18:04:14 GMT 52.552277 12.739334 33,000 48 495 0
2019-02-19 18:04:11 GMT 52.547466 12.730251 33,000 48 495 -64
2019-02-19 18:04:06 GMT 52.540112 12.716439 33,000 48 495 -64
2019-02-19 18:04:03 GMT 52.535568 12.707977 33,000 48 495 0
2019-02-19 18:04:00 GMT 52.531082 12.699489 32,975 48 494 0
2019-02-19 18:03:57 GMT 52.527775 12.693290 33,000 48 494 64
2019-02-19 18:03:54 GMT 52.517670 12.674408 32,975 48 494 0
2019-02-19 18:03:51 GMT 52.517670 12.674408 32,975 48 493 0
2019-02-19 18:03:48 GMT 52.514511 12.668533 32,975 48 493 0
2019-02-19 18:03:45 GMT 52.509109 12.658369 32,975 48 494 0
2019-02-19 18:03:42 GMT 52.503845 12.648544 32,975 48 493 0
2019-02-19 18:03:39 GMT 52.495564 12.633100 32,975 48 493 0
2019-02-19 18:03:36 GMT 52.495564 12.633100 32,975 48 493 0
2019-02-19 18:03:33 GMT 52.489563 12.621918 32,975 48 493 0
2019-02-19 18:03:30 GMT 52.485226 12.613717 32,975 48 493 0
2019-02-19 18:03:27 GMT 52.481735 12.607282 32,975 48 493 -64
2019-02-19 18:03:24 GMT 52.477844 12.600021 32,975 48 493 -64
2019-02-19 18:03:21 GMT 52.467815 12.581229 32,975 48 493 -64
2019-02-19 18:03:18 GMT 52.467815 12.581229 32,975 48 493 -64
2019-02-19 18:03:15 GMT 52.463791 12.573624 32,975 48 492 -64
2019-02-19 18:03:12 GMT 52.458553 12.563886 33,000 48 492 -64
2019-02-19 18:03:09 GMT 52.449234 12.546539 33,000 48 491 -64
2019-02-19 18:03:06 GMT 52.449234 12.546539 33,000 48 491 -64
2019-02-19 18:03:02 GMT 52.444748 12.538147 33,000 48 491 -64
2019-02-19 18:02:59 GMT 52.439514 12.528416 33,000 48 491 0
2019-02-19 18:02:56 GMT 52.434998 12.520065 33,000 48 491 0
2019-02-19 18:02:50 GMT 52.422592 12.496948 32,975 48 491 0
2019-02-19 18:02:47 GMT 52.422592 12.496948 32,975 48 491 0
2019-02-19 18:02:43 GMT 52.411514 12.476349 33,000 48 490 -64
2019-02-19 18:02:40 GMT 52.405807 12.465794 33,000 48 490 -64
2019-02-19 18:02:37 GMT 52.405807 12.465794 33,000 48 490 -64
2019-02-19 18:02:34 GMT 52.402828 12.460223 33,000 48 490 -64
2019-02-19 18:02:31 GMT 52.398056 12.451324 33,000 48 490 -64
2019-02-19 18:02:28 GMT 52.392357 12.440761 33,000 48 489 0
2019-02-19 18:02:24 GMT 52.386063 12.429123 33,000 48 489 0
2019-02-19 18:02:21 GMT 52.383369 12.424203 33,000 48 489 0
2019-02-19 18:02:17 GMT 52.375305 12.409210 33,000 48 488 -64
2019-02-19 18:02:14 GMT 52.372330 12.403717 33,000 48 488 -64
2019-02-19 18:02:11 GMT 52.362610 12.385751 33,000 48 488 -64
2019-02-19 18:02:08 GMT 52.362610 12.385751 33,000 48 488 0
2019-02-19 18:02:05 GMT 52.359787 12.380524 33,000 48 488 0
2019-02-19 18:02:02 GMT 52.353672 12.369193 33,000 48 488 64
2019-02-19 18:01:59 GMT 52.349625 12.361755 33,000 48 488 64
2019-02-19 18:01:56 GMT 52.345459 12.354050 33,000 48 488 0
2019-02-19 18:01:52 GMT 52.338448 12.341099 32,975 48 488 0
2019-02-19 18:01:49 GMT 52.335022 12.334747 32,975 48 487 0
2019-02-19 18:01:45 GMT 52.328903 12.323443 32,975 48 487 0
2019-02-19 18:01:42 GMT 52.325180 12.316589 32,975 48 487 0
2019-02-19 18:01:36 GMT 52.315453 12.298645 32,975 48 487 0
2019-02-19 18:01:33 GMT 52.309662 12.287979 32,975 48 487 0
2019-02-19 18:01:30 GMT 52.307724 12.284363 32,975 48 487 0
2019-02-19 18:01:27 GMT 52.301765 12.273376 32,975 48 487 0
2019-02-19 18:01:24 GMT 52.292362 12.256112 32,975 48 487 0
2019-02-19 18:01:21 GMT 52.292362 12.256112 32,975 48 487 0
2019-02-19 18:01:14 GMT 52.282818 12.238534 32,975 48 487 -64
2019-02-19 18:01:10 GMT 52.276859 12.227548 32,975 48 487 0
2019-02-19 18:01:06 GMT 52.269836 12.214661 32,975 48 487 0
2019-02-19 18:01:02 GMT 52.265549 12.206674 32,975 48 487 0
2019-02-19 18:00:59 GMT 52.261505 12.199326 32,975 48 486 -64
2019-02-19 18:00:55 GMT 52.254639 12.186661 32,975 48 486 -64
2019-02-19 18:00:52 GMT 52.245987 12.170792 32,975 48 486 -64
2019-02-19 18:00:46 GMT 52.241665 12.162807 32,975 48 486 0
2019-02-19 18:00:43 GMT 52.235382 12.151350 32,975 48 486 -64
2019-02-19 18:00:39 GMT 52.230309 12.142011 32,975 48 487 -64
2019-02-19 18:00:34 GMT 52.223282 12.129211 32,975 48 486 0
2019-02-19 18:00:31 GMT 52.219437 12.122116 32,975 48 486 0
2019-02-19 18:00:28 GMT 52.214035 12.112274 32,975 48 485 -64
2019-02-19 18:00:24 GMT 52.207638 12.100499 32,975 48 485 0
2019-02-19 18:00:21 GMT 52.204052 12.093985 32,975 48 485 -64
2019-02-19 18:00:18 GMT 52.200329 12.087158 32,975 48 485 -64
2019-02-19 18:00:15 GMT 52.193619 12.074890 32,975 48 485 -64
2019-02-19 18:00:11 GMT 52.187943 12.064514 32,975 48 485 -64
2019-02-19 18:00:08 GMT 52.184372 12.058029 32,975 48 485 -64
2019-02-19 18:00:04 GMT 52.177643 12.045746 32,975 48 485 0
2019-02-19 18:00:01 GMT 52.172745 12.036743 32,975 48 485 0
2019-02-19 17:59:57 GMT 52.169174 12.030258 32,975 48 485 -64
2019-02-19 17:59:54 GMT 52.159470 12.012558 32,975 48 485 0
2019-02-19 17:59:51 GMT 52.159470 12.012558 32,975 48 485 -64
2019-02-19 17:59:48 GMT 52.153496 12.001700 32,975 48 485 -64
2019-02-19 17:59:45 GMT 52.149490 11.994400 32,975 48 485 0
2019-02-19 17:59:41 GMT 52.143677 11.983795 32,975 48 485 0
2019-02-19 17:59:37 GMT 52.136971 11.971566 32,975 48 484 0
2019-02-19 17:59:34 GMT 52.134750 11.967545 32,975 48 484 0
2019-02-19 17:59:31 GMT 52.129520 11.958069 32,975 48 484 0
2019-02-19 17:59:28 GMT 52.124771 11.949358 32,975 48 484 0
2019-02-19 17:59:25 GMT 52.120865 11.942296 32,975 48 484 0
2019-02-19 17:59:22 GMT 52.114300 11.930368 32,975 48 484 -64
2019-02-19 17:59:19 GMT 52.110714 11.923933 33,000 48 484 -64
2019-02-19 17:59:16 GMT 52.105827 11.914987 33,000 48 484 -64
2019-02-19 17:59:12 GMT 52.099869 11.904144 33,000 48 484 -64
2019-02-19 17:59:09 GMT 52.096424 11.897879 33,000 48 484 0
2019-02-19 17:59:06 GMT 52.093002 11.891708 33,000 48 484 0
2019-02-19 17:59:03 GMT 52.087921 11.882477 33,000 48 484 0
2019-02-19 17:59:00 GMT 52.077484 11.863556 33,000 48 484 0
2019-02-19 17:58:54 GMT 52.075382 11.859741 33,000 48 484 0
2019-02-19 17:58:51 GMT 52.070587 11.851109 32,975 48 484 0
2019-02-19 17:58:48 GMT 52.065079 11.841049 32,975 48 485 0
2019-02-19 17:58:44 GMT 52.059265 11.830521 32,975 48 485 0
2019-02-19 17:58:41 GMT 52.054184 11.821365 32,975 48 485 -64
2019-02-19 17:58:38 GMT 52.049973 11.813736 32,975 48 485 -64
2019-02-19 17:58:35 GMT 52.046242 11.807007 32,975 48 485 0
2019-02-19 17:58:32 GMT 52.041771 11.798924 32,975 48 485 -64
2019-02-19 17:58:29 GMT 52.036369 11.789193 32,975 48 485 -64
2019-02-19 17:58:25 GMT 52.030689 11.778913 32,975 48 485 -64
2019-02-19 17:58:22 GMT 52.026501 11.771301 32,975 48 485 -64
2019-02-19 17:58:18 GMT 52.021240 11.761884 33,000 48 485 -64
2019-02-19 17:58:15 GMT 52.011246 11.743774 33,000 48 485 -64
2019-02-19 17:58:09 GMT 52.005707 11.733780 33,000 48 485 -64
2019-02-19 17:58:05 GMT 51.999874 11.723275 33,000 48 485 -64
2019-02-19 17:58:02 GMT 51.995823 11.715977 33,000 47 485 0
2019-02-19 17:57:58 GMT 51.990280 11.706009 33,000 47 485 -64
2019-02-19 17:57:55 GMT 51.985931 11.698151 33,000 47 485 -64
2019-02-19 17:57:52 GMT 51.976639 11.681519 33,000 47 485 0
2019-02-19 17:57:49 GMT 51.976639 11.681519 33,000 47 485 0
2019-02-19 17:57:46 GMT 51.967667 11.665344 33,000 47 485 0
2019-02-19 17:57:43 GMT 51.962585 11.656180 33,000 47 485 0
2019-02-19 17:57:40 GMT 51.962585 11.656180 32,975 47 485 0
2019-02-19 17:57:36 GMT 51.956253 11.644880 32,975 47 485 0
2019-02-19 17:57:33 GMT 51.953274 11.639465 32,975 47 485 0
2019-02-19 17:57:30 GMT 51.948757 11.631383 32,975 47 485 0
2019-02-19 17:57:23 GMT 51.936329 11.609096 32,975 47 485 0
2019-02-19 17:57:20 GMT 51.933472 11.603699 32,975 47 485 0
2019-02-19 17:57:17 GMT 51.929440 11.596776 32,975 47 485 -64
2019-02-19 17:57:14 GMT 51.923584 11.586304 32,975 47 485 -64
2019-02-19 17:57:11 GMT 51.919384 11.578727 32,975 47 485 -64
2019-02-19 17:57:08 GMT 51.916855 11.574173 33,000 47 484 -64
2019-02-19 17:57:05 GMT 51.909657 11.561305 32,975 47 485 -64
2019-02-19 17:57:02 GMT 51.907097 11.556754 32,975 47 485 -64
2019-02-19 17:56:59 GMT 51.900345 11.544669 33,000 47 484 -64
2019-02-19 17:56:56 GMT 51.897491 11.539536 32,975 47 485 -64
2019-02-19 17:56:52 GMT 51.891815 11.529335 32,975 47 485 -64
2019-02-19 17:56:49 GMT 51.882656 11.512985 33,000 47 484 -64
2019-02-19 17:56:46 GMT 51.882656 11.512985 33,000 47 484 -64
2019-02-19 17:56:43 GMT 51.877396 11.503601 33,000 47 484 -64
2019-02-19 17:56:40 GMT 51.872452 11.494817 33,000 47 484 -64
2019-02-19 17:56:37 GMT 51.863476 11.478729 33,000 47 484 -64
2019-02-19 17:56:34 GMT 51.863476 11.478729 33,000 47 484 -64
2019-02-19 17:56:28 GMT 51.855652 11.464827 33,000 47 484 -64
2019-02-19 17:56:24 GMT 51.844109 11.444244 33,000 47 484 -64
2019-02-19 17:56:21 GMT 51.844109 11.444244 33,000 47 483 0
2019-02-19 17:56:18 GMT 51.838989 11.435134 33,000 47 483 -64
2019-02-19 17:56:14 GMT 51.835373 11.428751 33,000 47 483 -64
2019-02-19 17:56:11 GMT 51.828506 11.416428 33,000 47 483 -64
2019-02-19 17:56:08 GMT 51.824139 11.408691 33,000 47 483 -64
2019-02-19 17:56:05 GMT 51.821159 11.403427 33,000 47 483 -64
2019-02-19 17:56:02 GMT 51.816505 11.395111 33,000 47 483 -64
2019-02-19 17:55:59 GMT 51.811249 11.385844 33,000 47 482 -64
2019-02-19 17:55:56 GMT 51.807816 11.379683 33,000 47 482 -64
2019-02-19 17:55:53 GMT 51.803471 11.371994 33,000 47 482 0
2019-02-19 17:55:50 GMT 51.797791 11.361923 33,000 47 482 0
2019-02-19 17:55:47 GMT 51.793739 11.354752 33,000 47 481 0
2019-02-19 17:55:44 GMT 51.788498 11.345462 33,000 47 481 0
2019-02-19 17:55:40 GMT 51.783096 11.335886 33,000 47 481 0
2019-02-19 17:55:37 GMT 51.777740 11.326385 33,000 47 481 0
2019-02-19 17:55:31 GMT 51.769958 11.312652 33,000 47 481 0
2019-02-19 17:55:28 GMT 51.765289 11.304412 33,000 47 481 -64
2019-02-19 17:55:25 GMT 51.755585 11.287264 33,000 47 480 -64
2019-02-19 17:55:21 GMT 51.755585 11.287264 33,000 47 480 -64
2019-02-19 17:55:18 GMT 51.749611 11.276398 33,000 47 480 0
2019-02-19 17:55:15 GMT 51.745560 11.269523 32,975 47 477 -64
2019-02-19 17:55:12 GMT 51.738110 11.256332 32,975 47 480 0
2019-02-19 17:55:09 GMT 51.732849 11.247101 32,975 47 480 64
2019-02-19 17:55:06 GMT 51.732849 11.247101 32,975 47 480 64
2019-02-19 17:55:00 GMT 51.724503 11.232333 32,975 47 480 0
2019-02-19 17:54:57 GMT 51.720016 11.224390 32,975 47 480 0
2019-02-19 17:54:54 GMT 51.714798 11.215185 32,975 47 480 0
2019-02-19 17:54:50 GMT 51.709526 11.205978 32,975 47 480 -64
2019-02-19 17:54:47 GMT 51.704174 11.196442 32,975 47 479 -64
2019-02-19 17:54:44 GMT 51.700150 11.189352 32,975 47 479 -128
2019-02-19 17:54:41 GMT 51.695526 11.181187 33,000 47 479 -64
2019-02-19 17:54:37 GMT 51.690308 11.171982 33,000 47 479 -64
2019-02-19 17:54:34 GMT 51.679596 11.152979 33,000 47 479 -64
2019-02-19 17:54:31 GMT 51.679596 11.152979 33,000 47 479 0
2019-02-19 17:54:28 GMT 51.675980 11.146669 33,000 47 479 -64
2019-02-19 17:54:25 GMT 51.665863 11.128779 33,000 47 479 -64
2019-02-19 17:54:21 GMT 51.660042 11.118546 33,000 47 478 -64
2019-02-19 17:54:18 GMT 51.660042 11.118546 33,000 47 479 -64
2019-02-19 17:54:15 GMT 51.656132 11.111755 33,000 47 478 -64
2019-02-19 17:54:12 GMT 51.651802 11.104202 33,000 47 478 0
2019-02-19 17:54:07 GMT 51.644958 11.092148 33,000 47 478 0
2019-02-19 17:54:04 GMT 51.636299 11.076965 33,000 47 477 0
2019-02-19 17:53:56 GMT 51.628418 11.063158 33,000 47 477 -64
2019-02-19 17:53:53 GMT 51.624058 11.055527 33,000 47 477 -64
2019-02-19 17:53:49 GMT 51.611847 11.034208 33,000 47 477 0
2019-02-19 17:53:46 GMT 51.611847 11.034208 33,000 47 477 0
2019-02-19 17:53:43 GMT 51.608139 11.027675 33,000 47 476 0
2019-02-19 17:53:40 GMT 51.605164 11.022479 32,975 47 476 0
2019-02-19 17:53:37 GMT 51.599945 11.013349 33,000 47 476 0
2019-02-19 17:53:34 GMT 51.595184 11.005035 33,000 47 470 0
2019-02-19 17:53:31 GMT 51.589691 10.995384 33,000 47 472 0
2019-02-19 17:53:28 GMT 51.586578 10.989965 33,000 47 475 0
2019-02-19 17:53:25 GMT 51.581406 10.980835 33,000 47 475 -64
2019-02-19 17:53:21 GMT 51.576187 10.971779 33,000 47 474 0
2019-02-19 17:53:18 GMT 51.571033 10.962677 33,000 47 474 0
2019-02-19 17:53:14 GMT 51.566006 10.953827 33,000 47 474 0
2019-02-19 17:53:09 GMT 51.558289 10.940082 33,000 47 474 0
2019-02-19 17:53:06 GMT 51.555222 10.934960 33,000 47 474 0
2019-02-19 17:53:03 GMT 51.548721 10.923528 32,975 47 472 0
2019-02-19 17:53:00 GMT 51.545616 10.918121 32,975 47 472 0
2019-02-19 17:52:57 GMT 51.539429 10.907271 33,000 47 469 0
2019-02-19 17:52:53 GMT 51.534897 10.898957 33,000 47 472 -64
2019-02-19 17:52:49 GMT 51.528439 10.887909 33,000 47 471 -64
2019-02-19 17:52:46 GMT 51.524761 10.881424 33,000 47 471 -64
2019-02-19 17:52:42 GMT 51.519455 10.872192 33,000 47 470 -64
2019-02-19 17:52:39 GMT 51.513428 10.861693 33,000 47 469 0
2019-02-19 17:52:36 GMT 51.508896 10.853750 33,000 47 470 0
2019-02-19 17:52:33 GMT 51.500198 10.838607 33,000 47 469 0
2019-02-19 17:52:30 GMT 51.500198 10.838607 32,975 47 469 0
2019-02-19 17:52:27 GMT 51.497108 10.833282 33,000 47 469 64
2019-02-19 17:52:24 GMT 51.492416 10.825096 33,000 47 469 64
2019-02-19 17:52:21 GMT 51.488892 10.818935 32,975 47 469 64
2019-02-19 17:52:18 GMT 51.483032 10.808765 32,975 47 469 0
2019-02-19 17:52:15 GMT 51.477859 10.799783 32,975 47 469 0
2019-02-19 17:52:11 GMT 51.474346 10.793686 32,975 47 469 0
2019-02-19 17:52:07 GMT 51.468338 10.783230 32,975 47 469 -64
2019-02-19 17:52:04 GMT 51.462479 10.772986 32,975 47 469 -64
2019-02-19 17:52:00 GMT 51.452820 10.756209 33,000 47 468 -64
2019-02-19 17:51:57 GMT 51.446823 10.745817 33,000 47 467 0
2019-02-19 17:51:54 GMT 51.446823 10.745817 33,000 47 467 -64
2019-02-19 17:51:51 GMT 51.443893 10.740695 33,000 47 467 0
2019-02-19 17:51:48 GMT 51.434357 10.724182 33,000 47 467 -64
2019-02-19 17:51:42 GMT 51.431305 10.718870 33,000 47 464 896
2019-02-19 17:51:39 GMT 51.426163 10.709991 33,000 47 467 -64
2019-02-19 17:51:33 GMT 51.418259 10.696304 33,000 47 465 0
2019-02-19 17:51:30 GMT 51.413727 10.688435 33,000 47 467 0
2019-02-19 17:51:27 GMT 51.409744 10.681606 33,000 47 467 0
2019-02-19 17:51:24 GMT 51.403931 10.671436 33,000 47 465 0
2019-02-19 17:51:21 GMT 51.401001 10.666388 33,000 47 466 0
2019-02-19 17:51:18 GMT 51.395462 10.656813 33,000 47 465 0
2019-02-19 17:51:15 GMT 51.390785 10.648727 33,000 47 465 0
2019-02-19 17:51:12 GMT 51.381866 10.633355 33,000 47 464 -64
2019-02-19 17:51:09 GMT 51.381866 10.633355 33,000 47 464 0
2019-02-19 17:51:06 GMT 51.376911 10.624847 33,000 47 464 0
2019-02-19 17:51:03 GMT 51.374176 10.620068 33,000 47 464 0
2019-02-19 17:51:00 GMT 51.369789 10.612488 33,000 47 464 0
2019-02-19 17:50:57 GMT 51.365158 10.604479 32,975 47 462 0
2019-02-19 17:50:52 GMT 51.358017 10.592156 32,975 47 463 0
2019-02-19 17:50:49 GMT 51.354240 10.585632 32,975 47 463 0
2019-02-19 17:50:46 GMT 51.349026 10.576630 32,975 47 462 0
2019-02-19 17:50:43 GMT 51.344055 10.568105 32,975 47 462 0
2019-02-19 17:50:40 GMT 51.340321 10.561600 32,975 47 462 0
2019-02-19 17:50:37 GMT 51.334808 10.552071 32,975 47 462 -64
2019-02-19 17:50:31 GMT 51.325935 10.536804 32,975 47 462 -64
2019-02-19 17:50:28 GMT 51.321579 10.529282 32,975 47 462 -64
2019-02-19 17:50:25 GMT 51.318558 10.524012 32,975 47 462 0
2019-02-19 17:50:22 GMT 51.313602 10.515518 32,975 47 462 -128
2019-02-19 17:50:19 GMT 51.309952 10.509239 32,975 47 462 -64
2019-02-19 17:50:16 GMT 51.298370 10.489271 32,975 47 462 -64
2019-02-19 17:50:08 GMT 51.294113 10.482071 32,975 47 463 -256
2019-02-19 17:50:03 GMT 51.285965 10.468041 33,000 47 464 -192
2019-02-19 17:49:59 GMT 51.280701 10.458984 33,000 47 464 320
2019-02-19 17:49:56 GMT 51.270168 10.440979 32,950 47 464 832
2019-02-19 17:49:52 GMT 51.270168 10.440979 32,950 47 464 896
2019-02-19 17:49:49 GMT 51.266510 10.434711 32,900 47 464 896
2019-02-19 17:49:46 GMT 51.260532 10.424500 32,850 47 464 896
2019-02-19 17:49:42 GMT 51.255432 10.415707 32,650 47 464 960
2019-02-19 17:49:38 GMT 51.250149 10.406723 32,700 46 465 960
2019-02-19 17:49:35 GMT 51.239304 10.388184 32,600 46 465 896
2019-02-19 17:49:28 GMT 51.233551 10.378443 32,525 46 466 832
2019-02-19 17:49:25 GMT 51.229900 10.372162 32,450 46 466 832
2019-02-19 17:49:21 GMT 51.225616 10.364914 32,450 46 466 832
2019-02-19 17:49:17 GMT 51.219589 10.354688 32,325 46 466 960
2019-02-19 17:49:14 GMT 51.215881 10.348453 32,275 46 466 832
2019-02-19 17:49:11 GMT 51.210434 10.339174 29,775 46 465 832
2019-02-19 17:49:06 GMT 51.201736 10.324478 32,175 46 466 1024
2019-02-19 17:49:00 GMT 51.193314 10.310298 31,925 46 465 1088
2019-02-19 17:48:56 GMT 51.188141 10.301590 32,025 46 465 1216
2019-02-19 17:48:53 GMT 51.182556 10.292185 31,950 46 465 1088
2019-02-19 17:48:50 GMT 51.178413 10.285187 31,875 46 465 1280
2019-02-19 17:48:47 GMT 51.174866 10.279269 31,850 46 465 1216
2019-02-19 17:48:44 GMT 51.165844 10.264130 31,650 46 466 1600
2019-02-19 17:48:41 GMT 51.165844 10.264130 31,700 46 466 1600
2019-02-19 17:48:35 GMT 51.157104 10.249428 31,475 46 467 1472
2019-02-19 17:48:32 GMT 51.152020 10.241013 31,475 46 467 1408
2019-02-19 17:48:29 GMT 51.146851 10.232315 31,375 46 467 1472
2019-02-19 17:48:25 GMT 51.141171 10.222855 31,275 46 467 1536
2019-02-19 17:48:22 GMT 51.137604 10.216840 30,225 46 471 1856
2019-02-19 17:48:18 GMT 51.130783 10.205408 33,000 46 469 1920
2019-02-19 17:48:13 GMT 51.123184 10.192640 30,900 46 470 1856
2019-02-19 17:48:10 GMT 51.119896 10.187073 30,225 46 471 1856
2019-02-19 17:48:07 GMT 51.115448 10.179501 30,725 47 472 1920
2019-02-19 17:48:03 GMT 51.109497 10.169331 30,350 47 475 1984
2019-02-19 17:47:59 GMT 51.103546 10.159087 30,475 47 474 1984
2019-02-19 17:47:56 GMT 51.093269 10.140915 30,275 48 477 1792
2019-02-19 17:47:53 GMT 51.093269 10.140915 30,125 48 478 1408
2019-02-19 17:47:49 GMT 51.087982 10.131547 30,150 48 478 1152
2019-02-19 17:47:44 GMT 51.081345 10.119819 30,100 48 477 896
2019-02-19 17:47:41 GMT 51.075714 10.109946 30,000 47 477 960
2019-02-19 17:47:38 GMT 51.072464 10.104156 30,000 47 477 960
2019-02-19 17:47:34 GMT 51.063477 10.088272 29,900 47 477 1024
2019-02-19 17:47:31 GMT 51.063477 10.088272 29,850 48 478 1088
2019-02-19 17:47:28 GMT 51.058868 10.080185 29,825 48 478 1088
2019-02-19 17:47:25 GMT 51.053280 10.070343 29,750 47 479 1152
2019-02-19 17:47:21 GMT 51.047787 10.060654 29,525 47 479 1152
2019-02-19 17:47:18 GMT 51.042156 10.050735 29,550 47 480 960
2019-02-19 17:47:14 GMT 51.037128 10.041885 29,425 47 480 960
2019-02-19 17:47:11 GMT 51.032639 10.034081 29,425 47 480 1088
2019-02-19 17:47:08 GMT 51.023438 10.017898 29,425 47 480 1088
2019-02-19 17:47:05 GMT 51.023438 10.017898 29,400 47 480 960
2019-02-19 17:47:00 GMT 51.010826 9.995728 29,125 47 480 1024
2019-02-19 17:46:56 GMT 51.010826 9.995728 29,225 47 480 960
2019-02-19 17:46:53 GMT 51.007278 9.989542 29,200 47 479 960
2019-02-19 17:46:50 GMT 51.001934 9.980164 29,075 47 478 960
2019-02-19 17:46:47 GMT 50.997025 9.971577 29,025 47 477 1088
2019-02-19 17:46:44 GMT 50.990948 9.960938 28,250 48 481 1728
2019-02-19 17:46:41 GMT 50.988144 9.956063 28,975 47 477 1408
2019-02-19 17:46:38 GMT 50.979401 9.940771 28,800 47 477 1600
2019-02-19 17:46:31 GMT 50.974365 9.931938 28,675 47 479 1920
2019-02-19 17:46:28 GMT 50.967819 9.920580 28,450 47 477 1792
2019-02-19 17:46:25 GMT 50.964970 9.915695 28,200 50 485 2048
2019-02-19 17:46:22 GMT 50.960495 9.907961 28,375 50 484 2048
2019-02-19 17:46:19 GMT 50.955288 9.898834 28,325 47 480 1792
2019-02-19 17:46:15 GMT 50.949509 9.888586 28,050 49 482 1792
2019-02-19 17:46:12 GMT 50.945141 9.880600 27,850 51 488 2240
2019-02-19 17:46:09 GMT 50.940994 9.872775 28,000 50 483 1920
2019-02-19 17:46:05 GMT 50.935410 9.862061 27,725 51 486 2240
2019-02-19 17:46:02 GMT 50.929642 9.850728 27,725 51 487 2240
2019-02-19 17:45:57 GMT 50.923965 9.839222 27,650 51 488 2240
2019-02-19 17:45:53 GMT 50.919304 9.829483 27,450 53 491 1920
2019-02-19 17:45:50 GMT 50.914555 9.819412 27,375 60 499 1088
2019-02-19 17:45:46 GMT 50.909248 9.807663 27,175 54 493 1792
2019-02-19 17:45:43 GMT 50.905151 9.798543 27,075 55 496 1600
2019-02-19 17:45:40 GMT 50.901985 9.791031 26,975 52 487 1408
2019-02-19 17:45:36 GMT 50.896866 9.778500 26,800 60 499 1024
2019-02-19 17:45:33 GMT 50.892334 9.766623 26,775 58 495 1152
2019-02-19 17:45:30 GMT 50.888859 9.757233 26,775 60 498 960
2019-02-19 17:45:27 GMT 50.885880 9.748956 26,750 60 499 1024
2019-02-19 17:45:22 GMT 50.874573 9.718595 26,550 58 495 1344
2019-02-19 17:45:17 GMT 50.874573 9.718595 26,575 58 495 1280
2019-02-19 17:45:14 GMT 50.867023 9.699707 26,425 57 493 1408
2019-02-19 17:45:11 GMT 50.862045 9.687653 26,375 56 493 1408
2019-02-19 17:45:08 GMT 50.862045 9.687653 26,325 56 492 1408
2019-02-19 17:45:02 GMT 50.855621 9.672852 26,125 54 489 1280
2019-02-19 17:44:59 GMT 50.851685 9.664109 26,175 54 489 1280
2019-02-19 17:44:55 GMT 50.847286 9.654541 26,100 53 488 1280
2019-02-19 17:44:52 GMT 50.842167 9.643784 25,975 52 487 1472
2019-02-19 17:44:49 GMT 50.837997 9.635381 25,900 51 485 1600
2019-02-19 17:44:45 GMT 50.832550 9.624617 25,850 51 484 1600
2019-02-19 17:44:42 GMT 50.823174 9.606628 25,700 50 483 1216
2019-02-19 17:44:39 GMT 50.823174 9.606628 25,650 50 483 1216
2019-02-19 17:44:36 GMT 50.818680 9.597894 25,275 50 483 1152
2019-02-19 17:44:32 GMT 50.814140 9.589157 25,400 50 481 1600
2019-02-19 17:44:29 GMT 50.806507 9.574509 25,375 50 481 1728
2019-02-19 17:44:23 GMT 50.802132 9.566116 25,325 50 481 1664
2019-02-19 17:44:20 GMT 50.796661 9.555582 24,950 50 477 1216
2019-02-19 17:44:17 GMT 50.793427 9.549332 25,125 50 480 1280
2019-02-19 17:44:14 GMT 50.788631 9.540100 25,075 50 480 1216
2019-02-19 17:44:10 GMT 50.783249 9.529823 24,925 50 478 1152
2019-02-19 17:44:07 GMT 50.779495 9.522548 24,750 50 476 1472
2019-02-19 17:44:04 GMT 50.774414 9.512898 24,875 50 477 1280
2019-02-19 17:44:01 GMT 50.770660 9.505615 24,800 50 477 1408
2019-02-19 17:43:58 GMT 50.758511 9.482346 24,600 50 476 1536
2019-02-19 17:43:53 GMT 50.754868 9.475337 24,550 50 476 1536
2019-02-19 17:43:50 GMT 50.750690 9.467316 24,450 50 475 1664
2019-02-19 17:43:47 GMT 50.750690 9.467316 24,175 50 472 2048
2019-02-19 17:43:43 GMT 50.744267 9.455032 24,300 50 475 1664
2019-02-19 17:43:40 GMT 50.741798 9.450226 24,250 50 474 1664
2019-02-19 17:43:37 GMT 50.737610 9.442229 23,950 50 473 1280
2019-02-19 17:43:34 GMT 50.732986 9.433470 24,125 50 473 1408
2019-02-19 17:43:31 GMT 50.729370 9.426575 23,975 50 473 1344
2019-02-19 17:43:28 GMT 50.723923 9.416174 23,950 50 472 1472
2019-02-19 17:43:25 GMT 50.720581 9.409790 23,900 50 472 1536
2019-02-19 17:43:22 GMT 50.715450 9.400024 23,750 50 471 1792
2019-02-19 17:43:19 GMT 50.712006 9.393387 23,750 50 471 1920
2019-02-19 17:43:15 GMT 50.706024 9.382027 23,450 50 473 1984
2019-02-19 17:43:12 GMT 50.701996 9.374307 23,400 50 472 1920
2019-02-19 17:43:05 GMT 50.691479 9.354172 23,050 50 472 2048
2019-02-19 17:43:01 GMT 50.686169 9.344101 23,050 50 472 2112
2019-02-19 17:42:58 GMT 50.683701 9.339294 23,000 50 472 2368
2019-02-19 17:42:55 GMT 50.679520 9.331327 22,875 50 473 2432
2019-02-19 17:42:52 GMT 50.673553 9.319916 22,650 50 473 2432
2019-02-19 17:42:48 GMT 50.668716 9.310624 22,625 50 473 2368
2019-02-19 17:42:44 GMT 50.662708 9.299184 22,450 50 474 1984
2019-02-19 17:42:41 GMT 50.659103 9.292265 22,050 50 473 1792
2019-02-19 17:42:38 GMT 50.655025 9.284561 22,225 50 474 1856
2019-02-19 17:42:35 GMT 50.649490 9.273979 22,025 50 473 1792
2019-02-19 17:42:32 GMT 50.646553 9.268378 22,025 50 473 1856
2019-02-19 17:42:29 GMT 50.640968 9.257837 21,900 50 472 1856
2019-02-19 17:42:24 GMT 50.636261 9.248826 21,575 50 472 1856
2019-02-19 17:42:21 GMT 50.632076 9.240838 21,575 50 470 2112
2019-02-19 17:42:18 GMT 50.627094 9.231336 21,625 50 470 1856
2019-02-19 17:42:13 GMT 50.620285 9.218469 21,300 50 470 2048
2019-02-19 17:42:10 GMT 50.615734 9.209809 21,325 50 470 2112
2019-02-19 17:42:07 GMT 50.612274 9.203218 21,100 50 468 2112
2019-02-19 17:42:03 GMT 50.606613 9.192439 21,025 50 470 2048
2019-02-19 17:42:00 GMT 50.601585 9.183011 20,950 50 469 2048
2019-02-19 17:41:57 GMT 50.598679 9.177487 20,950 50 469 2048
2019-02-19 17:41:54 GMT 50.587646 9.156526 20,600 50 468 2112
2019-02-19 17:41:50 GMT 50.587646 9.156526 20,600 50 468 2176
2019-02-19 17:41:47 GMT 50.584732 9.151017 20,525 50 468 2112
2019-02-19 17:41:42 GMT 50.578125 9.138457 20,025 50 467 1792
2019-02-19 17:41:39 GMT 50.573135 9.129060 20,275 50 467 1856
2019-02-19 17:41:35 GMT 50.561687 9.107443 20,075 50 466 1792
2019-02-19 17:41:31 GMT 50.561687 9.107443 19,975 50 466 1792
2019-02-19 17:41:28 GMT 50.556847 9.098313 19,850 50 465 1856
2019-02-19 17:41:25 GMT 50.553448 9.091855 19,800 50 464 1856
2019-02-19 17:41:19 GMT 50.545074 9.076080 19,600 50 463 2048
2019-02-19 17:41:16 GMT 50.535919 9.058733 19,400 50 462 1600
2019-02-19 17:41:09 GMT 50.531242 9.049988 19,300 50 462 1728
2019-02-19 17:41:06 GMT 50.528915 9.045651 18,975 50 461 0
2019-02-19 17:41:03 GMT 50.523888 9.036106 18,975 50 460 1600
2019-02-19 17:41:00 GMT 50.520493 9.029678 19,000 50 459 1792
2019-02-19 17:40:56 GMT 50.515045 9.019486 18,925 50 458 1920
2019-02-19 17:40:53 GMT 50.510605 9.011030 18,500 50 457 2304
2019-02-19 17:40:50 GMT 50.507217 9.004669 18,475 50 457 2304
2019-02-19 17:40:47 GMT 50.501915 8.994759 18,375 50 457 2304
2019-02-19 17:40:43 GMT 50.497726 8.986816 18,450 50 457 2304
2019-02-19 17:40:39 GMT 50.490692 8.973589 17,425 50 455 2176
2019-02-19 17:40:36 GMT 50.487717 8.968024 18,100 50 457 2176
2019-02-19 17:40:29 GMT 50.478653 8.950966 17,925 50 455 2176
2019-02-19 17:40:26 GMT 50.474358 8.942871 17,325 50 454 2176
2019-02-19 17:40:23 GMT 50.470165 8.935003 17,650 50 455 2112
2019-02-19 17:40:19 GMT 50.459087 8.914366 17,475 50 452 2112
2019-02-19 17:40:16 GMT 50.459087 8.914366 17,400 50 453 2112
2019-02-19 17:40:13 GMT 50.456432 8.909318 17,300 50 453 2112
2019-02-19 17:40:10 GMT 50.446609 8.890975 17,000 50 451 2112
2019-02-19 17:40:06 GMT 50.446609 8.890975 16,950 50 451 2112
2019-02-19 17:40:03 GMT 50.441399 8.881184 16,950 50 451 2112
2019-02-19 17:40:00 GMT 50.435349 8.869942 16,775 49 450 2176
2019-02-19 17:39:57 GMT 50.435349 8.869942 16,775 50 450 2304
2019-02-19 17:39:54 GMT 50.430817 8.861486 16,625 49 449 2496
2019-02-19 17:39:50 GMT 50.421612 8.844291 16,275 50 448 2304
2019-02-19 17:39:44 GMT 50.416672 8.835104 16,200 50 448 2240
2019-02-19 17:39:37 GMT 50.401783 8.807324 15,800 49 445 1728
2019-02-19 17:39:32 GMT 50.401783 8.807324 15,500 49 442 1856
2019-02-19 17:39:29 GMT 50.390285 8.785945 15,650 49 442 1920
2019-02-19 17:39:24 GMT 50.390285 8.785945 15,600 49 442 1984
2019-02-19 17:39:21 GMT 50.386871 8.779594 15,475 49 441 2176
2019-02-19 17:39:18 GMT 50.383629 8.773474 15,375 50 440 2304
2019-02-19 17:39:14 GMT 50.373154 8.754025 15,150 50 439 2624
2019-02-19 17:39:11 GMT 50.373154 8.754025 15,050 49 438 2496
2019-02-19 17:39:07 GMT 50.368607 8.745551 14,900 49 438 2304
2019-02-19 17:39:02 GMT 50.362724 8.734576 14,775 50 437 1536
2019-02-19 17:38:59 GMT 50.356750 8.723506 14,625 49 435 1152
2019-02-19 17:38:56 GMT 50.354298 8.718913 14,575 49 433 1280
2019-02-19 17:38:52 GMT 50.347736 8.706739 14,450 49 431 1728
2019-02-19 17:38:46 GMT 50.341370 8.694884 14,075 50 428 2304
2019-02-19 17:38:43 GMT 50.338303 8.689174 14,125 49 361 1024
2019-02-19 17:38:40 GMT 50.334003 8.681055 13,975 50 429 2944
2019-02-19 17:38:37 GMT 50.330063 8.673706 13,550 50 428 2304
2019-02-19 17:38:34 GMT 50.326229 8.666580 13,700 50 429 2496
2019-02-19 17:38:31 GMT 50.322830 8.660118 13,600 50 428 2304
2019-02-19 17:38:28 GMT 50.318359 8.651808 13,450 50 428 2240
2019-02-19 17:38:25 GMT 50.314041 8.643783 13,300 49 427 2304
2019-02-19 17:38:21 GMT 50.306076 8.628893 13,125 50 425 2112
2019-02-19 17:38:15 GMT 50.302395 8.622115 13,025 50 425 2112
2019-02-19 17:38:11 GMT 50.296600 8.611330 12,825 50 421 1472
2019-02-19 17:38:08 GMT 50.292850 8.604299 12,800 50 415 1152
2019-02-19 17:38:05 GMT 50.289597 8.598247 12,725 50 420 1408
2019-02-19 17:38:02 GMT 50.285866 8.591309 12,650 50 417 1152
2019-02-19 17:37:59 GMT 50.281536 8.583292 12,550 49 415 1216
2019-02-19 17:37:56 GMT 50.278465 8.577501 12,450 50 411 1024
2019-02-19 17:37:52 GMT 50.272461 8.566367 12,400 50 409 960
2019-02-19 17:37:49 GMT 50.268814 8.559578 11,750 50 380 960
2019-02-19 17:37:46 GMT 50.266315 8.554861 12,325 50 405 960
2019-02-19 17:37:43 GMT 50.263321 8.549243 12,300 50 402 1024
2019-02-19 17:37:40 GMT 50.260216 8.543503 12,250 50 379 960
2019-02-19 17:37:37 GMT 50.256306 8.536228 12,175 49 359 1024
2019-02-19 17:37:34 GMT 50.247894 8.520476 12,100 50 392 1024
2019-02-19 17:37:31 GMT 50.247894 8.520476 11,850 50 390 1024
2019-02-19 17:37:27 GMT 50.244434 8.514033 12,025 50 389 1088
2019-02-19 17:37:24 GMT 50.237137 8.500310 11,925 50 382 1024
2019-02-19 17:37:21 GMT 50.237137 8.500310 11,900 50 381 960
2019-02-19 17:37:18 GMT 50.234161 8.494817 11,750 50 380 960
2019-02-19 17:37:14 GMT 50.225349 8.478402 11,725 50 371 896
2019-02-19 17:37:10 GMT 50.225349 8.478402 11,650 49 371 896
2019-02-19 17:37:07 GMT 50.221348 8.470979 11,700 49 369 896
2019-02-19 17:37:04 GMT 50.218414 8.465544 11,650 49 366 896
2019-02-19 17:37:01 GMT 50.214363 8.458062 11,575 49 364 960
2019-02-19 17:36:58 GMT 50.211365 8.452534 11,575 49 361 960
2019-02-19 17:36:55 GMT 50.205750 8.442325 11,475 49 356 1088
2019-02-19 17:36:52 GMT 50.205750 8.442325 11,450 49 355 1152
2019-02-19 17:36:49 GMT 50.201614 8.434753 10,275 48 339 2368
2019-02-19 17:36:46 GMT 50.198627 8.429409 11,300 49 349 1344
2019-02-19 17:36:42 GMT 50.192184 8.417913 11,175 48 346 1408
2019-02-19 17:36:39 GMT 50.192184 8.417913 11,075 48 342 1792
2019-02-19 17:36:36 GMT 50.188572 8.411593 11,075 48 342 1792
2019-02-19 17:36:32 GMT 50.184986 8.405432 10,850 47 339 2304
2019-02-19 17:36:29 GMT 50.181313 8.399048 10,825 47 339 2304
2019-02-19 17:36:26 GMT 50.174095 8.386428 10,625 48 340 2368
2019-02-19 17:36:23 GMT 50.174095 8.386428 10,550 48 340 2368
2019-02-19 17:36:19 GMT 50.170578 8.380183 10,425 49 340 2496
2019-02-19 17:36:15 GMT 50.166687 8.373172 10,225 48 340 2496
2019-02-19 17:36:12 GMT 50.163063 8.366683 10,100 47 340 2176
2019-02-19 17:36:09 GMT 50.159866 8.361246 9,975 46 339 1536
2019-02-19 17:36:06 GMT 50.152775 8.349906 9,900 45 337 768
2019-02-19 17:36:03 GMT 50.152775 8.349906 9,875 43 333 448
2019-02-19 17:35:57 GMT 50.147282 8.341889 9,825 38 328 960
2019-02-19 17:35:54 GMT 50.143799 8.337250 9,800 38 327 1088
2019-02-19 17:35:51 GMT 50.138947 8.331274 9,750 36 326 1152
2019-02-19 17:35:48 GMT 50.136383 8.328360 9,675 33 326 1152
2019-02-19 17:35:45 GMT 50.131851 8.323734 9,475 27 322 1024
2019-02-19 17:35:42 GMT 50.127449 8.319694 9,500 26 322 896
2019-02-19 17:35:38 GMT 50.123352 8.316279 9,450 335 226 1984
2019-02-19 17:35:34 GMT 50.117432 8.312025 9,350 19 314 1280
2019-02-19 17:35:30 GMT 50.112320 8.308930 9,400 19 317 576
2019-02-19 17:35:27 GMT 50.108086 8.306555 9,375 19 315 1024
2019-02-19 17:35:24 GMT 50.104614 8.304724 9,275 19 315 1408
2019-02-19 17:35:21 GMT 50.098709 8.301472 9,225 19 315 1600
2019-02-19 17:35:18 GMT 50.095688 8.299810 9,200 19 315 1728
2019-02-19 17:35:15 GMT 50.091431 8.297497 8,825 15 312 768
2019-02-19 17:35:12 GMT 50.088531 8.295865 9,000 15 312 768
2019-02-19 17:35:09 GMT 50.083420 8.293015 8,925 19 316 1216
2019-02-19 17:35:06 GMT 50.074707 8.288442 8,850 17 314 832
2019-02-19 17:35:03 GMT 50.074707 8.288442 8,825 14 310 768
2019-02-19 17:34:59 GMT 50.070007 8.286510 8,775 11 307 1024
2019-02-19 17:34:55 GMT 50.062775 8.284342 8,675 7 303 1536
2019-02-19 17:34:51 GMT 50.058739 8.283691 8,575 3 301 1984
2019-02-19 17:34:47 GMT 50.052063 8.283258 8,400 0 299 2112
2019-02-19 17:34:44 GMT 50.047806 8.283475 8,075 357 296 2112
2019-02-19 17:34:41 GMT 50.044773 8.283840 8,150 353 293 2176
2019-02-19 17:34:38 GMT 50.039932 8.284848 8,075 350 292 2240
2019-02-19 17:34:34 GMT 50.035538 8.286149 7,825 344 289 2432
2019-02-19 17:34:28 GMT 50.027687 8.289630 7,675 341 287 2560
2019-02-19 17:34:24 GMT 50.022614 8.292599 7,400 338 286 2368
2019-02-19 17:34:21 GMT 50.018921 8.294967 7,400 337 285 2304
2019-02-19 17:34:17 GMT 50.011414 8.299954 7,175 337 283 2176
2019-02-19 17:34:11 GMT 50.007935 8.302267 7,075 337 279 1536
2019-02-19 17:34:08 GMT 50.002670 8.305736 6,925 337 279 1600
2019-02-19 17:34:05 GMT 49.999832 8.307616 6,750 337 276 1280
2019-02-19 17:34:02 GMT 49.996174 8.310118 6,800 337 275 1280
2019-02-19 17:33:59 GMT 49.992542 8.312493 6,725 337 267 1344
2019-02-19 17:33:56 GMT 49.990128 8.314121 6,675 337 271 1408
2019-02-19 17:33:53 GMT 49.982113 8.319545 6,500 337 266 1280
2019-02-19 17:33:47 GMT 49.979736 8.321132 6,450 337 264 960
2019-02-19 17:33:44 GMT 49.976303 8.323517 6,425 337 264 960
2019-02-19 17:33:41 GMT 49.971172 8.326969 6,350 337 257 704
2019-02-19 17:33:38 GMT 49.968987 8.328379 6,325 337 255 704
2019-02-19 17:33:35 GMT 49.965168 8.330977 6,275 337 252 640
2019-02-19 17:33:30 GMT 49.960373 8.334169 6,225 337 248 640
2019-02-19 17:33:24 GMT 49.954880 8.337756 6,175 338 244 768
2019-02-19 17:33:21 GMT 49.947899 8.342335 6,100 338 235 768
2019-02-19 17:33:18 GMT 49.947899 8.342335 6,100 338 237 768
2019-02-19 17:33:13 GMT 49.941845 8.346120 6,025 340 232 832
2019-02-19 17:33:10 GMT 49.940231 8.347080 6,025 340 232 832
2019-02-19 17:33:06 GMT 49.935150 8.349971 5,875 341 229 1408
2019-02-19 17:33:03 GMT 49.933655 8.350797 5,825 341 228 1984
2019-02-19 17:33:00 GMT 49.929882 8.352876 5,725 340 227 1856
2019-02-19 17:32:57 GMT 49.927597 8.354163 5,500 332 225 1984
2019-02-19 17:32:53 GMT 49.923038 8.357404 5,525 334 226 1984
2019-02-19 17:32:49 GMT 49.916710 8.364456 5,250 317 224 1856
2019-02-19 17:32:45 GMT 49.916710 8.364456 5,125 313 225 1792
2019-02-19 17:32:42 GMT 49.914139 8.368474 5,125 313 225 1792
2019-02-19 17:32:39 GMT 49.910568 8.376280 3,875 302 222 1600
2019-02-19 17:32:33 GMT 49.909306 8.379748 4,875 297 221 1600
2019-02-19 17:32:30 GMT 49.908005 8.384086 4,800 292 221 1664
2019-02-19 17:32:27 GMT 49.906677 8.390013 4,675 281 221 1728
2019-02-19 17:32:23 GMT 49.906002 8.394965 4,600 278 221 1792
2019-02-19 17:32:20 GMT 49.905579 8.399843 4,450 272 222 1984
2019-02-19 17:32:16 GMT 49.905491 8.406694 4,175 265 223 2368
2019-02-19 17:32:13 GMT 49.905720 8.411667 4,225 261 225 2304
2019-02-19 17:32:08 GMT 49.906540 8.418491 4,050 256 227 2176
2019-02-19 17:32:02 GMT 49.908516 8.427627 3,825 245 229 1152
2019-02-19 17:31:59 GMT 49.909912 8.432230 3,825 241 228 896
2019-02-19 17:31:56 GMT 49.912426 8.438465 3,750 232 226 256
2019-02-19 17:31:52 GMT 49.914333 8.442028 3,750 227 223 192
2019-02-19 17:31:48 GMT 49.917847 8.447185 3,725 219 220 64
2019-02-19 17:31:44 GMT 49.921314 8.450936 3,750 213 216 0
2019-02-19 17:31:41 GMT 49.922573 8.452124 3,750 208 213 -64
2019-02-19 17:31:38 GMT 49.925785 8.454499 3,750 205 210 64
2019-02-19 17:31:35 GMT 49.928905 8.456281 3,700 198 204 640
2019-02-19 17:31:31 GMT 49.931625 8.457666 3,700 198 204 640
2019-02-19 17:31:27 GMT 49.935749 8.459695 3,650 198 200 576
2019-02-19 17:31:23 GMT 49.939796 8.461625 3,600 198 197 576
2019-02-19 17:31:19 GMT 49.942795 8.463159 3,575 198 193 576
2019-02-19 17:31:16 GMT 49.944920 8.464149 3,550 198 191 704
2019-02-19 17:31:09 GMT 49.951584 8.467351 3,425 197 187 1088
2019-02-19 17:31:05 GMT 49.953903 8.468455 3,375 196 187 1152
2019-02-19 17:31:00 GMT 49.958267 8.470170 3,250 194 187 1280
2019-02-19 17:30:56 GMT 49.962330 8.471572 3,150 191 187 1280
2019-02-19 17:30:51 GMT 49.965820 8.472555 2,800 190 187 1344
2019-02-19 17:30:48 GMT 49.968475 8.473206 3,000 189 186 1472
2019-02-19 17:30:45 GMT 49.971218 8.473799 2,850 188 187 1472
2019-02-19 17:30:41 GMT 49.974758 8.474468 2,800 188 188 1472
2019-02-19 17:30:38 GMT 49.977180 8.474913 2,725 187 188 1600
2019-02-19 17:30:35 GMT 49.979919 8.475446 2,625 187 189 1600
2019-02-19 17:30:31 GMT 49.982811 8.475952 2,575 186 189 1216
2019-02-19 17:30:28 GMT 49.986557 8.476530 2,450 186 189 1216
2019-02-19 17:30:24 GMT 49.990036 8.477036 2,375 186 187 1152
2019-02-19 17:30:20 GMT 49.993053 8.477511 2,275 187 186 1472
2019-02-19 17:30:17 GMT 49.995209 8.477831 2,250 187 186 1536
2019-02-19 17:30:13 GMT 49.999104 8.478550 2,150 213 178 1216
2019-02-19 17:30:07 GMT 50.003761 8.479961 1,950 197 185 1664
2019-02-19 17:30:03 GMT 50.010315 8.483903 1,775 207 182 1088
2019-02-19 17:29:55 GMT 50.013336 8.486505 1,675 212 179 1152
2019-02-19 17:29:51 GMT 50.015770 8.489017 1,600 217 176 1408
2019-02-19 17:29:47 GMT 50.018600 8.492504 1,500 223 175 1728
2019-02-19 17:29:43 GMT 50.020752 8.495756 1,375 227 175 1856
2019-02-19 17:29:39 GMT 50.024242 8.502676 1,150 239 176 1664
2019-02-19 17:29:36 GMT 50.024242 8.502676 1,150 240 177 1600
2019-02-19 17:29:30 GMT 50.026524 8.509431 1,025 247 176 1216
2019-02-19 17:29:26 GMT 50.027874 8.514404 950 248 174 1216
2019-02-19 17:29:20 GMT 50.029736 8.521605 725 250 174 1920
2019-02-19 17:29:16 GMT 50.030712 8.525688 650 250 174 1984
2019-02-19 17:29:13 GMT 50.031876 8.530595 550 251 176 1856
2019-02-19 17:29:08 GMT 50.032948 8.535412 425 251 181 1664
2019-02-19 17:29:03 GMT 50.034119 8.540786 300 251 181 1664
2019-02-19 17:28:55 GMT 50.036812 8.552188 125 250 173 0
2019-02-19 17:28:42 GMT 50.039795 8.564638 125 250 140 -64
2019-02-19 17:28:33 GMT 50.041748 8.572825 150 250 102 -64
2019-02-19 17:28:23 GMT 50.043423 8.579780 0 250 64
2019-02-19 17:28:14 GMT 50.044342 8.583626 0 250 48
2019-02-19 17:28:09 GMT 50.044704 8.585165 0 250 39
2019-02-19 17:27:54 GMT 50.044842 8.585723 0 104 0
2019-02-19 17:27:44 GMT 50.044842 8.585725 0 104 0
2019-02-19 17:27:28 GMT 50.044842 8.585723 0 104 0
2019-02-19 17:27:09 GMT 50.044842 8.585725 0 104 0
2019-02-19 17:26:48 GMT 50.044842 8.585723 0 104 0
2019-02-19 17:26:38 GMT 50.044876 8.585852 0 104 5
2019-02-19 17:26:27 GMT 50.044937 8.586131 0 104 4
2019-02-19 17:26:20 GMT 50.045002 8.586267 0 104 5
2019-02-19 17:26:16 GMT 50.045074 8.586335 0 104 6
2019-02-19 17:26:06 GMT 50.045341 8.586224 0 104 7
2019-02-19 17:25:56 GMT 50.045612 8.586075 0 104 7
2019-02-19 17:25:45 GMT 50.045883 8.585924 0 104 7
2019-02-19 17:25:35 GMT 50.046135 8.585760 0 104 7
2019-02-19 17:25:18 GMT 50.046547 8.585291 0 104 7
2019-02-19 17:25:07 GMT 50.046535 8.584767 0 104 7
2019-02-19 17:24:56 GMT 50.046356 8.584015 0 67 17
2019-02-19 17:24:51 GMT 50.046215 8.583484 0 67 17
2019-02-19 17:24:34 GMT 50.045734 8.581443 0 70 21
2019-02-19 17:24:31 GMT 50.045601 8.580879 0 70 21
2019-02-19 17:24:27 GMT 50.045483 8.580396 0 70 21
2019-02-19 17:24:20 GMT 50.045284 8.579561 0 70 21
2019-02-19 17:24:06 GMT 50.044819 8.577594 0 70 21
2019-02-19 17:23:58 GMT 50.044563 8.576499 0 70 21
2019-02-19 17:23:49 GMT 50.044239 8.575145 0 70 21

Making use of Plane Finder data

You are free to use the raw flight data, aircraft information and images provided in this report for your own purposes provided the data is correctly attributed to Plane Finder. We ask that you please credit Plane Finder and link to planefinder.net in close proximity to the content.

Optionally one of the following logos (no smaller then 150x24px) can be used and must link to planefinder.net

Embedding the Plane Finder map

You are welcome to embed the Plane Finder playback map on your website to offer visitors a more interactive experience. We suggest using the following HTML code:

<iframe src="//planefinder.net/data/report/LH728-D-ABYF-7700-squawk-2019-02-19/map" width="800" height="600" seamless="seamless"></iframe>

Where our data comes from

Plane Finder has a global network of data feeds and antenna radars that receive data broadcast directly from aircraft. The primary technologies used are ADS-B and MLAT. We also show feeds from the FAA and a FLARM glider feed.

Click here to find out more about the Plane Finder network.

How we collect our data